<?xml version="1.0" encoding="UTF-8" standalone="no" ?>
<gpx xmlns="http://www.topografix.com/GPX/1/1" xmlns:xsi="http://www.w3.org/2001/XMLSchema-instance" xsi:schemaLocation="http://www.topografix.com/GPX/1/1 http://www.topografix.com/GPX/1/1/gpx.xsd" version="1.1" creator="VisuGPX - https://www.visugpx.com">
  <metadata>
    <name>VTT_2010_06_06_BIRON 35 KM</name>
    <desc><![CDATA[RANDO LA BIRONAISE]]></desc>
  </metadata>
  <trk>
    <name><![CDATA[BIRON 2010]]></name>
    <trkseg>
      <trkpt lat="44.63187" lon="0.87231">
        <ele>248.6381836</ele>
        <time>2010-06-06T06:50:56Z</time>
      </trkpt>
      <trkpt lat="44.63185" lon="0.87228">
        <ele>245.7541504</ele>
        <time>2010-06-06T06:51:09Z</time>
      </trkpt>
      <trkpt lat="44.63188" lon="0.87227">
        <ele>245.7541504</ele>
        <time>2010-06-06T06:51:12Z</time>
      </trkpt>
      <trkpt lat="44.63193" lon="0.87233">
        <ele>245.7541504</ele>
        <time>2010-06-06T06:51:16Z</time>
      </trkpt>
      <trkpt lat="44.63201" lon="0.87247">
        <ele>245.2734375</ele>
        <time>2010-06-06T06:51:22Z</time>
      </trkpt>
      <trkpt lat="44.63204" lon="0.87258">
        <ele>244.3122559</ele>
        <time>2010-06-06T06:51:26Z</time>
      </trkpt>
      <trkpt lat="44.63224" lon="0.87292">
        <ele>237.5828857</ele>
        <time>2010-06-06T06:51:39Z</time>
      </trkpt>
      <trkpt lat="44.63237" lon="0.873">
        <ele>235.1796875</ele>
        <time>2010-06-06T06:51:43Z</time>
      </trkpt>
      <trkpt lat="44.63245" lon="0.87301">
        <ele>233.7376709</ele>
        <time>2010-06-06T06:51:45Z</time>
      </trkpt>
      <trkpt lat="44.63259" lon="0.87298">
        <ele>230.3730469</ele>
        <time>2010-06-06T06:51:48Z</time>
      </trkpt>
      <trkpt lat="44.6327" lon="0.87297">
        <ele>228.4504395</ele>
        <time>2010-06-06T06:51:50Z</time>
      </trkpt>
      <trkpt lat="44.63298" lon="0.87313">
        <ele>223.6437988</ele>
        <time>2010-06-06T06:51:55Z</time>
      </trkpt>
      <trkpt lat="44.63341" lon="0.87364">
        <ele>215.9532471</ele>
        <time>2010-06-06T06:52:03Z</time>
      </trkpt>
      <trkpt lat="44.63389" lon="0.87463">
        <ele>210.1854248</ele>
        <time>2010-06-06T06:52:14Z</time>
      </trkpt>
      <trkpt lat="44.63398" lon="0.87481">
        <ele>210.1854248</ele>
        <time>2010-06-06T06:52:16Z</time>
      </trkpt>
      <trkpt lat="44.63452" lon="0.87617">
        <ele>204.4174805</ele>
        <time>2010-06-06T06:52:29Z</time>
      </trkpt>
      <trkpt lat="44.63467" lon="0.87683">
        <ele>202.0142822</ele>
        <time>2010-06-06T06:52:36Z</time>
      </trkpt>
      <trkpt lat="44.63497" lon="0.87801">
        <ele>200.0916748</ele>
        <time>2010-06-06T06:52:50Z</time>
      </trkpt>
      <trkpt lat="44.63498" lon="0.87808">
        <ele>200.0916748</ele>
        <time>2010-06-06T06:52:51Z</time>
      </trkpt>
      <trkpt lat="44.63518" lon="0.87842">
        <ele>201.0528564</ele>
        <time>2010-06-06T06:52:58Z</time>
      </trkpt>
      <trkpt lat="44.63556" lon="0.87889">
        <ele>204.8980713</ele>
        <time>2010-06-06T06:53:13Z</time>
      </trkpt>
      <trkpt lat="44.63581" lon="0.87913">
        <ele>208.2628174</ele>
        <time>2010-06-06T06:53:26Z</time>
      </trkpt>
      <trkpt lat="44.63603" lon="0.87932">
        <ele>211.6274414</ele>
        <time>2010-06-06T06:53:38Z</time>
      </trkpt>
      <trkpt lat="44.63625" lon="0.8795">
        <ele>213.5500488</ele>
        <time>2010-06-06T06:53:49Z</time>
      </trkpt>
      <trkpt lat="44.63636" lon="0.87958">
        <ele>212.1080322</ele>
        <time>2010-06-06T06:53:53Z</time>
      </trkpt>
      <trkpt lat="44.63657" lon="0.87971">
        <ele>210.6660156</ele>
        <time>2010-06-06T06:53:58Z</time>
      </trkpt>
      <trkpt lat="44.63671" lon="0.8798">
        <ele>209.2241211</ele>
        <time>2010-06-06T06:54:01Z</time>
      </trkpt>
      <trkpt lat="44.63739" lon="0.88019">
        <ele>206.3400879</ele>
        <time>2010-06-06T06:54:13Z</time>
      </trkpt>
      <trkpt lat="44.63757" lon="0.88031">
        <ele>205.8594971</ele>
        <time>2010-06-06T06:54:16Z</time>
      </trkpt>
      <trkpt lat="44.63785" lon="0.88046">
        <ele>203.4561768</ele>
        <time>2010-06-06T06:54:20Z</time>
      </trkpt>
      <trkpt lat="44.63872" lon="0.88082">
        <ele>198.1689453</ele>
        <time>2010-06-06T06:54:31Z</time>
      </trkpt>
      <trkpt lat="44.63989" lon="0.88121">
        <ele>193.3623047</ele>
        <time>2010-06-06T06:54:44Z</time>
      </trkpt>
      <trkpt lat="44.64052" lon="0.88147">
        <ele>190.4783936</ele>
        <time>2010-06-06T06:54:51Z</time>
      </trkpt>
      <trkpt lat="44.6409" lon="0.88172">
        <ele>189.9976807</ele>
        <time>2010-06-06T06:54:56Z</time>
      </trkpt>
      <trkpt lat="44.64165" lon="0.88216">
        <ele>190.4783936</ele>
        <time>2010-06-06T06:55:08Z</time>
      </trkpt>
      <trkpt lat="44.64169" lon="0.88219">
        <ele>190.4783936</ele>
        <time>2010-06-06T06:55:09Z</time>
      </trkpt>
      <trkpt lat="44.64207" lon="0.8824">
        <ele>193.8430176</ele>
        <time>2010-06-06T06:55:22Z</time>
      </trkpt>
      <trkpt lat="44.64239" lon="0.88253">
        <ele>196.2463379</ele>
        <time>2010-06-06T06:55:34Z</time>
      </trkpt>
      <trkpt lat="44.64263" lon="0.88265">
        <ele>196.7269287</ele>
        <time>2010-06-06T06:55:44Z</time>
      </trkpt>
      <trkpt lat="44.64294" lon="0.88284">
        <ele>198.6495361</ele>
        <time>2010-06-06T06:55:58Z</time>
      </trkpt>
      <trkpt lat="44.64308" lon="0.88295">
        <ele>200.5722656</ele>
        <time>2010-06-06T06:56:05Z</time>
      </trkpt>
      <trkpt lat="44.64316" lon="0.88301">
        <ele>201.5335693</ele>
        <time>2010-06-06T06:56:09Z</time>
      </trkpt>
      <trkpt lat="44.64342" lon="0.8832">
        <ele>203.9368896</ele>
        <time>2010-06-06T06:56:20Z</time>
      </trkpt>
      <trkpt lat="44.64374" lon="0.88343">
        <ele>207.3013916</ele>
        <time>2010-06-06T06:56:33Z</time>
      </trkpt>
      <trkpt lat="44.64405" lon="0.88363">
        <ele>206.3400879</ele>
        <time>2010-06-06T06:56:44Z</time>
      </trkpt>
      <trkpt lat="44.64436" lon="0.88383">
        <ele>202.9754639</ele>
        <time>2010-06-06T06:56:52Z</time>
      </trkpt>
      <trkpt lat="44.64459" lon="0.88404">
        <ele>201.5335693</ele>
        <time>2010-06-06T06:56:58Z</time>
      </trkpt>
      <trkpt lat="44.64501" lon="0.88449">
        <ele>202.494873</ele>
        <time>2010-06-06T06:57:09Z</time>
      </trkpt>
      <trkpt lat="44.64531" lon="0.88483">
        <ele>202.9754639</ele>
        <time>2010-06-06T06:57:15Z</time>
      </trkpt>
      <trkpt lat="44.64547" lon="0.88496">
        <ele>202.9754639</ele>
        <time>2010-06-06T06:57:18Z</time>
      </trkpt>
      <trkpt lat="44.64557" lon="0.88502">
        <ele>202.494873</ele>
        <time>2010-06-06T06:57:20Z</time>
      </trkpt>
      <trkpt lat="44.64568" lon="0.88506">
        <ele>202.494873</ele>
        <time>2010-06-06T06:57:22Z</time>
      </trkpt>
      <trkpt lat="44.64655" lon="0.88528">
        <ele>197.2075195</ele>
        <time>2010-06-06T06:57:35Z</time>
      </trkpt>
      <trkpt lat="44.64768" lon="0.8855">
        <ele>189.9976807</ele>
        <time>2010-06-06T06:57:47Z</time>
      </trkpt>
      <trkpt lat="44.64819" lon="0.88558">
        <ele>186.6331787</ele>
        <time>2010-06-06T06:57:52Z</time>
      </trkpt>
      <trkpt lat="44.64934" lon="0.88546">
        <ele>179.9038086</ele>
        <time>2010-06-06T06:58:03Z</time>
      </trkpt>
      <trkpt lat="44.65007" lon="0.88558">
        <ele>180.8652344</ele>
        <time>2010-06-06T06:58:12Z</time>
      </trkpt>
      <trkpt lat="44.65045" lon="0.88567">
        <ele>184.7105713</ele>
        <time>2010-06-06T06:58:23Z</time>
      </trkpt>
      <trkpt lat="44.6507" lon="0.88574">
        <ele>186.1524658</ele>
        <time>2010-06-06T06:58:34Z</time>
      </trkpt>
      <trkpt lat="44.65098" lon="0.88581">
        <ele>188.5557861</ele>
        <time>2010-06-06T06:58:47Z</time>
      </trkpt>
      <trkpt lat="44.65109" lon="0.88583">
        <ele>189.5169678</ele>
        <time>2010-06-06T06:58:53Z</time>
      </trkpt>
      <trkpt lat="44.65115" lon="0.88585">
        <ele>189.5169678</ele>
        <time>2010-06-06T06:58:57Z</time>
      </trkpt>
      <trkpt lat="44.65126" lon="0.8859">
        <ele>189.5169678</ele>
        <time>2010-06-06T06:59:05Z</time>
      </trkpt>
      <trkpt lat="44.65145" lon="0.88602">
        <ele>191.4395752</ele>
        <time>2010-06-06T06:59:18Z</time>
      </trkpt>
      <trkpt lat="44.6517" lon="0.88614">
        <ele>193.3623047</ele>
        <time>2010-06-06T06:59:32Z</time>
      </trkpt>
      <trkpt lat="44.65196" lon="0.88616">
        <ele>200.0916748</ele>
        <time>2010-06-06T06:59:47Z</time>
      </trkpt>
      <trkpt lat="44.65214" lon="0.88607">
        <ele>201.0528564</ele>
        <time>2010-06-06T06:59:59Z</time>
      </trkpt>
      <trkpt lat="44.65226" lon="0.88596">
        <ele>202.494873</ele>
        <time>2010-06-06T07:00:08Z</time>
      </trkpt>
      <trkpt lat="44.65231" lon="0.88599">
        <ele>202.494873</ele>
        <time>2010-06-06T07:00:13Z</time>
      </trkpt>
      <trkpt lat="44.65245" lon="0.88631">
        <ele>202.9754639</ele>
        <time>2010-06-06T07:00:25Z</time>
      </trkpt>
      <trkpt lat="44.65238" lon="0.88673">
        <ele>205.3787842</ele>
        <time>2010-06-06T07:00:39Z</time>
      </trkpt>
      <trkpt lat="44.65227" lon="0.88722">
        <ele>205.3787842</ele>
        <time>2010-06-06T07:00:53Z</time>
      </trkpt>
      <trkpt lat="44.65216" lon="0.88777">
        <ele>205.3787842</ele>
        <time>2010-06-06T07:01:07Z</time>
      </trkpt>
      <trkpt lat="44.65203" lon="0.88831">
        <ele>206.3400879</ele>
        <time>2010-06-06T07:01:21Z</time>
      </trkpt>
      <trkpt lat="44.65195" lon="0.8887">
        <ele>206.8206787</ele>
        <time>2010-06-06T07:01:33Z</time>
      </trkpt>
      <trkpt lat="44.65191" lon="0.88886">
        <ele>205.8594971</ele>
        <time>2010-06-06T07:01:42Z</time>
      </trkpt>
      <trkpt lat="44.65194" lon="0.88888">
        <ele>203.9368896</ele>
        <time>2010-06-06T07:01:52Z</time>
      </trkpt>
      <trkpt lat="44.65191" lon="0.88915">
        <ele>202.0142822</ele>
        <time>2010-06-06T07:02:02Z</time>
      </trkpt>
      <trkpt lat="44.65182" lon="0.88969">
        <ele>198.6495361</ele>
        <time>2010-06-06T07:02:17Z</time>
      </trkpt>
      <trkpt lat="44.6518" lon="0.8898">
        <ele>198.1689453</ele>
        <time>2010-06-06T07:02:19Z</time>
      </trkpt>
      <trkpt lat="44.65177" lon="0.88997">
        <ele>198.1689453</ele>
        <time>2010-06-06T07:02:22Z</time>
      </trkpt>
      <trkpt lat="44.65161" lon="0.89009">
        <ele>197.2075195</ele>
        <time>2010-06-06T07:02:28Z</time>
      </trkpt>
      <trkpt lat="44.65126" lon="0.89005">
        <ele>200.5722656</ele>
        <time>2010-06-06T07:02:41Z</time>
      </trkpt>
      <trkpt lat="44.65097" lon="0.89002">
        <ele>205.3787842</ele>
        <time>2010-06-06T07:02:53Z</time>
      </trkpt>
      <trkpt lat="44.65072" lon="0.89034">
        <ele>206.8206787</ele>
        <time>2010-06-06T07:03:05Z</time>
      </trkpt>
      <trkpt lat="44.65059" lon="0.89067">
        <ele>206.3400879</ele>
        <time>2010-06-06T07:03:14Z</time>
      </trkpt>
      <trkpt lat="44.65053" lon="0.89111">
        <ele>202.0142822</ele>
        <time>2010-06-06T07:03:23Z</time>
      </trkpt>
      <trkpt lat="44.65046" lon="0.89147">
        <ele>199.6108398</ele>
        <time>2010-06-06T07:03:31Z</time>
      </trkpt>
      <trkpt lat="44.65044" lon="0.89156">
        <ele>198.1689453</ele>
        <time>2010-06-06T07:03:33Z</time>
      </trkpt>
      <trkpt lat="44.65042" lon="0.89169">
        <ele>197.2075195</ele>
        <time>2010-06-06T07:03:35Z</time>
      </trkpt>
      <trkpt lat="44.6501" lon="0.89189">
        <ele>193.3623047</ele>
        <time>2010-06-06T07:03:43Z</time>
      </trkpt>
      <trkpt lat="44.64964" lon="0.89194">
        <ele>193.3623047</ele>
        <time>2010-06-06T07:03:56Z</time>
      </trkpt>
      <trkpt lat="44.64952" lon="0.8924">
        <ele>194.8043213</ele>
        <time>2010-06-06T07:04:05Z</time>
      </trkpt>
      <trkpt lat="44.64946" lon="0.89261">
        <ele>198.1689453</ele>
        <time>2010-06-06T07:04:10Z</time>
      </trkpt>
      <trkpt lat="44.64962" lon="0.89281">
        <ele>199.130127</ele>
        <time>2010-06-06T07:04:17Z</time>
      </trkpt>
      <trkpt lat="44.64969" lon="0.89286">
        <ele>199.130127</ele>
        <time>2010-06-06T07:04:19Z</time>
      </trkpt>
      <trkpt lat="44.64988" lon="0.89311">
        <ele>198.6495361</ele>
        <time>2010-06-06T07:04:27Z</time>
      </trkpt>
      <trkpt lat="44.64989" lon="0.89319">
        <ele>199.130127</ele>
        <time>2010-06-06T07:04:39Z</time>
      </trkpt>
      <trkpt lat="44.64989" lon="0.89318">
        <ele>199.130127</ele>
        <time>2010-06-06T07:04:40Z</time>
      </trkpt>
      <trkpt lat="44.64986" lon="0.89311">
        <ele>199.130127</ele>
        <time>2010-06-06T07:04:44Z</time>
      </trkpt>
      <trkpt lat="44.64984" lon="0.89307">
        <ele>199.130127</ele>
        <time>2010-06-06T07:04:47Z</time>
      </trkpt>
      <trkpt lat="44.64978" lon="0.89315">
        <ele>198.6495361</ele>
        <time>2010-06-06T07:04:53Z</time>
      </trkpt>
      <trkpt lat="44.64971" lon="0.89335">
        <ele>196.2463379</ele>
        <time>2010-06-06T07:05:02Z</time>
      </trkpt>
      <trkpt lat="44.64967" lon="0.89345">
        <ele>195.2849121</ele>
        <time>2010-06-06T07:05:06Z</time>
      </trkpt>
      <trkpt lat="44.64961" lon="0.89363">
        <ele>196.2463379</ele>
        <time>2010-06-06T07:05:18Z</time>
      </trkpt>
      <trkpt lat="44.64951" lon="0.8938">
        <ele>198.1689453</ele>
        <time>2010-06-06T07:05:34Z</time>
      </trkpt>
      <trkpt lat="44.6495" lon="0.89382">
        <ele>198.1689453</ele>
        <time>2010-06-06T07:05:35Z</time>
      </trkpt>
      <trkpt lat="44.64945" lon="0.89398">
        <ele>199.6108398</ele>
        <time>2010-06-06T07:05:42Z</time>
      </trkpt>
      <trkpt lat="44.64939" lon="0.89415">
        <ele>200.0916748</ele>
        <time>2010-06-06T07:05:49Z</time>
      </trkpt>
      <trkpt lat="44.64931" lon="0.89434">
        <ele>199.130127</ele>
        <time>2010-06-06T07:05:58Z</time>
      </trkpt>
      <trkpt lat="44.64922" lon="0.89451">
        <ele>199.6108398</ele>
        <time>2010-06-06T07:06:05Z</time>
      </trkpt>
      <trkpt lat="44.64907" lon="0.89472">
        <ele>201.0528564</ele>
        <time>2010-06-06T07:06:14Z</time>
      </trkpt>
      <trkpt lat="44.64893" lon="0.89496">
        <ele>202.494873</ele>
        <time>2010-06-06T07:06:25Z</time>
      </trkpt>
      <trkpt lat="44.64887" lon="0.89507">
        <ele>202.9754639</ele>
        <time>2010-06-06T07:06:29Z</time>
      </trkpt>
      <trkpt lat="44.64879" lon="0.89526">
        <ele>205.3787842</ele>
        <time>2010-06-06T07:06:38Z</time>
      </trkpt>
      <trkpt lat="44.64878" lon="0.89531">
        <ele>205.8594971</ele>
        <time>2010-06-06T07:06:40Z</time>
      </trkpt>
      <trkpt lat="44.64877" lon="0.89539">
        <ele>206.3400879</ele>
        <time>2010-06-06T07:06:43Z</time>
      </trkpt>
      <trkpt lat="44.64876" lon="0.89554">
        <ele>206.3400879</ele>
        <time>2010-06-06T07:06:48Z</time>
      </trkpt>
      <trkpt lat="44.64877" lon="0.89585">
        <ele>206.3400879</ele>
        <time>2010-06-06T07:06:58Z</time>
      </trkpt>
      <trkpt lat="44.64877" lon="0.89604">
        <ele>207.3013916</ele>
        <time>2010-06-06T07:07:03Z</time>
      </trkpt>
      <trkpt lat="44.64877" lon="0.89629">
        <ele>207.7821045</ele>
        <time>2010-06-06T07:07:10Z</time>
      </trkpt>
      <trkpt lat="44.64875" lon="0.89674">
        <ele>205.8594971</ele>
        <time>2010-06-06T07:07:22Z</time>
      </trkpt>
      <trkpt lat="44.64874" lon="0.8968">
        <ele>206.3400879</ele>
        <time>2010-06-06T07:07:25Z</time>
      </trkpt>
      <trkpt lat="44.6487" lon="0.89694">
        <ele>206.8206787</ele>
        <time>2010-06-06T07:07:29Z</time>
      </trkpt>
      <trkpt lat="44.64854" lon="0.89734">
        <ele>206.3400879</ele>
        <time>2010-06-06T07:07:39Z</time>
      </trkpt>
      <trkpt lat="44.64837" lon="0.89777">
        <ele>207.7821045</ele>
        <time>2010-06-06T07:07:50Z</time>
      </trkpt>
      <trkpt lat="44.6483" lon="0.89804">
        <ele>207.3013916</ele>
        <time>2010-06-06T07:07:57Z</time>
      </trkpt>
      <trkpt lat="44.64824" lon="0.89824">
        <ele>205.8594971</ele>
        <time>2010-06-06T07:08:03Z</time>
      </trkpt>
      <trkpt lat="44.64808" lon="0.89864">
        <ele>204.8980713</ele>
        <time>2010-06-06T07:08:13Z</time>
      </trkpt>
      <trkpt lat="44.6479" lon="0.89907">
        <ele>202.0142822</ele>
        <time>2010-06-06T07:08:22Z</time>
      </trkpt>
      <trkpt lat="44.64788" lon="0.89912">
        <ele>202.0142822</ele>
        <time>2010-06-06T07:08:23Z</time>
      </trkpt>
      <trkpt lat="44.64775" lon="0.89953">
        <ele>201.5335693</ele>
        <time>2010-06-06T07:08:32Z</time>
      </trkpt>
      <trkpt lat="44.64768" lon="0.89981">
        <ele>202.0142822</ele>
        <time>2010-06-06T07:08:38Z</time>
      </trkpt>
      <trkpt lat="44.64764" lon="0.9001">
        <ele>200.5722656</ele>
        <time>2010-06-06T07:08:45Z</time>
      </trkpt>
      <trkpt lat="44.64769" lon="0.90017">
        <ele>202.0142822</ele>
        <time>2010-06-06T07:08:50Z</time>
      </trkpt>
      <trkpt lat="44.64809" lon="0.90025">
        <ele>203.9368896</ele>
        <time>2010-06-06T07:09:02Z</time>
      </trkpt>
      <trkpt lat="44.64825" lon="0.90025">
        <ele>204.4174805</ele>
        <time>2010-06-06T07:09:05Z</time>
      </trkpt>
      <trkpt lat="44.64848" lon="0.90025">
        <ele>203.9368896</ele>
        <time>2010-06-06T07:09:09Z</time>
      </trkpt>
      <trkpt lat="44.64932" lon="0.90033">
        <ele>201.0528564</ele>
        <time>2010-06-06T07:09:21Z</time>
      </trkpt>
      <trkpt lat="44.64955" lon="0.90039">
        <ele>202.0142822</ele>
        <time>2010-06-06T07:09:25Z</time>
      </trkpt>
      <trkpt lat="44.64997" lon="0.90045">
        <ele>203.4561768</ele>
        <time>2010-06-06T07:09:36Z</time>
      </trkpt>
      <trkpt lat="44.65039" lon="0.90005">
        <ele>202.0142822</ele>
        <time>2010-06-06T07:09:48Z</time>
      </trkpt>
      <trkpt lat="44.6506" lon="0.89983">
        <ele>201.0528564</ele>
        <time>2010-06-06T07:09:54Z</time>
      </trkpt>
      <trkpt lat="44.65065" lon="0.89999">
        <ele>201.0528564</ele>
        <time>2010-06-06T07:10:00Z</time>
      </trkpt>
      <trkpt lat="44.65063" lon="0.90019">
        <ele>201.0528564</ele>
        <time>2010-06-06T07:10:05Z</time>
      </trkpt>
      <trkpt lat="44.65059" lon="0.9007">
        <ele>194.3237305</ele>
        <time>2010-06-06T07:10:18Z</time>
      </trkpt>
      <trkpt lat="44.6506" lon="0.90076">
        <ele>193.8430176</ele>
        <time>2010-06-06T07:10:20Z</time>
      </trkpt>
      <trkpt lat="44.6506" lon="0.90088">
        <ele>192.8817139</ele>
        <time>2010-06-06T07:10:30Z</time>
      </trkpt>
      <trkpt lat="44.65061" lon="0.90088">
        <ele>194.3237305</ele>
        <time>2010-06-06T07:10:36Z</time>
      </trkpt>
      <trkpt lat="44.65063" lon="0.90075">
        <ele>195.2849121</ele>
        <time>2010-06-06T07:10:41Z</time>
      </trkpt>
      <trkpt lat="44.65063" lon="0.90037">
        <ele>197.2075195</ele>
        <time>2010-06-06T07:10:51Z</time>
      </trkpt>
      <trkpt lat="44.65065" lon="0.90007">
        <ele>198.1689453</ele>
        <time>2010-06-06T07:10:58Z</time>
      </trkpt>
      <trkpt lat="44.65073" lon="0.89979">
        <ele>199.6108398</ele>
        <time>2010-06-06T07:11:05Z</time>
      </trkpt>
      <trkpt lat="44.65078" lon="0.89976">
        <ele>199.6108398</ele>
        <time>2010-06-06T07:11:08Z</time>
      </trkpt>
      <trkpt lat="44.65081" lon="0.89978">
        <ele>199.130127</ele>
        <time>2010-06-06T07:11:10Z</time>
      </trkpt>
      <trkpt lat="44.6509" lon="0.89993">
        <ele>198.1689453</ele>
        <time>2010-06-06T07:11:15Z</time>
      </trkpt>
      <trkpt lat="44.65106" lon="0.90023">
        <ele>196.2463379</ele>
        <time>2010-06-06T07:11:21Z</time>
      </trkpt>
      <trkpt lat="44.65112" lon="0.90035">
        <ele>194.8043213</ele>
        <time>2010-06-06T07:11:23Z</time>
      </trkpt>
      <trkpt lat="44.65125" lon="0.90055">
        <ele>192.401123</ele>
        <time>2010-06-06T07:11:28Z</time>
      </trkpt>
      <trkpt lat="44.6514" lon="0.90082">
        <ele>187.5943604</ele>
        <time>2010-06-06T07:11:35Z</time>
      </trkpt>
      <trkpt lat="44.65168" lon="0.90094">
        <ele>183.7490234</ele>
        <time>2010-06-06T07:11:43Z</time>
      </trkpt>
      <trkpt lat="44.65196" lon="0.90102">
        <ele>183.7490234</ele>
        <time>2010-06-06T07:11:49Z</time>
      </trkpt>
      <trkpt lat="44.65215" lon="0.90106">
        <ele>182.7878418</ele>
        <time>2010-06-06T07:11:53Z</time>
      </trkpt>
      <trkpt lat="44.65226" lon="0.90109">
        <ele>182.3071289</ele>
        <time>2010-06-06T07:11:55Z</time>
      </trkpt>
      <trkpt lat="44.65268" lon="0.90124">
        <ele>182.3071289</ele>
        <time>2010-06-06T07:12:03Z</time>
      </trkpt>
      <trkpt lat="44.65293" lon="0.90133">
        <ele>182.7878418</ele>
        <time>2010-06-06T07:12:09Z</time>
      </trkpt>
      <trkpt lat="44.65311" lon="0.90131">
        <ele>181.826416</ele>
        <time>2010-06-06T07:12:13Z</time>
      </trkpt>
      <trkpt lat="44.65354" lon="0.90116">
        <ele>180.3845215</ele>
        <time>2010-06-06T07:12:20Z</time>
      </trkpt>
      <trkpt lat="44.65368" lon="0.9011">
        <ele>180.8652344</ele>
        <time>2010-06-06T07:12:22Z</time>
      </trkpt>
      <trkpt lat="44.65436" lon="0.90071">
        <ele>184.2298584</ele>
        <time>2010-06-06T07:12:33Z</time>
      </trkpt>
      <trkpt lat="44.65441" lon="0.90067">
        <ele>184.2298584</ele>
        <time>2010-06-06T07:12:34Z</time>
      </trkpt>
      <trkpt lat="44.6547" lon="0.90054">
        <ele>184.7105713</ele>
        <time>2010-06-06T07:12:39Z</time>
      </trkpt>
      <trkpt lat="44.65482" lon="0.90048">
        <ele>184.7105713</ele>
        <time>2010-06-06T07:12:41Z</time>
      </trkpt>
      <trkpt lat="44.65512" lon="0.90032">
        <ele>186.1524658</ele>
        <time>2010-06-06T07:12:48Z</time>
      </trkpt>
      <trkpt lat="44.65548" lon="0.90017">
        <ele>187.5943604</ele>
        <time>2010-06-06T07:12:54Z</time>
      </trkpt>
      <trkpt lat="44.65593" lon="0.9">
        <ele>187.1137695</ele>
        <time>2010-06-06T07:13:01Z</time>
      </trkpt>
      <trkpt lat="44.65609" lon="0.89994">
        <ele>186.6331787</ele>
        <time>2010-06-06T07:13:04Z</time>
      </trkpt>
      <trkpt lat="44.65642" lon="0.89973">
        <ele>186.6331787</ele>
        <time>2010-06-06T07:13:09Z</time>
      </trkpt>
      <trkpt lat="44.65663" lon="0.89966">
        <ele>186.6331787</ele>
        <time>2010-06-06T07:13:12Z</time>
      </trkpt>
      <trkpt lat="44.657" lon="0.89945">
        <ele>186.1524658</ele>
        <time>2010-06-06T07:13:18Z</time>
      </trkpt>
      <trkpt lat="44.65719" lon="0.8994">
        <ele>184.7105713</ele>
        <time>2010-06-06T07:13:21Z</time>
      </trkpt>
      <trkpt lat="44.65742" lon="0.89934">
        <ele>182.7878418</ele>
        <time>2010-06-06T07:13:25Z</time>
      </trkpt>
      <trkpt lat="44.65771" lon="0.89924">
        <ele>181.826416</ele>
        <time>2010-06-06T07:13:32Z</time>
      </trkpt>
      <trkpt lat="44.65778" lon="0.89932">
        <ele>181.3458252</ele>
        <time>2010-06-06T07:13:34Z</time>
      </trkpt>
      <trkpt lat="44.65784" lon="0.89943">
        <ele>180.3845215</ele>
        <time>2010-06-06T07:13:36Z</time>
      </trkpt>
      <trkpt lat="44.6579" lon="0.89957">
        <ele>178.942627</ele>
        <time>2010-06-06T07:13:38Z</time>
      </trkpt>
      <trkpt lat="44.6581" lon="0.89993">
        <ele>173.1746826</ele>
        <time>2010-06-06T07:13:45Z</time>
      </trkpt>
      <trkpt lat="44.65812" lon="0.89994">
        <ele>172.6939697</ele>
        <time>2010-06-06T07:13:46Z</time>
      </trkpt>
      <trkpt lat="44.65824" lon="0.89992">
        <ele>172.6939697</ele>
        <time>2010-06-06T07:14:08Z</time>
      </trkpt>
      <trkpt lat="44.65828" lon="0.89995">
        <ele>171.2520752</ele>
        <time>2010-06-06T07:14:25Z</time>
      </trkpt>
      <trkpt lat="44.6584" lon="0.89996">
        <ele>169.8100586</ele>
        <time>2010-06-06T07:14:36Z</time>
      </trkpt>
      <trkpt lat="44.65843" lon="0.89997">
        <ele>169.8100586</ele>
        <time>2010-06-06T07:14:38Z</time>
      </trkpt>
      <trkpt lat="44.65856" lon="0.89994">
        <ele>171.732666</ele>
        <time>2010-06-06T07:14:46Z</time>
      </trkpt>
      <trkpt lat="44.65875" lon="0.89992">
        <ele>174.1358643</ele>
        <time>2010-06-06T07:14:55Z</time>
      </trkpt>
      <trkpt lat="44.65895" lon="0.89995">
        <ele>175.5778809</ele>
        <time>2010-06-06T07:15:05Z</time>
      </trkpt>
      <trkpt lat="44.65902" lon="0.89993">
        <ele>178.942627</ele>
        <time>2010-06-06T07:15:21Z</time>
      </trkpt>
      <trkpt lat="44.65906" lon="0.8999">
        <ele>180.8652344</ele>
        <time>2010-06-06T07:15:24Z</time>
      </trkpt>
      <trkpt lat="44.65919" lon="0.89989">
        <ele>184.7105713</ele>
        <time>2010-06-06T07:15:35Z</time>
      </trkpt>
      <trkpt lat="44.65921" lon="0.89989">
        <ele>185.1911621</ele>
        <time>2010-06-06T07:15:37Z</time>
      </trkpt>
      <trkpt lat="44.65923" lon="0.89989">
        <ele>186.1524658</ele>
        <time>2010-06-06T07:15:39Z</time>
      </trkpt>
      <trkpt lat="44.65936" lon="0.89987">
        <ele>189.5169678</ele>
        <time>2010-06-06T07:15:49Z</time>
      </trkpt>
      <trkpt lat="44.65945" lon="0.89989">
        <ele>191.9202881</ele>
        <time>2010-06-06T07:15:55Z</time>
      </trkpt>
      <trkpt lat="44.65959" lon="0.8999">
        <ele>194.8043213</ele>
        <time>2010-06-06T07:16:05Z</time>
      </trkpt>
      <trkpt lat="44.6596" lon="0.8999">
        <ele>195.2849121</ele>
        <time>2010-06-06T07:16:06Z</time>
      </trkpt>
      <trkpt lat="44.6597" lon="0.8999">
        <ele>196.7269287</ele>
        <time>2010-06-06T07:16:15Z</time>
      </trkpt>
      <trkpt lat="44.65973" lon="0.89989">
        <ele>197.6882324</ele>
        <time>2010-06-06T07:16:18Z</time>
      </trkpt>
      <trkpt lat="44.65982" lon="0.89989">
        <ele>198.6495361</ele>
        <time>2010-06-06T07:16:29Z</time>
      </trkpt>
      <trkpt lat="44.65986" lon="0.89991">
        <ele>198.6495361</ele>
        <time>2010-06-06T07:16:33Z</time>
      </trkpt>
      <trkpt lat="44.65996" lon="0.8999">
        <ele>197.2075195</ele>
        <time>2010-06-06T07:16:43Z</time>
      </trkpt>
      <trkpt lat="44.66006" lon="0.89988">
        <ele>198.6495361</ele>
        <time>2010-06-06T07:16:54Z</time>
      </trkpt>
      <trkpt lat="44.66015" lon="0.89987">
        <ele>201.5335693</ele>
        <time>2010-06-06T07:17:05Z</time>
      </trkpt>
      <trkpt lat="44.66015" lon="0.89988">
        <ele>202.0142822</ele>
        <time>2010-06-06T07:17:06Z</time>
      </trkpt>
      <trkpt lat="44.66022" lon="0.89987">
        <ele>203.9368896</ele>
        <time>2010-06-06T07:17:18Z</time>
      </trkpt>
      <trkpt lat="44.66035" lon="0.89991">
        <ele>204.8980713</ele>
        <time>2010-06-06T07:17:28Z</time>
      </trkpt>
      <trkpt lat="44.66047" lon="0.89996">
        <ele>206.3400879</ele>
        <time>2010-06-06T07:17:38Z</time>
      </trkpt>
      <trkpt lat="44.66058" lon="0.9">
        <ele>207.3013916</ele>
        <time>2010-06-06T07:17:47Z</time>
      </trkpt>
      <trkpt lat="44.66062" lon="0.89999">
        <ele>206.8206787</ele>
        <time>2010-06-06T07:17:50Z</time>
      </trkpt>
      <trkpt lat="44.66071" lon="0.89999">
        <ele>205.8594971</ele>
        <time>2010-06-06T07:17:55Z</time>
      </trkpt>
      <trkpt lat="44.66081" lon="0.90002">
        <ele>204.4174805</ele>
        <time>2010-06-06T07:18:07Z</time>
      </trkpt>
      <trkpt lat="44.66084" lon="0.90002">
        <ele>202.494873</ele>
        <time>2010-06-06T07:18:20Z</time>
      </trkpt>
      <trkpt lat="44.66101" lon="0.90004">
        <ele>202.494873</ele>
        <time>2010-06-06T07:18:26Z</time>
      </trkpt>
      <trkpt lat="44.66112" lon="0.90009">
        <ele>202.0142822</ele>
        <time>2010-06-06T07:18:29Z</time>
      </trkpt>
      <trkpt lat="44.66153" lon="0.90023">
        <ele>198.6495361</ele>
        <time>2010-06-06T07:18:37Z</time>
      </trkpt>
      <trkpt lat="44.66189" lon="0.90054">
        <ele>192.8817139</ele>
        <time>2010-06-06T07:18:44Z</time>
      </trkpt>
      <trkpt lat="44.66202" lon="0.90061">
        <ele>190.9589844</ele>
        <time>2010-06-06T07:18:46Z</time>
      </trkpt>
      <trkpt lat="44.66223" lon="0.90064">
        <ele>186.6331787</ele>
        <time>2010-06-06T07:18:55Z</time>
      </trkpt>
      <trkpt lat="44.66247" lon="0.90066">
        <ele>187.1137695</ele>
        <time>2010-06-06T07:19:05Z</time>
      </trkpt>
      <trkpt lat="44.66276" lon="0.90071">
        <ele>191.4395752</ele>
        <time>2010-06-06T07:19:15Z</time>
      </trkpt>
      <trkpt lat="44.66301" lon="0.90074">
        <ele>196.7269287</ele>
        <time>2010-06-06T07:19:27Z</time>
      </trkpt>
      <trkpt lat="44.66308" lon="0.90073">
        <ele>197.2075195</ele>
        <time>2010-06-06T07:19:32Z</time>
      </trkpt>
      <trkpt lat="44.66317" lon="0.90072">
        <ele>198.1689453</ele>
        <time>2010-06-06T07:19:37Z</time>
      </trkpt>
      <trkpt lat="44.66328" lon="0.90067">
        <ele>200.0916748</ele>
        <time>2010-06-06T07:19:53Z</time>
      </trkpt>
      <trkpt lat="44.66335" lon="0.90067">
        <ele>202.494873</ele>
        <time>2010-06-06T07:20:13Z</time>
      </trkpt>
      <trkpt lat="44.66343" lon="0.90065">
        <ele>202.9754639</ele>
        <time>2010-06-06T07:20:19Z</time>
      </trkpt>
      <trkpt lat="44.66361" lon="0.90061">
        <ele>202.494873</ele>
        <time>2010-06-06T07:20:30Z</time>
      </trkpt>
      <trkpt lat="44.66381" lon="0.90059">
        <ele>203.4561768</ele>
        <time>2010-06-06T07:20:39Z</time>
      </trkpt>
      <trkpt lat="44.66393" lon="0.90056">
        <ele>203.9368896</ele>
        <time>2010-06-06T07:20:44Z</time>
      </trkpt>
      <trkpt lat="44.66422" lon="0.90046">
        <ele>204.4174805</ele>
        <time>2010-06-06T07:20:57Z</time>
      </trkpt>
      <trkpt lat="44.66447" lon="0.90033">
        <ele>205.8594971</ele>
        <time>2010-06-06T07:21:06Z</time>
      </trkpt>
      <trkpt lat="44.66471" lon="0.90022">
        <ele>207.7821045</ele>
        <time>2010-06-06T07:21:17Z</time>
      </trkpt>
      <trkpt lat="44.66477" lon="0.90019">
        <ele>205.3787842</ele>
        <time>2010-06-06T07:21:40Z</time>
      </trkpt>
      <trkpt lat="44.66484" lon="0.90016">
        <ele>206.8206787</ele>
        <time>2010-06-06T07:22:11Z</time>
      </trkpt>
      <trkpt lat="44.6652" lon="0.90004">
        <ele>207.3013916</ele>
        <time>2010-06-06T07:22:24Z</time>
      </trkpt>
      <trkpt lat="44.66569" lon="0.89985">
        <ele>207.7821045</ele>
        <time>2010-06-06T07:22:39Z</time>
      </trkpt>
      <trkpt lat="44.66599" lon="0.8997">
        <ele>207.3013916</ele>
        <time>2010-06-06T07:22:46Z</time>
      </trkpt>
      <trkpt lat="44.6664" lon="0.89942">
        <ele>206.8206787</ele>
        <time>2010-06-06T07:22:55Z</time>
      </trkpt>
      <trkpt lat="44.6666" lon="0.89931">
        <ele>206.8206787</ele>
        <time>2010-06-06T07:22:59Z</time>
      </trkpt>
      <trkpt lat="44.66706" lon="0.89904">
        <ele>206.8206787</ele>
        <time>2010-06-06T07:23:08Z</time>
      </trkpt>
      <trkpt lat="44.66744" lon="0.8989">
        <ele>206.3400879</ele>
        <time>2010-06-06T07:23:14Z</time>
      </trkpt>
      <trkpt lat="44.66777" lon="0.89882">
        <ele>204.4174805</ele>
        <time>2010-06-06T07:23:19Z</time>
      </trkpt>
      <trkpt lat="44.66803" lon="0.89891">
        <ele>201.5335693</ele>
        <time>2010-06-06T07:23:23Z</time>
      </trkpt>
      <trkpt lat="44.66869" lon="0.89908">
        <ele>196.2463379</ele>
        <time>2010-06-06T07:23:32Z</time>
      </trkpt>
      <trkpt lat="44.66919" lon="0.89893">
        <ele>193.3623047</ele>
        <time>2010-06-06T07:23:39Z</time>
      </trkpt>
      <trkpt lat="44.66933" lon="0.89875">
        <ele>192.401123</ele>
        <time>2010-06-06T07:23:42Z</time>
      </trkpt>
      <trkpt lat="44.66944" lon="0.89854">
        <ele>190.9589844</ele>
        <time>2010-06-06T07:23:45Z</time>
      </trkpt>
      <trkpt lat="44.66959" lon="0.89827">
        <ele>189.9976807</ele>
        <time>2010-06-06T07:23:49Z</time>
      </trkpt>
      <trkpt lat="44.66998" lon="0.89732">
        <ele>186.6331787</ele>
        <time>2010-06-06T07:23:59Z</time>
      </trkpt>
      <trkpt lat="44.67012" lon="0.897">
        <ele>185.1911621</ele>
        <time>2010-06-06T07:24:03Z</time>
      </trkpt>
      <trkpt lat="44.67023" lon="0.89679">
        <ele>184.2298584</ele>
        <time>2010-06-06T07:24:06Z</time>
      </trkpt>
      <trkpt lat="44.67047" lon="0.8965">
        <ele>183.2684326</ele>
        <time>2010-06-06T07:24:11Z</time>
      </trkpt>
      <trkpt lat="44.67055" lon="0.8964">
        <ele>183.7490234</ele>
        <time>2010-06-06T07:24:13Z</time>
      </trkpt>
      <trkpt lat="44.67082" lon="0.8961">
        <ele>186.1524658</ele>
        <time>2010-06-06T07:24:19Z</time>
      </trkpt>
      <trkpt lat="44.6713" lon="0.89553">
        <ele>190.4783936</ele>
        <time>2010-06-06T07:24:29Z</time>
      </trkpt>
      <trkpt lat="44.67143" lon="0.89534">
        <ele>191.4395752</ele>
        <time>2010-06-06T07:24:32Z</time>
      </trkpt>
      <trkpt lat="44.67161" lon="0.89509">
        <ele>192.8817139</ele>
        <time>2010-06-06T07:24:36Z</time>
      </trkpt>
      <trkpt lat="44.67177" lon="0.89481">
        <ele>193.8430176</ele>
        <time>2010-06-06T07:24:40Z</time>
      </trkpt>
      <trkpt lat="44.67185" lon="0.89466">
        <ele>194.3237305</ele>
        <time>2010-06-06T07:24:42Z</time>
      </trkpt>
      <trkpt lat="44.67207" lon="0.89418">
        <ele>187.5943604</ele>
        <time>2010-06-06T07:24:47Z</time>
      </trkpt>
      <trkpt lat="44.67248" lon="0.89321">
        <ele>177.9812012</ele>
        <time>2010-06-06T07:24:59Z</time>
      </trkpt>
      <trkpt lat="44.6726" lon="0.89293">
        <ele>177.0200195</ele>
        <time>2010-06-06T07:25:03Z</time>
      </trkpt>
      <trkpt lat="44.67267" lon="0.8927">
        <ele>175.5778809</ele>
        <time>2010-06-06T07:25:08Z</time>
      </trkpt>
      <trkpt lat="44.6728" lon="0.89248">
        <ele>174.6165771</ele>
        <time>2010-06-06T07:25:14Z</time>
      </trkpt>
      <trkpt lat="44.67284" lon="0.89237">
        <ele>175.09729</ele>
        <time>2010-06-06T07:25:17Z</time>
      </trkpt>
      <trkpt lat="44.67294" lon="0.89217">
        <ele>175.09729</ele>
        <time>2010-06-06T07:25:21Z</time>
      </trkpt>
      <trkpt lat="44.67309" lon="0.89193">
        <ele>172.6939697</ele>
        <time>2010-06-06T07:25:27Z</time>
      </trkpt>
      <trkpt lat="44.67327" lon="0.89168">
        <ele>165.9647217</ele>
        <time>2010-06-06T07:25:33Z</time>
      </trkpt>
      <trkpt lat="44.67334" lon="0.89159">
        <ele>163.5615234</ele>
        <time>2010-06-06T07:25:35Z</time>
      </trkpt>
      <trkpt lat="44.67366" lon="0.89133">
        <ele>155.8709717</ele>
        <time>2010-06-06T07:25:41Z</time>
      </trkpt>
      <trkpt lat="44.67391" lon="0.89111">
        <ele>151.5449219</ele>
        <time>2010-06-06T07:25:47Z</time>
      </trkpt>
      <trkpt lat="44.67414" lon="0.89124">
        <ele>149.1416016</ele>
        <time>2010-06-06T07:25:56Z</time>
      </trkpt>
      <trkpt lat="44.6742" lon="0.89136">
        <ele>147.2189941</ele>
        <time>2010-06-06T07:25:59Z</time>
      </trkpt>
      <trkpt lat="44.67438" lon="0.89163">
        <ele>145.7770996</ele>
        <time>2010-06-06T07:26:06Z</time>
      </trkpt>
      <trkpt lat="44.67471" lon="0.89198">
        <ele>144.8157959</ele>
        <time>2010-06-06T07:26:18Z</time>
      </trkpt>
      <trkpt lat="44.67477" lon="0.89201">
        <ele>145.2963867</ele>
        <time>2010-06-06T07:26:20Z</time>
      </trkpt>
      <trkpt lat="44.67484" lon="0.89203">
        <ele>145.7770996</ele>
        <time>2010-06-06T07:26:25Z</time>
      </trkpt>
      <trkpt lat="44.67477" lon="0.89202">
        <ele>145.7770996</ele>
        <time>2010-06-06T07:26:37Z</time>
      </trkpt>
      <trkpt lat="44.67476" lon="0.89202">
        <ele>144.8157959</ele>
        <time>2010-06-06T07:26:53Z</time>
      </trkpt>
      <trkpt lat="44.67477" lon="0.892">
        <ele>138.5672607</ele>
        <time>2010-06-06T07:28:28Z</time>
      </trkpt>
      <trkpt lat="44.67477" lon="0.89199">
        <ele>138.0865479</ele>
        <time>2010-06-06T07:28:56Z</time>
      </trkpt>
      <trkpt lat="44.67481" lon="0.89201">
        <ele>139.0478516</ele>
        <time>2010-06-06T07:29:10Z</time>
      </trkpt>
      <trkpt lat="44.67488" lon="0.89204">
        <ele>139.0478516</ele>
        <time>2010-06-06T07:29:22Z</time>
      </trkpt>
      <trkpt lat="44.67494" lon="0.89205">
        <ele>139.5284424</ele>
        <time>2010-06-06T07:29:26Z</time>
      </trkpt>
      <trkpt lat="44.675" lon="0.89208">
        <ele>139.5284424</ele>
        <time>2010-06-06T07:29:30Z</time>
      </trkpt>
      <trkpt lat="44.67515" lon="0.89209">
        <ele>140.0091553</ele>
        <time>2010-06-06T07:29:36Z</time>
      </trkpt>
      <trkpt lat="44.6754" lon="0.8921">
        <ele>139.5284424</ele>
        <time>2010-06-06T07:29:49Z</time>
      </trkpt>
      <trkpt lat="44.67545" lon="0.8921">
        <ele>140.4898682</ele>
        <time>2010-06-06T07:29:52Z</time>
      </trkpt>
      <trkpt lat="44.67561" lon="0.89214">
        <ele>141.9317627</ele>
        <time>2010-06-06T07:30:03Z</time>
      </trkpt>
      <trkpt lat="44.67577" lon="0.89217">
        <ele>142.8930664</ele>
        <time>2010-06-06T07:30:15Z</time>
      </trkpt>
      <trkpt lat="44.67589" lon="0.8922">
        <ele>143.3736572</ele>
        <time>2010-06-06T07:30:24Z</time>
      </trkpt>
      <trkpt lat="44.67596" lon="0.89222">
        <ele>144.8157959</ele>
        <time>2010-06-06T07:30:30Z</time>
      </trkpt>
      <trkpt lat="44.67605" lon="0.89226">
        <ele>146.2578125</ele>
        <time>2010-06-06T07:30:38Z</time>
      </trkpt>
      <trkpt lat="44.67609" lon="0.89228">
        <ele>147.2189941</ele>
        <time>2010-06-06T07:30:42Z</time>
      </trkpt>
      <trkpt lat="44.67612" lon="0.8923">
        <ele>147.699707</ele>
        <time>2010-06-06T07:30:45Z</time>
      </trkpt>
      <trkpt lat="44.67614" lon="0.89232">
        <ele>147.2189941</ele>
        <time>2010-06-06T07:30:47Z</time>
      </trkpt>
      <trkpt lat="44.67627" lon="0.89246">
        <ele>146.7384033</ele>
        <time>2010-06-06T07:31:00Z</time>
      </trkpt>
      <trkpt lat="44.67632" lon="0.89248">
        <ele>147.699707</ele>
        <time>2010-06-06T07:31:03Z</time>
      </trkpt>
      <trkpt lat="44.67635" lon="0.8925">
        <ele>148.6610107</ele>
        <time>2010-06-06T07:31:06Z</time>
      </trkpt>
      <trkpt lat="44.67637" lon="0.89252">
        <ele>148.6610107</ele>
        <time>2010-06-06T07:31:08Z</time>
      </trkpt>
      <trkpt lat="44.67645" lon="0.89258">
        <ele>150.1030273</ele>
        <time>2010-06-06T07:31:15Z</time>
      </trkpt>
      <trkpt lat="44.6766" lon="0.89271">
        <ele>152.5063477</ele>
        <time>2010-06-06T07:31:30Z</time>
      </trkpt>
      <trkpt lat="44.67667" lon="0.89279">
        <ele>153.4676514</ele>
        <time>2010-06-06T07:31:37Z</time>
      </trkpt>
      <trkpt lat="44.67672" lon="0.89285">
        <ele>153.4676514</ele>
        <time>2010-06-06T07:31:42Z</time>
      </trkpt>
      <trkpt lat="44.67687" lon="0.89305">
        <ele>157.7935791</ele>
        <time>2010-06-06T07:31:58Z</time>
      </trkpt>
      <trkpt lat="44.67692" lon="0.89311">
        <ele>158.2741699</ele>
        <time>2010-06-06T07:32:03Z</time>
      </trkpt>
      <trkpt lat="44.67707" lon="0.89326">
        <ele>161.1582031</ele>
        <time>2010-06-06T07:32:17Z</time>
      </trkpt>
      <trkpt lat="44.67714" lon="0.89332">
        <ele>162.6000977</ele>
        <time>2010-06-06T07:32:23Z</time>
      </trkpt>
      <trkpt lat="44.67718" lon="0.89337">
        <ele>163.0808105</ele>
        <time>2010-06-06T07:32:27Z</time>
      </trkpt>
      <trkpt lat="44.67724" lon="0.89344">
        <ele>163.5615234</ele>
        <time>2010-06-06T07:32:32Z</time>
      </trkpt>
      <trkpt lat="44.67739" lon="0.89361">
        <ele>167.4067383</ele>
        <time>2010-06-06T07:32:45Z</time>
      </trkpt>
      <trkpt lat="44.67754" lon="0.89375">
        <ele>169.8100586</ele>
        <time>2010-06-06T07:32:58Z</time>
      </trkpt>
      <trkpt lat="44.67772" lon="0.8939">
        <ele>172.2132568</ele>
        <time>2010-06-06T07:33:12Z</time>
      </trkpt>
      <trkpt lat="44.67776" lon="0.89393">
        <ele>172.6939697</ele>
        <time>2010-06-06T07:33:15Z</time>
      </trkpt>
      <trkpt lat="44.6779" lon="0.89405">
        <ele>175.09729</ele>
        <time>2010-06-06T07:33:25Z</time>
      </trkpt>
      <trkpt lat="44.67811" lon="0.89416">
        <ele>177.9812012</ele>
        <time>2010-06-06T07:33:41Z</time>
      </trkpt>
      <trkpt lat="44.67812" lon="0.89416">
        <ele>177.9812012</ele>
        <time>2010-06-06T07:33:42Z</time>
      </trkpt>
      <trkpt lat="44.67818" lon="0.8942">
        <ele>179.4232178</ele>
        <time>2010-06-06T07:33:47Z</time>
      </trkpt>
      <trkpt lat="44.67835" lon="0.89426">
        <ele>182.3071289</ele>
        <time>2010-06-06T07:34:01Z</time>
      </trkpt>
      <trkpt lat="44.67844" lon="0.89426">
        <ele>183.7490234</ele>
        <time>2010-06-06T07:34:08Z</time>
      </trkpt>
      <trkpt lat="44.67865" lon="0.89421">
        <ele>185.1911621</ele>
        <time>2010-06-06T07:34:22Z</time>
      </trkpt>
      <trkpt lat="44.67866" lon="0.89422">
        <ele>185.1911621</ele>
        <time>2010-06-06T07:34:24Z</time>
      </trkpt>
      <trkpt lat="44.67866" lon="0.8942">
        <ele>187.1137695</ele>
        <time>2010-06-06T07:34:38Z</time>
      </trkpt>
      <trkpt lat="44.67867" lon="0.89419">
        <ele>188.5557861</ele>
        <time>2010-06-06T07:35:03Z</time>
      </trkpt>
      <trkpt lat="44.67877" lon="0.89412">
        <ele>190.9589844</ele>
        <time>2010-06-06T07:35:11Z</time>
      </trkpt>
      <trkpt lat="44.67888" lon="0.89409">
        <ele>191.4395752</ele>
        <time>2010-06-06T07:35:17Z</time>
      </trkpt>
      <trkpt lat="44.67907" lon="0.89412">
        <ele>189.5169678</ele>
        <time>2010-06-06T07:35:24Z</time>
      </trkpt>
      <trkpt lat="44.67912" lon="0.89411">
        <ele>189.036377</ele>
        <time>2010-06-06T07:35:26Z</time>
      </trkpt>
      <trkpt lat="44.67937" lon="0.8941">
        <ele>188.5557861</ele>
        <time>2010-06-06T07:35:36Z</time>
      </trkpt>
      <trkpt lat="44.67962" lon="0.89406">
        <ele>189.9976807</ele>
        <time>2010-06-06T07:35:47Z</time>
      </trkpt>
      <trkpt lat="44.67972" lon="0.89403">
        <ele>191.4395752</ele>
        <time>2010-06-06T07:35:53Z</time>
      </trkpt>
      <trkpt lat="44.67979" lon="0.89403">
        <ele>191.9202881</ele>
        <time>2010-06-06T07:35:57Z</time>
      </trkpt>
      <trkpt lat="44.67981" lon="0.89408">
        <ele>193.8430176</ele>
        <time>2010-06-06T07:36:02Z</time>
      </trkpt>
      <trkpt lat="44.67987" lon="0.89426">
        <ele>193.8430176</ele>
        <time>2010-06-06T07:36:06Z</time>
      </trkpt>
      <trkpt lat="44.67992" lon="0.89437">
        <ele>193.8430176</ele>
        <time>2010-06-06T07:36:09Z</time>
      </trkpt>
      <trkpt lat="44.67997" lon="0.89444">
        <ele>194.3237305</ele>
        <time>2010-06-06T07:36:14Z</time>
      </trkpt>
      <trkpt lat="44.67998" lon="0.89445">
        <ele>194.8043213</ele>
        <time>2010-06-06T07:36:18Z</time>
      </trkpt>
      <trkpt lat="44.67998" lon="0.89453">
        <ele>193.8430176</ele>
        <time>2010-06-06T07:36:22Z</time>
      </trkpt>
      <trkpt lat="44.67996" lon="0.89459">
        <ele>193.8430176</ele>
        <time>2010-06-06T07:36:24Z</time>
      </trkpt>
      <trkpt lat="44.68011" lon="0.89463">
        <ele>192.401123</ele>
        <time>2010-06-06T07:36:31Z</time>
      </trkpt>
      <trkpt lat="44.68038" lon="0.89459">
        <ele>193.8430176</ele>
        <time>2010-06-06T07:36:43Z</time>
      </trkpt>
      <trkpt lat="44.68065" lon="0.89449">
        <ele>197.6882324</ele>
        <time>2010-06-06T07:36:53Z</time>
      </trkpt>
      <trkpt lat="44.68099" lon="0.89449">
        <ele>193.8430176</ele>
        <time>2010-06-06T07:37:03Z</time>
      </trkpt>
      <trkpt lat="44.68132" lon="0.89447">
        <ele>190.4783936</ele>
        <time>2010-06-06T07:37:14Z</time>
      </trkpt>
      <trkpt lat="44.68133" lon="0.89447">
        <ele>190.4783936</ele>
        <time>2010-06-06T07:37:15Z</time>
      </trkpt>
      <trkpt lat="44.68152" lon="0.89444">
        <ele>188.0750732</ele>
        <time>2010-06-06T07:37:24Z</time>
      </trkpt>
      <trkpt lat="44.68187" lon="0.89437">
        <ele>190.4783936</ele>
        <time>2010-06-06T07:37:35Z</time>
      </trkpt>
      <trkpt lat="44.68206" lon="0.89431">
        <ele>191.9202881</ele>
        <time>2010-06-06T07:37:43Z</time>
      </trkpt>
      <trkpt lat="44.68228" lon="0.89435">
        <ele>193.3623047</ele>
        <time>2010-06-06T07:37:48Z</time>
      </trkpt>
      <trkpt lat="44.68262" lon="0.89431">
        <ele>193.8430176</ele>
        <time>2010-06-06T07:38:01Z</time>
      </trkpt>
      <trkpt lat="44.6831" lon="0.89427">
        <ele>193.3623047</ele>
        <time>2010-06-06T07:38:14Z</time>
      </trkpt>
      <trkpt lat="44.68323" lon="0.89428">
        <ele>193.3623047</ele>
        <time>2010-06-06T07:38:17Z</time>
      </trkpt>
      <trkpt lat="44.68377" lon="0.89467">
        <ele>193.3623047</ele>
        <time>2010-06-06T07:38:31Z</time>
      </trkpt>
      <trkpt lat="44.68428" lon="0.89516">
        <ele>194.3237305</ele>
        <time>2010-06-06T07:38:45Z</time>
      </trkpt>
      <trkpt lat="44.68472" lon="0.89559">
        <ele>193.3623047</ele>
        <time>2010-06-06T07:38:59Z</time>
      </trkpt>
      <trkpt lat="44.68509" lon="0.89597">
        <ele>194.3237305</ele>
        <time>2010-06-06T07:39:13Z</time>
      </trkpt>
      <trkpt lat="44.6855" lon="0.89638">
        <ele>196.7269287</ele>
        <time>2010-06-06T07:39:29Z</time>
      </trkpt>
      <trkpt lat="44.68578" lon="0.89662">
        <ele>198.1689453</ele>
        <time>2010-06-06T07:39:42Z</time>
      </trkpt>
      <trkpt lat="44.68597" lon="0.89682">
        <ele>200.0916748</ele>
        <time>2010-06-06T07:39:55Z</time>
      </trkpt>
      <trkpt lat="44.68613" lon="0.89696">
        <ele>203.4561768</ele>
        <time>2010-06-06T07:40:04Z</time>
      </trkpt>
      <trkpt lat="44.68628" lon="0.89713">
        <ele>205.3787842</ele>
        <time>2010-06-06T07:40:14Z</time>
      </trkpt>
      <trkpt lat="44.68653" lon="0.89735">
        <ele>208.2628174</ele>
        <time>2010-06-06T07:40:30Z</time>
      </trkpt>
      <trkpt lat="44.68659" lon="0.89742">
        <ele>208.7434082</ele>
        <time>2010-06-06T07:40:35Z</time>
      </trkpt>
      <trkpt lat="44.68667" lon="0.8975">
        <ele>210.1854248</ele>
        <time>2010-06-06T07:40:41Z</time>
      </trkpt>
      <trkpt lat="44.68691" lon="0.89773">
        <ele>214.5112305</ele>
        <time>2010-06-06T07:40:58Z</time>
      </trkpt>
      <trkpt lat="44.68714" lon="0.89798">
        <ele>216.43396</ele>
        <time>2010-06-06T07:41:13Z</time>
      </trkpt>
      <trkpt lat="44.68727" lon="0.89813">
        <ele>216.43396</ele>
        <time>2010-06-06T07:41:22Z</time>
      </trkpt>
      <trkpt lat="44.68757" lon="0.89837">
        <ele>215.9532471</ele>
        <time>2010-06-06T07:41:36Z</time>
      </trkpt>
      <trkpt lat="44.68765" lon="0.89843">
        <ele>215.4726563</ele>
        <time>2010-06-06T07:41:38Z</time>
      </trkpt>
      <trkpt lat="44.68797" lon="0.89865">
        <ele>214.0306396</ele>
        <time>2010-06-06T07:41:45Z</time>
      </trkpt>
      <trkpt lat="44.68834" lon="0.89887">
        <ele>214.5112305</ele>
        <time>2010-06-06T07:41:55Z</time>
      </trkpt>
      <trkpt lat="44.68858" lon="0.89905">
        <ele>213.5500488</ele>
        <time>2010-06-06T07:42:05Z</time>
      </trkpt>
      <trkpt lat="44.68882" lon="0.89922">
        <ele>213.5500488</ele>
        <time>2010-06-06T07:42:16Z</time>
      </trkpt>
      <trkpt lat="44.68926" lon="0.89949">
        <ele>214.9919434</ele>
        <time>2010-06-06T07:42:28Z</time>
      </trkpt>
      <trkpt lat="44.68952" lon="0.89968">
        <ele>215.9532471</ele>
        <time>2010-06-06T07:42:35Z</time>
      </trkpt>
      <trkpt lat="44.69017" lon="0.90009">
        <ele>217.3953857</ele>
        <time>2010-06-06T07:42:52Z</time>
      </trkpt>
      <trkpt lat="44.69072" lon="0.90034">
        <ele>217.3953857</ele>
        <time>2010-06-06T07:43:07Z</time>
      </trkpt>
      <trkpt lat="44.691" lon="0.90042">
        <ele>217.8759766</ele>
        <time>2010-06-06T07:43:19Z</time>
      </trkpt>
      <trkpt lat="44.69099" lon="0.90039">
        <ele>216.9146729</ele>
        <time>2010-06-06T07:44:00Z</time>
      </trkpt>
      <trkpt lat="44.691" lon="0.90039">
        <ele>219.798584</ele>
        <time>2010-06-06T07:45:52Z</time>
      </trkpt>
      <trkpt lat="44.691" lon="0.90038">
        <ele>218.8372803</ele>
        <time>2010-06-06T07:46:32Z</time>
      </trkpt>
      <trkpt lat="44.69099" lon="0.90043">
        <ele>219.798584</ele>
        <time>2010-06-06T07:47:59Z</time>
      </trkpt>
      <trkpt lat="44.69099" lon="0.90041">
        <ele>217.3953857</ele>
        <time>2010-06-06T07:50:41Z</time>
      </trkpt>
      <trkpt lat="44.69099" lon="0.90041">
        <ele>215.9532471</ele>
        <time>2010-06-06T07:51:50Z</time>
      </trkpt>
      <trkpt lat="44.69103" lon="0.90042">
        <ele>217.3953857</ele>
        <time>2010-06-06T07:52:03Z</time>
      </trkpt>
      <trkpt lat="44.69135" lon="0.90046">
        <ele>218.3565674</ele>
        <time>2010-06-06T07:52:16Z</time>
      </trkpt>
      <trkpt lat="44.6918" lon="0.90063">
        <ele>217.8759766</ele>
        <time>2010-06-06T07:52:29Z</time>
      </trkpt>
      <trkpt lat="44.69228" lon="0.90079">
        <ele>216.43396</ele>
        <time>2010-06-06T07:52:42Z</time>
      </trkpt>
      <trkpt lat="44.69283" lon="0.90103">
        <ele>216.9146729</ele>
        <time>2010-06-06T07:52:56Z</time>
      </trkpt>
      <trkpt lat="44.69287" lon="0.90106">
        <ele>216.9146729</ele>
        <time>2010-06-06T07:52:57Z</time>
      </trkpt>
      <trkpt lat="44.69337" lon="0.90157">
        <ele>215.9532471</ele>
        <time>2010-06-06T07:53:11Z</time>
      </trkpt>
      <trkpt lat="44.69347" lon="0.90169">
        <ele>215.4726563</ele>
        <time>2010-06-06T07:53:14Z</time>
      </trkpt>
      <trkpt lat="44.69378" lon="0.90206">
        <ele>214.0306396</ele>
        <time>2010-06-06T07:53:23Z</time>
      </trkpt>
      <trkpt lat="44.69391" lon="0.90228">
        <ele>213.0693359</ele>
        <time>2010-06-06T07:53:27Z</time>
      </trkpt>
      <trkpt lat="44.69412" lon="0.90275">
        <ele>211.1467285</ele>
        <time>2010-06-06T07:53:35Z</time>
      </trkpt>
      <trkpt lat="44.69431" lon="0.90321">
        <ele>210.6660156</ele>
        <time>2010-06-06T07:53:44Z</time>
      </trkpt>
      <trkpt lat="44.69441" lon="0.9034">
        <ele>210.1854248</ele>
        <time>2010-06-06T07:53:48Z</time>
      </trkpt>
      <trkpt lat="44.69445" lon="0.90351">
        <ele>210.1854248</ele>
        <time>2010-06-06T07:53:50Z</time>
      </trkpt>
      <trkpt lat="44.69452" lon="0.90372">
        <ele>209.2241211</ele>
        <time>2010-06-06T07:53:54Z</time>
      </trkpt>
      <trkpt lat="44.69456" lon="0.90383">
        <ele>209.2241211</ele>
        <time>2010-06-06T07:53:56Z</time>
      </trkpt>
      <trkpt lat="44.69467" lon="0.90406">
        <ele>210.1854248</ele>
        <time>2010-06-06T07:54:01Z</time>
      </trkpt>
      <trkpt lat="44.69492" lon="0.90448">
        <ele>210.1854248</ele>
        <time>2010-06-06T07:54:12Z</time>
      </trkpt>
      <trkpt lat="44.69501" lon="0.90466">
        <ele>210.1854248</ele>
        <time>2010-06-06T07:54:16Z</time>
      </trkpt>
      <trkpt lat="44.69528" lon="0.90524">
        <ele>210.6660156</ele>
        <time>2010-06-06T07:54:28Z</time>
      </trkpt>
      <trkpt lat="44.69545" lon="0.90559">
        <ele>211.1467285</ele>
        <time>2010-06-06T07:54:35Z</time>
      </trkpt>
      <trkpt lat="44.69573" lon="0.90606">
        <ele>212.1080322</ele>
        <time>2010-06-06T07:54:46Z</time>
      </trkpt>
      <trkpt lat="44.69583" lon="0.90626">
        <ele>214.0306396</ele>
        <time>2010-06-06T07:54:53Z</time>
      </trkpt>
      <trkpt lat="44.69588" lon="0.90635">
        <ele>215.4726563</ele>
        <time>2010-06-06T07:55:06Z</time>
      </trkpt>
      <trkpt lat="44.696" lon="0.90647">
        <ele>214.0306396</ele>
        <time>2010-06-06T07:55:12Z</time>
      </trkpt>
      <trkpt lat="44.6961" lon="0.90659">
        <ele>213.0693359</ele>
        <time>2010-06-06T07:55:17Z</time>
      </trkpt>
      <trkpt lat="44.69622" lon="0.90669">
        <ele>213.0693359</ele>
        <time>2010-06-06T07:55:23Z</time>
      </trkpt>
      <trkpt lat="44.69642" lon="0.90691">
        <ele>215.9532471</ele>
        <time>2010-06-06T07:55:34Z</time>
      </trkpt>
      <trkpt lat="44.69661" lon="0.90708">
        <ele>218.3565674</ele>
        <time>2010-06-06T07:55:45Z</time>
      </trkpt>
      <trkpt lat="44.69682" lon="0.90731">
        <ele>222.2017822</ele>
        <time>2010-06-06T07:55:56Z</time>
      </trkpt>
      <trkpt lat="44.697" lon="0.90756">
        <ele>225.0859375</ele>
        <time>2010-06-06T07:56:06Z</time>
      </trkpt>
      <trkpt lat="44.69722" lon="0.90783">
        <ele>225.5665283</ele>
        <time>2010-06-06T07:56:16Z</time>
      </trkpt>
      <trkpt lat="44.69724" lon="0.90787">
        <ele>225.5665283</ele>
        <time>2010-06-06T07:56:17Z</time>
      </trkpt>
      <trkpt lat="44.69739" lon="0.90808">
        <ele>223.163208</ele>
        <time>2010-06-06T07:56:25Z</time>
      </trkpt>
      <trkpt lat="44.69772" lon="0.90848">
        <ele>217.8759766</ele>
        <time>2010-06-06T07:56:38Z</time>
      </trkpt>
      <trkpt lat="44.69812" lon="0.90895">
        <ele>214.9919434</ele>
        <time>2010-06-06T07:56:51Z</time>
      </trkpt>
      <trkpt lat="44.69817" lon="0.90901">
        <ele>215.4726563</ele>
        <time>2010-06-06T07:56:53Z</time>
      </trkpt>
      <trkpt lat="44.69827" lon="0.90914">
        <ele>216.43396</ele>
        <time>2010-06-06T07:56:58Z</time>
      </trkpt>
      <trkpt lat="44.6985" lon="0.90941">
        <ele>217.3953857</ele>
        <time>2010-06-06T07:57:09Z</time>
      </trkpt>
      <trkpt lat="44.69879" lon="0.9097">
        <ele>216.43396</ele>
        <time>2010-06-06T07:57:21Z</time>
      </trkpt>
      <trkpt lat="44.6991" lon="0.91001">
        <ele>217.8759766</ele>
        <time>2010-06-06T07:57:35Z</time>
      </trkpt>
      <trkpt lat="44.6994" lon="0.91035">
        <ele>218.3565674</ele>
        <time>2010-06-06T07:57:49Z</time>
      </trkpt>
      <trkpt lat="44.69956" lon="0.91057">
        <ele>220.7598877</ele>
        <time>2010-06-06T07:57:56Z</time>
      </trkpt>
      <trkpt lat="44.6998" lon="0.91097">
        <ele>225.0859375</ele>
        <time>2010-06-06T07:58:06Z</time>
      </trkpt>
      <trkpt lat="44.69995" lon="0.91122">
        <ele>225.5665283</ele>
        <time>2010-06-06T07:58:11Z</time>
      </trkpt>
      <trkpt lat="44.70004" lon="0.9114">
        <ele>225.5665283</ele>
        <time>2010-06-06T07:58:14Z</time>
      </trkpt>
      <trkpt lat="44.70021" lon="0.91177">
        <ele>225.0859375</ele>
        <time>2010-06-06T07:58:20Z</time>
      </trkpt>
      <trkpt lat="44.70031" lon="0.91195">
        <ele>224.6052246</ele>
        <time>2010-06-06T07:58:24Z</time>
      </trkpt>
      <trkpt lat="44.70036" lon="0.9121">
        <ele>224.6052246</ele>
        <time>2010-06-06T07:58:27Z</time>
      </trkpt>
      <trkpt lat="44.70048" lon="0.9124">
        <ele>224.1245117</ele>
        <time>2010-06-06T07:58:33Z</time>
      </trkpt>
      <trkpt lat="44.70051" lon="0.9125">
        <ele>225.5665283</ele>
        <time>2010-06-06T07:58:38Z</time>
      </trkpt>
      <trkpt lat="44.70065" lon="0.91283">
        <ele>226.527832</ele>
        <time>2010-06-06T07:58:51Z</time>
      </trkpt>
      <trkpt lat="44.70076" lon="0.91309">
        <ele>227.0085449</ele>
        <time>2010-06-06T07:58:57Z</time>
      </trkpt>
      <trkpt lat="44.70093" lon="0.91353">
        <ele>226.0471191</ele>
        <time>2010-06-06T07:59:08Z</time>
      </trkpt>
      <trkpt lat="44.70101" lon="0.91377">
        <ele>226.0471191</ele>
        <time>2010-06-06T07:59:23Z</time>
      </trkpt>
      <trkpt lat="44.70103" lon="0.91382">
        <ele>226.0471191</ele>
        <time>2010-06-06T07:59:24Z</time>
      </trkpt>
      <trkpt lat="44.70121" lon="0.91397">
        <ele>227.4891357</ele>
        <time>2010-06-06T07:59:29Z</time>
      </trkpt>
      <trkpt lat="44.70173" lon="0.91415">
        <ele>230.3730469</ele>
        <time>2010-06-06T07:59:42Z</time>
      </trkpt>
      <trkpt lat="44.70189" lon="0.91421">
        <ele>231.3343506</ele>
        <time>2010-06-06T07:59:46Z</time>
      </trkpt>
      <trkpt lat="44.70203" lon="0.9143">
        <ele>231.3343506</ele>
        <time>2010-06-06T07:59:50Z</time>
      </trkpt>
      <trkpt lat="44.70219" lon="0.91432">
        <ele>231.3343506</ele>
        <time>2010-06-06T07:59:54Z</time>
      </trkpt>
      <trkpt lat="44.70237" lon="0.91442">
        <ele>231.3343506</ele>
        <time>2010-06-06T07:59:59Z</time>
      </trkpt>
      <trkpt lat="44.70275" lon="0.91463">
        <ele>229.892334</ele>
        <time>2010-06-06T08:00:11Z</time>
      </trkpt>
      <trkpt lat="44.70285" lon="0.91456">
        <ele>229.892334</ele>
        <time>2010-06-06T08:00:18Z</time>
      </trkpt>
      <trkpt lat="44.70284" lon="0.91459">
        <ele>228.4504395</ele>
        <time>2010-06-06T08:00:53Z</time>
      </trkpt>
      <trkpt lat="44.70285" lon="0.91456">
        <ele>228.9311523</ele>
        <time>2010-06-06T08:01:02Z</time>
      </trkpt>
      <trkpt lat="44.70289" lon="0.91419">
        <ele>230.3730469</ele>
        <time>2010-06-06T08:01:13Z</time>
      </trkpt>
      <trkpt lat="44.70291" lon="0.91396">
        <ele>229.892334</ele>
        <time>2010-06-06T08:01:16Z</time>
      </trkpt>
      <trkpt lat="44.70293" lon="0.9137">
        <ele>229.892334</ele>
        <time>2010-06-06T08:01:19Z</time>
      </trkpt>
      <trkpt lat="44.70314" lon="0.9134">
        <ele>229.4117432</ele>
        <time>2010-06-06T08:01:24Z</time>
      </trkpt>
      <trkpt lat="44.70326" lon="0.91339">
        <ele>228.9311523</ele>
        <time>2010-06-06T08:01:26Z</time>
      </trkpt>
      <trkpt lat="44.70363" lon="0.91352">
        <ele>226.0471191</ele>
        <time>2010-06-06T08:01:34Z</time>
      </trkpt>
      <trkpt lat="44.70367" lon="0.91355">
        <ele>225.5665283</ele>
        <time>2010-06-06T08:01:35Z</time>
      </trkpt>
      <trkpt lat="44.70377" lon="0.91361">
        <ele>224.6052246</ele>
        <time>2010-06-06T08:01:38Z</time>
      </trkpt>
      <trkpt lat="44.70392" lon="0.91367">
        <ele>222.6824951</ele>
        <time>2010-06-06T08:01:42Z</time>
      </trkpt>
      <trkpt lat="44.70403" lon="0.91369">
        <ele>222.2017822</ele>
        <time>2010-06-06T08:01:45Z</time>
      </trkpt>
      <trkpt lat="44.70423" lon="0.91375">
        <ele>221.7211914</ele>
        <time>2010-06-06T08:01:49Z</time>
      </trkpt>
      <trkpt lat="44.70437" lon="0.9138">
        <ele>221.7211914</ele>
        <time>2010-06-06T08:01:52Z</time>
      </trkpt>
      <trkpt lat="44.70472" lon="0.91366">
        <ele>217.8759766</ele>
        <time>2010-06-06T08:01:58Z</time>
      </trkpt>
      <trkpt lat="44.70514" lon="0.91338">
        <ele>220.7598877</ele>
        <time>2010-06-06T08:02:07Z</time>
      </trkpt>
      <trkpt lat="44.70527" lon="0.91327">
        <ele>222.2017822</ele>
        <time>2010-06-06T08:02:10Z</time>
      </trkpt>
      <trkpt lat="44.70535" lon="0.91321">
        <ele>222.6824951</ele>
        <time>2010-06-06T08:02:12Z</time>
      </trkpt>
      <trkpt lat="44.70548" lon="0.91314">
        <ele>224.1245117</ele>
        <time>2010-06-06T08:02:15Z</time>
      </trkpt>
      <trkpt lat="44.70573" lon="0.91299">
        <ele>227.9697266</ele>
        <time>2010-06-06T08:02:23Z</time>
      </trkpt>
      <trkpt lat="44.70581" lon="0.91287">
        <ele>228.9311523</ele>
        <time>2010-06-06T08:02:27Z</time>
      </trkpt>
      <trkpt lat="44.70593" lon="0.91286">
        <ele>230.8537598</ele>
        <time>2010-06-06T08:02:33Z</time>
      </trkpt>
      <trkpt lat="44.70596" lon="0.91285">
        <ele>231.3343506</ele>
        <time>2010-06-06T08:02:36Z</time>
      </trkpt>
      <trkpt lat="44.70613" lon="0.91281">
        <ele>233.2570801</ele>
        <time>2010-06-06T08:02:44Z</time>
      </trkpt>
      <trkpt lat="44.70618" lon="0.91281">
        <ele>233.2570801</ele>
        <time>2010-06-06T08:02:46Z</time>
      </trkpt>
      <trkpt lat="44.70655" lon="0.9128">
        <ele>232.7764893</ele>
        <time>2010-06-06T08:02:58Z</time>
      </trkpt>
      <trkpt lat="44.70657" lon="0.9128">
        <ele>232.7764893</ele>
        <time>2010-06-06T08:02:59Z</time>
      </trkpt>
      <trkpt lat="44.70678" lon="0.91279">
        <ele>231.3343506</ele>
        <time>2010-06-06T08:03:05Z</time>
      </trkpt>
      <trkpt lat="44.7071" lon="0.91279">
        <ele>227.0085449</ele>
        <time>2010-06-06T08:03:14Z</time>
      </trkpt>
      <trkpt lat="44.70775" lon="0.91298">
        <ele>227.0085449</ele>
        <time>2010-06-06T08:03:25Z</time>
      </trkpt>
      <trkpt lat="44.7083" lon="0.91313">
        <ele>226.527832</ele>
        <time>2010-06-06T08:03:40Z</time>
      </trkpt>
      <trkpt lat="44.70843" lon="0.91316">
        <ele>226.0471191</ele>
        <time>2010-06-06T08:03:44Z</time>
      </trkpt>
      <trkpt lat="44.70889" lon="0.91331">
        <ele>227.0085449</ele>
        <time>2010-06-06T08:03:56Z</time>
      </trkpt>
      <trkpt lat="44.70935" lon="0.91344">
        <ele>226.527832</ele>
        <time>2010-06-06T08:04:08Z</time>
      </trkpt>
      <trkpt lat="44.7095" lon="0.91349">
        <ele>227.0085449</ele>
        <time>2010-06-06T08:04:15Z</time>
      </trkpt>
      <trkpt lat="44.70949" lon="0.91345">
        <ele>226.0471191</ele>
        <time>2010-06-06T08:04:25Z</time>
      </trkpt>
      <trkpt lat="44.70949" lon="0.91346">
        <ele>226.0471191</ele>
        <time>2010-06-06T08:04:26Z</time>
      </trkpt>
      <trkpt lat="44.70948" lon="0.9136">
        <ele>226.0471191</ele>
        <time>2010-06-06T08:04:33Z</time>
      </trkpt>
      <trkpt lat="44.70964" lon="0.9139">
        <ele>227.4891357</ele>
        <time>2010-06-06T08:04:44Z</time>
      </trkpt>
      <trkpt lat="44.71009" lon="0.91415">
        <ele>227.0085449</ele>
        <time>2010-06-06T08:04:59Z</time>
      </trkpt>
      <trkpt lat="44.71053" lon="0.91442">
        <ele>227.0085449</ele>
        <time>2010-06-06T08:05:13Z</time>
      </trkpt>
      <trkpt lat="44.71063" lon="0.91449">
        <ele>227.4891357</ele>
        <time>2010-06-06T08:05:16Z</time>
      </trkpt>
      <trkpt lat="44.71086" lon="0.91466">
        <ele>228.9311523</ele>
        <time>2010-06-06T08:05:22Z</time>
      </trkpt>
      <trkpt lat="44.71109" lon="0.91506">
        <ele>230.3730469</ele>
        <time>2010-06-06T08:05:30Z</time>
      </trkpt>
      <trkpt lat="44.7112" lon="0.91529">
        <ele>231.3343506</ele>
        <time>2010-06-06T08:05:35Z</time>
      </trkpt>
      <trkpt lat="44.71127" lon="0.91531">
        <ele>230.8537598</ele>
        <time>2010-06-06T08:05:39Z</time>
      </trkpt>
      <trkpt lat="44.71131" lon="0.91525">
        <ele>230.8537598</ele>
        <time>2010-06-06T08:05:43Z</time>
      </trkpt>
      <trkpt lat="44.71154" lon="0.91487">
        <ele>227.9697266</ele>
        <time>2010-06-06T08:05:57Z</time>
      </trkpt>
      <trkpt lat="44.71168" lon="0.91477">
        <ele>227.0085449</ele>
        <time>2010-06-06T08:06:01Z</time>
      </trkpt>
      <trkpt lat="44.71199" lon="0.91473">
        <ele>227.4891357</ele>
        <time>2010-06-06T08:06:08Z</time>
      </trkpt>
      <trkpt lat="44.71205" lon="0.9146">
        <ele>227.0085449</ele>
        <time>2010-06-06T08:06:12Z</time>
      </trkpt>
      <trkpt lat="44.71198" lon="0.91431">
        <ele>227.0085449</ele>
        <time>2010-06-06T08:06:17Z</time>
      </trkpt>
      <trkpt lat="44.71193" lon="0.91411">
        <ele>227.4891357</ele>
        <time>2010-06-06T08:06:20Z</time>
      </trkpt>
      <trkpt lat="44.71191" lon="0.91396">
        <ele>227.9697266</ele>
        <time>2010-06-06T08:06:22Z</time>
      </trkpt>
      <trkpt lat="44.7119" lon="0.91381">
        <ele>227.9697266</ele>
        <time>2010-06-06T08:06:24Z</time>
      </trkpt>
      <trkpt lat="44.71183" lon="0.91301">
        <ele>228.4504395</ele>
        <time>2010-06-06T08:06:35Z</time>
      </trkpt>
      <trkpt lat="44.71182" lon="0.91296">
        <ele>228.9311523</ele>
        <time>2010-06-06T08:06:36Z</time>
      </trkpt>
      <trkpt lat="44.71179" lon="0.91268">
        <ele>229.892334</ele>
        <time>2010-06-06T08:06:41Z</time>
      </trkpt>
      <trkpt lat="44.71171" lon="0.91222">
        <ele>230.8537598</ele>
        <time>2010-06-06T08:06:51Z</time>
      </trkpt>
      <trkpt lat="44.71171" lon="0.9117">
        <ele>227.9697266</ele>
        <time>2010-06-06T08:07:01Z</time>
      </trkpt>
      <trkpt lat="44.71174" lon="0.91133">
        <ele>227.9697266</ele>
        <time>2010-06-06T08:07:09Z</time>
      </trkpt>
      <trkpt lat="44.71181" lon="0.91104">
        <ele>227.4891357</ele>
        <time>2010-06-06T08:07:16Z</time>
      </trkpt>
      <trkpt lat="44.71185" lon="0.91068">
        <ele>227.0085449</ele>
        <time>2010-06-06T08:07:22Z</time>
      </trkpt>
      <trkpt lat="44.71193" lon="0.91028">
        <ele>226.0471191</ele>
        <time>2010-06-06T08:07:31Z</time>
      </trkpt>
      <trkpt lat="44.71194" lon="0.90992">
        <ele>221.7211914</ele>
        <time>2010-06-06T08:07:39Z</time>
      </trkpt>
      <trkpt lat="44.71194" lon="0.90976">
        <ele>220.2791748</ele>
        <time>2010-06-06T08:07:43Z</time>
      </trkpt>
      <trkpt lat="44.71202" lon="0.90927">
        <ele>217.3953857</ele>
        <time>2010-06-06T08:07:52Z</time>
      </trkpt>
      <trkpt lat="44.71213" lon="0.90878">
        <ele>217.3953857</ele>
        <time>2010-06-06T08:08:00Z</time>
      </trkpt>
      <trkpt lat="44.71224" lon="0.90865">
        <ele>217.8759766</ele>
        <time>2010-06-06T08:08:04Z</time>
      </trkpt>
      <trkpt lat="44.71256" lon="0.90839">
        <ele>218.8372803</ele>
        <time>2010-06-06T08:08:15Z</time>
      </trkpt>
      <trkpt lat="44.71269" lon="0.9083">
        <ele>220.2791748</ele>
        <time>2010-06-06T08:08:19Z</time>
      </trkpt>
      <trkpt lat="44.71305" lon="0.90804">
        <ele>220.2791748</ele>
        <time>2010-06-06T08:08:31Z</time>
      </trkpt>
      <trkpt lat="44.71334" lon="0.90787">
        <ele>223.6437988</ele>
        <time>2010-06-06T08:08:41Z</time>
      </trkpt>
      <trkpt lat="44.71347" lon="0.9078">
        <ele>225.5665283</ele>
        <time>2010-06-06T08:08:47Z</time>
      </trkpt>
      <trkpt lat="44.71363" lon="0.90769">
        <ele>228.4504395</ele>
        <time>2010-06-06T08:08:54Z</time>
      </trkpt>
      <trkpt lat="44.71371" lon="0.90762">
        <ele>229.4117432</ele>
        <time>2010-06-06T08:08:58Z</time>
      </trkpt>
      <trkpt lat="44.71391" lon="0.90747">
        <ele>227.4891357</ele>
        <time>2010-06-06T08:09:05Z</time>
      </trkpt>
      <trkpt lat="44.71413" lon="0.9073">
        <ele>221.7211914</ele>
        <time>2010-06-06T08:09:14Z</time>
      </trkpt>
      <trkpt lat="44.71427" lon="0.90723">
        <ele>222.2017822</ele>
        <time>2010-06-06T08:09:21Z</time>
      </trkpt>
      <trkpt lat="44.71432" lon="0.90721">
        <ele>223.163208</ele>
        <time>2010-06-06T08:09:23Z</time>
      </trkpt>
      <trkpt lat="44.71449" lon="0.90709">
        <ele>226.527832</ele>
        <time>2010-06-06T08:09:31Z</time>
      </trkpt>
      <trkpt lat="44.71471" lon="0.90677">
        <ele>227.9697266</ele>
        <time>2010-06-06T08:09:40Z</time>
      </trkpt>
      <trkpt lat="44.71503" lon="0.90645">
        <ele>229.4117432</ele>
        <time>2010-06-06T08:09:51Z</time>
      </trkpt>
      <trkpt lat="44.71504" lon="0.90628">
        <ele>227.0085449</ele>
        <time>2010-06-06T08:09:57Z</time>
      </trkpt>
      <trkpt lat="44.71473" lon="0.90608">
        <ele>227.0085449</ele>
        <time>2010-06-06T08:10:09Z</time>
      </trkpt>
      <trkpt lat="44.71463" lon="0.90601">
        <ele>226.527832</ele>
        <time>2010-06-06T08:10:12Z</time>
      </trkpt>
      <trkpt lat="44.71419" lon="0.90565">
        <ele>226.0471191</ele>
        <time>2010-06-06T08:10:24Z</time>
      </trkpt>
      <trkpt lat="44.71408" lon="0.90548">
        <ele>226.527832</ele>
        <time>2010-06-06T08:10:28Z</time>
      </trkpt>
      <trkpt lat="44.71399" lon="0.90522">
        <ele>225.5665283</ele>
        <time>2010-06-06T08:10:33Z</time>
      </trkpt>
      <trkpt lat="44.71393" lon="0.90487">
        <ele>225.0859375</ele>
        <time>2010-06-06T08:10:39Z</time>
      </trkpt>
      <trkpt lat="44.71391" lon="0.90473">
        <ele>225.0859375</ele>
        <time>2010-06-06T08:10:41Z</time>
      </trkpt>
      <trkpt lat="44.71389" lon="0.90459">
        <ele>225.5665283</ele>
        <time>2010-06-06T08:10:43Z</time>
      </trkpt>
      <trkpt lat="44.71384" lon="0.90441">
        <ele>225.5665283</ele>
        <time>2010-06-06T08:10:46Z</time>
      </trkpt>
      <trkpt lat="44.7138" lon="0.90427">
        <ele>225.5665283</ele>
        <time>2010-06-06T08:10:48Z</time>
      </trkpt>
      <trkpt lat="44.71371" lon="0.90408">
        <ele>225.5665283</ele>
        <time>2010-06-06T08:10:51Z</time>
      </trkpt>
      <trkpt lat="44.71358" lon="0.90393">
        <ele>225.5665283</ele>
        <time>2010-06-06T08:10:54Z</time>
      </trkpt>
      <trkpt lat="44.71344" lon="0.90379">
        <ele>225.0859375</ele>
        <time>2010-06-06T08:10:57Z</time>
      </trkpt>
      <trkpt lat="44.71337" lon="0.90371">
        <ele>224.6052246</ele>
        <time>2010-06-06T08:10:59Z</time>
      </trkpt>
      <trkpt lat="44.71313" lon="0.90353">
        <ele>223.6437988</ele>
        <time>2010-06-06T08:11:04Z</time>
      </trkpt>
      <trkpt lat="44.71304" lon="0.90343">
        <ele>223.163208</ele>
        <time>2010-06-06T08:11:06Z</time>
      </trkpt>
      <trkpt lat="44.7129" lon="0.90272">
        <ele>225.0859375</ele>
        <time>2010-06-06T08:11:15Z</time>
      </trkpt>
      <trkpt lat="44.7129" lon="0.90234">
        <ele>226.527832</ele>
        <time>2010-06-06T08:11:18Z</time>
      </trkpt>
      <trkpt lat="44.71306" lon="0.90171">
        <ele>227.0085449</ele>
        <time>2010-06-06T08:11:23Z</time>
      </trkpt>
      <trkpt lat="44.71295" lon="0.90119">
        <ele>225.5665283</ele>
        <time>2010-06-06T08:11:29Z</time>
      </trkpt>
      <trkpt lat="44.7129" lon="0.90114">
        <ele>225.5665283</ele>
        <time>2010-06-06T08:11:30Z</time>
      </trkpt>
      <trkpt lat="44.7127" lon="0.90094">
        <ele>225.5665283</ele>
        <time>2010-06-06T08:11:34Z</time>
      </trkpt>
      <trkpt lat="44.71259" lon="0.90075">
        <ele>225.0859375</ele>
        <time>2010-06-06T08:11:38Z</time>
      </trkpt>
      <trkpt lat="44.71262" lon="0.90031">
        <ele>226.0471191</ele>
        <time>2010-06-06T08:11:48Z</time>
      </trkpt>
      <trkpt lat="44.71269" lon="0.8998">
        <ele>226.527832</ele>
        <time>2010-06-06T08:12:00Z</time>
      </trkpt>
      <trkpt lat="44.71267" lon="0.89949">
        <ele>226.527832</ele>
        <time>2010-06-06T08:12:06Z</time>
      </trkpt>
      <trkpt lat="44.71259" lon="0.89922">
        <ele>227.0085449</ele>
        <time>2010-06-06T08:12:11Z</time>
      </trkpt>
      <trkpt lat="44.71258" lon="0.8991">
        <ele>227.0085449</ele>
        <time>2010-06-06T08:12:13Z</time>
      </trkpt>
      <trkpt lat="44.71245" lon="0.8987">
        <ele>226.0471191</ele>
        <time>2010-06-06T08:12:20Z</time>
      </trkpt>
      <trkpt lat="44.71237" lon="0.8984">
        <ele>227.9697266</ele>
        <time>2010-06-06T08:12:25Z</time>
      </trkpt>
      <trkpt lat="44.71224" lon="0.89797">
        <ele>228.9311523</ele>
        <time>2010-06-06T08:12:31Z</time>
      </trkpt>
      <trkpt lat="44.712" lon="0.8972">
        <ele>229.4117432</ele>
        <time>2010-06-06T08:12:40Z</time>
      </trkpt>
      <trkpt lat="44.71197" lon="0.8971">
        <ele>229.4117432</ele>
        <time>2010-06-06T08:12:41Z</time>
      </trkpt>
      <trkpt lat="44.71189" lon="0.89675">
        <ele>230.3730469</ele>
        <time>2010-06-06T08:12:45Z</time>
      </trkpt>
      <trkpt lat="44.71176" lon="0.89649">
        <ele>230.8537598</ele>
        <time>2010-06-06T08:12:48Z</time>
      </trkpt>
      <trkpt lat="44.71169" lon="0.8962">
        <ele>229.4117432</ele>
        <time>2010-06-06T08:12:52Z</time>
      </trkpt>
      <trkpt lat="44.71173" lon="0.89604">
        <ele>228.4504395</ele>
        <time>2010-06-06T08:12:54Z</time>
      </trkpt>
      <trkpt lat="44.71177" lon="0.89585">
        <ele>227.0085449</ele>
        <time>2010-06-06T08:12:56Z</time>
      </trkpt>
      <trkpt lat="44.71187" lon="0.89543">
        <ele>224.1245117</ele>
        <time>2010-06-06T08:13:00Z</time>
      </trkpt>
      <trkpt lat="44.712" lon="0.89507">
        <ele>221.2406006</ele>
        <time>2010-06-06T08:13:04Z</time>
      </trkpt>
      <trkpt lat="44.71195" lon="0.89461">
        <ele>216.43396</ele>
        <time>2010-06-06T08:13:13Z</time>
      </trkpt>
      <trkpt lat="44.71192" lon="0.89451">
        <ele>216.43396</ele>
        <time>2010-06-06T08:13:15Z</time>
      </trkpt>
      <trkpt lat="44.71195" lon="0.89405">
        <ele>214.9919434</ele>
        <time>2010-06-06T08:13:23Z</time>
      </trkpt>
      <trkpt lat="44.71182" lon="0.8939">
        <ele>214.5112305</ele>
        <time>2010-06-06T08:13:28Z</time>
      </trkpt>
      <trkpt lat="44.71148" lon="0.89368">
        <ele>214.0306396</ele>
        <time>2010-06-06T08:13:42Z</time>
      </trkpt>
      <trkpt lat="44.71132" lon="0.89342">
        <ele>213.5500488</ele>
        <time>2010-06-06T08:13:51Z</time>
      </trkpt>
      <trkpt lat="44.7113" lon="0.89339">
        <ele>213.5500488</ele>
        <time>2010-06-06T08:13:53Z</time>
      </trkpt>
      <trkpt lat="44.71135" lon="0.89309">
        <ele>209.704834</ele>
        <time>2010-06-06T08:14:00Z</time>
      </trkpt>
      <trkpt lat="44.71143" lon="0.89276">
        <ele>207.3013916</ele>
        <time>2010-06-06T08:14:05Z</time>
      </trkpt>
      <trkpt lat="44.71147" lon="0.89246">
        <ele>205.3787842</ele>
        <time>2010-06-06T08:14:09Z</time>
      </trkpt>
      <trkpt lat="44.71151" lon="0.89189">
        <ele>199.6108398</ele>
        <time>2010-06-06T08:14:16Z</time>
      </trkpt>
      <trkpt lat="44.71145" lon="0.89145">
        <ele>194.8043213</ele>
        <time>2010-06-06T08:14:22Z</time>
      </trkpt>
      <trkpt lat="44.71152" lon="0.89086">
        <ele>185.1911621</ele>
        <time>2010-06-06T08:14:30Z</time>
      </trkpt>
      <trkpt lat="44.7115" lon="0.89071">
        <ele>182.7878418</ele>
        <time>2010-06-06T08:14:32Z</time>
      </trkpt>
      <trkpt lat="44.71142" lon="0.89037">
        <ele>178.942627</ele>
        <time>2010-06-06T08:14:36Z</time>
      </trkpt>
      <trkpt lat="44.71141" lon="0.89003">
        <ele>176.0585938</ele>
        <time>2010-06-06T08:14:40Z</time>
      </trkpt>
      <trkpt lat="44.71144" lon="0.88987">
        <ele>174.1358643</ele>
        <time>2010-06-06T08:14:42Z</time>
      </trkpt>
      <trkpt lat="44.71145" lon="0.88919">
        <ele>168.8487549</ele>
        <time>2010-06-06T08:14:49Z</time>
      </trkpt>
      <trkpt lat="44.71137" lon="0.88865">
        <ele>162.1195068</ele>
        <time>2010-06-06T08:14:57Z</time>
      </trkpt>
      <trkpt lat="44.71136" lon="0.8885">
        <ele>161.638916</ele>
        <time>2010-06-06T08:14:59Z</time>
      </trkpt>
      <trkpt lat="44.71138" lon="0.88827">
        <ele>160.6774902</ele>
        <time>2010-06-06T08:15:02Z</time>
      </trkpt>
      <trkpt lat="44.71138" lon="0.88773">
        <ele>157.7935791</ele>
        <time>2010-06-06T08:15:09Z</time>
      </trkpt>
      <trkpt lat="44.71138" lon="0.88716">
        <ele>155.3902588</ele>
        <time>2010-06-06T08:15:16Z</time>
      </trkpt>
      <trkpt lat="44.71136" lon="0.88697">
        <ele>154.4289551</ele>
        <time>2010-06-06T08:15:19Z</time>
      </trkpt>
      <trkpt lat="44.71125" lon="0.88647">
        <ele>147.699707</ele>
        <time>2010-06-06T08:15:25Z</time>
      </trkpt>
      <trkpt lat="44.7108" lon="0.8858">
        <ele>144.3352051</ele>
        <time>2010-06-06T08:15:34Z</time>
      </trkpt>
      <trkpt lat="44.71069" lon="0.88564">
        <ele>143.8543701</ele>
        <time>2010-06-06T08:15:36Z</time>
      </trkpt>
      <trkpt lat="44.71042" lon="0.8851">
        <ele>146.7384033</ele>
        <time>2010-06-06T08:15:42Z</time>
      </trkpt>
      <trkpt lat="44.7102" lon="0.88479">
        <ele>148.1804199</ele>
        <time>2010-06-06T08:15:46Z</time>
      </trkpt>
      <trkpt lat="44.71003" lon="0.8845">
        <ele>150.1030273</ele>
        <time>2010-06-06T08:15:50Z</time>
      </trkpt>
      <trkpt lat="44.70989" lon="0.88367">
        <ele>151.064209</ele>
        <time>2010-06-06T08:15:58Z</time>
      </trkpt>
      <trkpt lat="44.70986" lon="0.88292">
        <ele>152.0257568</ele>
        <time>2010-06-06T08:16:05Z</time>
      </trkpt>
      <trkpt lat="44.70979" lon="0.88236">
        <ele>152.0257568</ele>
        <time>2010-06-06T08:16:11Z</time>
      </trkpt>
      <trkpt lat="44.70958" lon="0.8812">
        <ele>149.6223145</ele>
        <time>2010-06-06T08:16:23Z</time>
      </trkpt>
      <trkpt lat="44.70961" lon="0.88018">
        <ele>146.7384033</ele>
        <time>2010-06-06T08:16:33Z</time>
      </trkpt>
      <trkpt lat="44.70985" lon="0.87964">
        <ele>147.699707</ele>
        <time>2010-06-06T08:16:40Z</time>
      </trkpt>
      <trkpt lat="44.71005" lon="0.87951">
        <ele>149.6223145</ele>
        <time>2010-06-06T08:16:44Z</time>
      </trkpt>
      <trkpt lat="44.71019" lon="0.87939">
        <ele>151.064209</ele>
        <time>2010-06-06T08:16:47Z</time>
      </trkpt>
      <trkpt lat="44.71036" lon="0.87908">
        <ele>152.0257568</ele>
        <time>2010-06-06T08:16:52Z</time>
      </trkpt>
      <trkpt lat="44.7105" lon="0.878">
        <ele>154.4289551</ele>
        <time>2010-06-06T08:17:06Z</time>
      </trkpt>
      <trkpt lat="44.7105" lon="0.87792">
        <ele>154.4289551</ele>
        <time>2010-06-06T08:17:07Z</time>
      </trkpt>
      <trkpt lat="44.71058" lon="0.87754">
        <ele>154.9095459</ele>
        <time>2010-06-06T08:17:12Z</time>
      </trkpt>
      <trkpt lat="44.71096" lon="0.87666">
        <ele>153.4676514</ele>
        <time>2010-06-06T08:17:23Z</time>
      </trkpt>
      <trkpt lat="44.71102" lon="0.87649">
        <ele>152.9869385</ele>
        <time>2010-06-06T08:17:25Z</time>
      </trkpt>
      <trkpt lat="44.71106" lon="0.87606">
        <ele>153.4676514</ele>
        <time>2010-06-06T08:17:30Z</time>
      </trkpt>
      <trkpt lat="44.71103" lon="0.87552">
        <ele>154.4289551</ele>
        <time>2010-06-06T08:17:36Z</time>
      </trkpt>
      <trkpt lat="44.71101" lon="0.87525">
        <ele>154.9095459</ele>
        <time>2010-06-06T08:17:39Z</time>
      </trkpt>
      <trkpt lat="44.71098" lon="0.87483">
        <ele>156.3515625</ele>
        <time>2010-06-06T08:17:44Z</time>
      </trkpt>
      <trkpt lat="44.71107" lon="0.874">
        <ele>155.3902588</ele>
        <time>2010-06-06T08:17:51Z</time>
      </trkpt>
      <trkpt lat="44.71109" lon="0.87377">
        <ele>155.3902588</ele>
        <time>2010-06-06T08:17:53Z</time>
      </trkpt>
      <trkpt lat="44.71096" lon="0.8735">
        <ele>155.3902588</ele>
        <time>2010-06-06T08:17:59Z</time>
      </trkpt>
      <trkpt lat="44.71081" lon="0.87353">
        <ele>155.3902588</ele>
        <time>2010-06-06T08:18:02Z</time>
      </trkpt>
      <trkpt lat="44.71064" lon="0.87355">
        <ele>154.9095459</ele>
        <time>2010-06-06T08:18:05Z</time>
      </trkpt>
      <trkpt lat="44.71044" lon="0.87345">
        <ele>155.3902588</ele>
        <time>2010-06-06T08:18:10Z</time>
      </trkpt>
      <trkpt lat="44.71029" lon="0.87315">
        <ele>155.8709717</ele>
        <time>2010-06-06T08:18:19Z</time>
      </trkpt>
      <trkpt lat="44.71028" lon="0.87312">
        <ele>156.3515625</ele>
        <time>2010-06-06T08:18:20Z</time>
      </trkpt>
      <trkpt lat="44.71017" lon="0.8729">
        <ele>162.1195068</ele>
        <time>2010-06-06T08:18:29Z</time>
      </trkpt>
      <trkpt lat="44.71004" lon="0.87263">
        <ele>162.6000977</ele>
        <time>2010-06-06T08:18:41Z</time>
      </trkpt>
      <trkpt lat="44.70997" lon="0.87247">
        <ele>163.0808105</ele>
        <time>2010-06-06T08:18:47Z</time>
      </trkpt>
      <trkpt lat="44.70986" lon="0.87248">
        <ele>162.6000977</ele>
        <time>2010-06-06T08:18:53Z</time>
      </trkpt>
      <trkpt lat="44.70959" lon="0.87249">
        <ele>157.7935791</ele>
        <time>2010-06-06T08:19:06Z</time>
      </trkpt>
      <trkpt lat="44.70932" lon="0.87253">
        <ele>156.8321533</ele>
        <time>2010-06-06T08:19:13Z</time>
      </trkpt>
      <trkpt lat="44.70922" lon="0.87256">
        <ele>156.8321533</ele>
        <time>2010-06-06T08:19:15Z</time>
      </trkpt>
      <trkpt lat="44.70913" lon="0.87261">
        <ele>156.3515625</ele>
        <time>2010-06-06T08:19:17Z</time>
      </trkpt>
      <trkpt lat="44.70881" lon="0.8729">
        <ele>152.9869385</ele>
        <time>2010-06-06T08:19:25Z</time>
      </trkpt>
      <trkpt lat="44.70873" lon="0.87299">
        <ele>152.0257568</ele>
        <time>2010-06-06T08:19:27Z</time>
      </trkpt>
      <trkpt lat="44.70857" lon="0.87315">
        <ele>149.6223145</ele>
        <time>2010-06-06T08:19:31Z</time>
      </trkpt>
      <trkpt lat="44.70833" lon="0.87328">
        <ele>145.7770996</ele>
        <time>2010-06-06T08:19:37Z</time>
      </trkpt>
      <trkpt lat="44.70823" lon="0.87335">
        <ele>145.7770996</ele>
        <time>2010-06-06T08:19:40Z</time>
      </trkpt>
      <trkpt lat="44.70806" lon="0.8733">
        <ele>145.2963867</ele>
        <time>2010-06-06T08:19:44Z</time>
      </trkpt>
      <trkpt lat="44.70726" lon="0.87285">
        <ele>146.7384033</ele>
        <time>2010-06-06T08:20:00Z</time>
      </trkpt>
      <trkpt lat="44.707" lon="0.87273">
        <ele>150.5836182</ele>
        <time>2010-06-06T08:20:12Z</time>
      </trkpt>
      <trkpt lat="44.70671" lon="0.87261">
        <ele>152.5063477</ele>
        <time>2010-06-06T08:20:28Z</time>
      </trkpt>
      <trkpt lat="44.70641" lon="0.87242">
        <ele>152.9869385</ele>
        <time>2010-06-06T08:20:43Z</time>
      </trkpt>
      <trkpt lat="44.70611" lon="0.87217">
        <ele>156.8321533</ele>
        <time>2010-06-06T08:20:59Z</time>
      </trkpt>
      <trkpt lat="44.70592" lon="0.87201">
        <ele>160.6774902</ele>
        <time>2010-06-06T08:21:12Z</time>
      </trkpt>
      <trkpt lat="44.70569" lon="0.87182">
        <ele>165.003418</ele>
        <time>2010-06-06T08:21:27Z</time>
      </trkpt>
      <trkpt lat="44.70545" lon="0.8716">
        <ele>167.4067383</ele>
        <time>2010-06-06T08:21:42Z</time>
      </trkpt>
      <trkpt lat="44.70521" lon="0.8714">
        <ele>169.3294678</ele>
        <time>2010-06-06T08:21:55Z</time>
      </trkpt>
      <trkpt lat="44.70501" lon="0.87118">
        <ele>172.6939697</ele>
        <time>2010-06-06T08:22:06Z</time>
      </trkpt>
      <trkpt lat="44.70488" lon="0.87096">
        <ele>174.6165771</ele>
        <time>2010-06-06T08:22:17Z</time>
      </trkpt>
      <trkpt lat="44.7048" lon="0.87066">
        <ele>177.0200195</ele>
        <time>2010-06-06T08:22:30Z</time>
      </trkpt>
      <trkpt lat="44.70475" lon="0.87043">
        <ele>178.4619141</ele>
        <time>2010-06-06T08:22:39Z</time>
      </trkpt>
      <trkpt lat="44.70472" lon="0.87041">
        <ele>178.4619141</ele>
        <time>2010-06-06T08:22:43Z</time>
      </trkpt>
      <trkpt lat="44.70475" lon="0.87047">
        <ele>177.0200195</ele>
        <time>2010-06-06T08:22:52Z</time>
      </trkpt>
      <trkpt lat="44.70472" lon="0.87042">
        <ele>176.5393066</ele>
        <time>2010-06-06T08:22:58Z</time>
      </trkpt>
      <trkpt lat="44.70475" lon="0.87055">
        <ele>175.5778809</ele>
        <time>2010-06-06T08:23:07Z</time>
      </trkpt>
      <trkpt lat="44.70473" lon="0.87041">
        <ele>176.5393066</ele>
        <time>2010-06-06T08:23:15Z</time>
      </trkpt>
      <trkpt lat="44.70469" lon="0.8705">
        <ele>177.0200195</ele>
        <time>2010-06-06T08:23:25Z</time>
      </trkpt>
      <trkpt lat="44.7047" lon="0.87051">
        <ele>177.0200195</ele>
        <time>2010-06-06T08:23:28Z</time>
      </trkpt>
      <trkpt lat="44.7045" lon="0.87076">
        <ele>176.0585938</ele>
        <time>2010-06-06T08:23:39Z</time>
      </trkpt>
      <trkpt lat="44.70435" lon="0.87094">
        <ele>175.5778809</ele>
        <time>2010-06-06T08:23:44Z</time>
      </trkpt>
      <trkpt lat="44.70405" lon="0.87098">
        <ele>175.5778809</ele>
        <time>2010-06-06T08:23:52Z</time>
      </trkpt>
      <trkpt lat="44.70392" lon="0.8711">
        <ele>175.5778809</ele>
        <time>2010-06-06T08:23:57Z</time>
      </trkpt>
      <trkpt lat="44.70382" lon="0.87147">
        <ele>173.6552734</ele>
        <time>2010-06-06T08:24:02Z</time>
      </trkpt>
      <trkpt lat="44.70353" lon="0.87176">
        <ele>170.2906494</ele>
        <time>2010-06-06T08:24:08Z</time>
      </trkpt>
      <trkpt lat="44.7029" lon="0.87162">
        <ele>168.8487549</ele>
        <time>2010-06-06T08:24:18Z</time>
      </trkpt>
      <trkpt lat="44.70271" lon="0.87158">
        <ele>169.3294678</ele>
        <time>2010-06-06T08:24:22Z</time>
      </trkpt>
      <trkpt lat="44.70235" lon="0.87152">
        <ele>169.3294678</ele>
        <time>2010-06-06T08:24:33Z</time>
      </trkpt>
      <trkpt lat="44.70224" lon="0.87153">
        <ele>170.2906494</ele>
        <time>2010-06-06T08:24:37Z</time>
      </trkpt>
      <trkpt lat="44.70203" lon="0.87156">
        <ele>168.368042</ele>
        <time>2010-06-06T08:24:46Z</time>
      </trkpt>
      <trkpt lat="44.70192" lon="0.87156">
        <ele>167.8873291</ele>
        <time>2010-06-06T08:24:51Z</time>
      </trkpt>
      <trkpt lat="44.70175" lon="0.87155">
        <ele>165.9647217</ele>
        <time>2010-06-06T08:24:58Z</time>
      </trkpt>
      <trkpt lat="44.70171" lon="0.87156">
        <ele>165.9647217</ele>
        <time>2010-06-06T08:25:00Z</time>
      </trkpt>
      <trkpt lat="44.70158" lon="0.87159">
        <ele>166.4453125</ele>
        <time>2010-06-06T08:25:05Z</time>
      </trkpt>
      <trkpt lat="44.70142" lon="0.8716">
        <ele>168.368042</ele>
        <time>2010-06-06T08:25:11Z</time>
      </trkpt>
      <trkpt lat="44.7012" lon="0.87164">
        <ele>175.09729</ele>
        <time>2010-06-06T08:25:20Z</time>
      </trkpt>
      <trkpt lat="44.70102" lon="0.8716">
        <ele>180.8652344</ele>
        <time>2010-06-06T08:25:27Z</time>
      </trkpt>
      <trkpt lat="44.70074" lon="0.87153">
        <ele>190.4783936</ele>
        <time>2010-06-06T08:25:39Z</time>
      </trkpt>
      <trkpt lat="44.70056" lon="0.87151">
        <ele>193.3623047</ele>
        <time>2010-06-06T08:25:46Z</time>
      </trkpt>
      <trkpt lat="44.70022" lon="0.87153">
        <ele>192.8817139</ele>
        <time>2010-06-06T08:25:58Z</time>
      </trkpt>
      <trkpt lat="44.70018" lon="0.87153">
        <ele>192.8817139</ele>
        <time>2010-06-06T08:26:00Z</time>
      </trkpt>
      <trkpt lat="44.70002" lon="0.87153">
        <ele>192.8817139</ele>
        <time>2010-06-06T08:26:06Z</time>
      </trkpt>
      <trkpt lat="44.69985" lon="0.87169">
        <ele>186.1524658</ele>
        <time>2010-06-06T08:26:14Z</time>
      </trkpt>
      <trkpt lat="44.69982" lon="0.87176">
        <ele>184.7105713</ele>
        <time>2010-06-06T08:26:16Z</time>
      </trkpt>
      <trkpt lat="44.69975" lon="0.87201">
        <ele>181.826416</ele>
        <time>2010-06-06T08:26:26Z</time>
      </trkpt>
      <trkpt lat="44.69973" lon="0.87205">
        <ele>181.3458252</ele>
        <time>2010-06-06T08:26:28Z</time>
      </trkpt>
      <trkpt lat="44.69951" lon="0.87217">
        <ele>177.9812012</ele>
        <time>2010-06-06T08:26:40Z</time>
      </trkpt>
      <trkpt lat="44.69946" lon="0.87218">
        <ele>177.5006104</ele>
        <time>2010-06-06T08:26:43Z</time>
      </trkpt>
      <trkpt lat="44.69925" lon="0.87224">
        <ele>175.5778809</ele>
        <time>2010-06-06T08:26:53Z</time>
      </trkpt>
      <trkpt lat="44.69906" lon="0.87223">
        <ele>175.09729</ele>
        <time>2010-06-06T08:27:04Z</time>
      </trkpt>
      <trkpt lat="44.69901" lon="0.87221">
        <ele>176.5393066</ele>
        <time>2010-06-06T08:27:07Z</time>
      </trkpt>
      <trkpt lat="44.69898" lon="0.87223">
        <ele>178.942627</ele>
        <time>2010-06-06T08:27:10Z</time>
      </trkpt>
      <trkpt lat="44.69889" lon="0.87224">
        <ele>178.4619141</ele>
        <time>2010-06-06T08:27:14Z</time>
      </trkpt>
      <trkpt lat="44.69879" lon="0.87223">
        <ele>181.3458252</ele>
        <time>2010-06-06T08:27:21Z</time>
      </trkpt>
      <trkpt lat="44.69876" lon="0.87222">
        <ele>181.826416</ele>
        <time>2010-06-06T08:27:23Z</time>
      </trkpt>
      <trkpt lat="44.69858" lon="0.8723">
        <ele>183.2684326</ele>
        <time>2010-06-06T08:27:33Z</time>
      </trkpt>
      <trkpt lat="44.69852" lon="0.8723">
        <ele>183.2684326</ele>
        <time>2010-06-06T08:27:36Z</time>
      </trkpt>
      <trkpt lat="44.69827" lon="0.87226">
        <ele>185.6717529</ele>
        <time>2010-06-06T08:27:49Z</time>
      </trkpt>
      <trkpt lat="44.698" lon="0.87228">
        <ele>187.5943604</ele>
        <time>2010-06-06T08:28:03Z</time>
      </trkpt>
      <trkpt lat="44.69767" lon="0.87226">
        <ele>188.0750732</ele>
        <time>2010-06-06T08:28:17Z</time>
      </trkpt>
      <trkpt lat="44.69738" lon="0.87232">
        <ele>188.0750732</ele>
        <time>2010-06-06T08:28:29Z</time>
      </trkpt>
      <trkpt lat="44.69719" lon="0.8724">
        <ele>187.5943604</ele>
        <time>2010-06-06T08:28:38Z</time>
      </trkpt>
      <trkpt lat="44.69706" lon="0.87243">
        <ele>186.6331787</ele>
        <time>2010-06-06T08:28:45Z</time>
      </trkpt>
      <trkpt lat="44.69686" lon="0.87247">
        <ele>187.1137695</ele>
        <time>2010-06-06T08:28:55Z</time>
      </trkpt>
      <trkpt lat="44.69681" lon="0.87248">
        <ele>187.5943604</ele>
        <time>2010-06-06T08:28:57Z</time>
      </trkpt>
      <trkpt lat="44.69666" lon="0.8725">
        <ele>188.5557861</ele>
        <time>2010-06-06T08:29:03Z</time>
      </trkpt>
      <trkpt lat="44.69656" lon="0.87249">
        <ele>188.5557861</ele>
        <time>2010-06-06T08:29:16Z</time>
      </trkpt>
      <trkpt lat="44.69649" lon="0.87255">
        <ele>194.8043213</ele>
        <time>2010-06-06T08:30:08Z</time>
      </trkpt>
      <trkpt lat="44.69646" lon="0.87257">
        <ele>196.2463379</ele>
        <time>2010-06-06T08:30:28Z</time>
      </trkpt>
      <trkpt lat="44.69633" lon="0.8726">
        <ele>196.7269287</ele>
        <time>2010-06-06T08:30:35Z</time>
      </trkpt>
      <trkpt lat="44.69629" lon="0.87261">
        <ele>196.7269287</ele>
        <time>2010-06-06T08:30:37Z</time>
      </trkpt>
      <trkpt lat="44.6962" lon="0.87262">
        <ele>196.7269287</ele>
        <time>2010-06-06T08:30:41Z</time>
      </trkpt>
      <trkpt lat="44.69584" lon="0.87269">
        <ele>196.2463379</ele>
        <time>2010-06-06T08:30:55Z</time>
      </trkpt>
      <trkpt lat="44.69577" lon="0.8727">
        <ele>196.7269287</ele>
        <time>2010-06-06T08:30:58Z</time>
      </trkpt>
      <trkpt lat="44.69542" lon="0.87285">
        <ele>195.765625</ele>
        <time>2010-06-06T08:31:10Z</time>
      </trkpt>
      <trkpt lat="44.69515" lon="0.87301">
        <ele>194.3237305</ele>
        <time>2010-06-06T08:31:20Z</time>
      </trkpt>
      <trkpt lat="44.69503" lon="0.87307">
        <ele>192.401123</ele>
        <time>2010-06-06T08:31:25Z</time>
      </trkpt>
      <trkpt lat="44.69486" lon="0.87317">
        <ele>188.5557861</ele>
        <time>2010-06-06T08:31:32Z</time>
      </trkpt>
      <trkpt lat="44.69468" lon="0.87329">
        <ele>185.6717529</ele>
        <time>2010-06-06T08:31:38Z</time>
      </trkpt>
      <trkpt lat="44.69446" lon="0.87336">
        <ele>182.7878418</ele>
        <time>2010-06-06T08:31:46Z</time>
      </trkpt>
      <trkpt lat="44.69433" lon="0.87345">
        <ele>182.3071289</ele>
        <time>2010-06-06T08:31:51Z</time>
      </trkpt>
      <trkpt lat="44.69419" lon="0.87353">
        <ele>182.7878418</ele>
        <time>2010-06-06T08:31:57Z</time>
      </trkpt>
      <trkpt lat="44.69387" lon="0.87374">
        <ele>185.1911621</ele>
        <time>2010-06-06T08:32:09Z</time>
      </trkpt>
      <trkpt lat="44.69365" lon="0.87386">
        <ele>188.0750732</ele>
        <time>2010-06-06T08:32:18Z</time>
      </trkpt>
      <trkpt lat="44.69317" lon="0.87407">
        <ele>191.4395752</ele>
        <time>2010-06-06T08:32:31Z</time>
      </trkpt>
      <trkpt lat="44.69298" lon="0.87416">
        <ele>190.9589844</ele>
        <time>2010-06-06T08:32:38Z</time>
      </trkpt>
      <trkpt lat="44.69289" lon="0.87421">
        <ele>189.9976807</ele>
        <time>2010-06-06T08:32:42Z</time>
      </trkpt>
      <trkpt lat="44.69258" lon="0.87436">
        <ele>189.9976807</ele>
        <time>2010-06-06T08:32:54Z</time>
      </trkpt>
      <trkpt lat="44.69249" lon="0.87441">
        <ele>190.4783936</ele>
        <time>2010-06-06T08:33:00Z</time>
      </trkpt>
      <trkpt lat="44.69237" lon="0.87441">
        <ele>193.8430176</ele>
        <time>2010-06-06T08:33:05Z</time>
      </trkpt>
      <trkpt lat="44.69197" lon="0.87442">
        <ele>196.2463379</ele>
        <time>2010-06-06T08:33:17Z</time>
      </trkpt>
      <trkpt lat="44.69167" lon="0.87418">
        <ele>197.2075195</ele>
        <time>2010-06-06T08:33:28Z</time>
      </trkpt>
      <trkpt lat="44.69138" lon="0.87394">
        <ele>197.2075195</ele>
        <time>2010-06-06T08:33:40Z</time>
      </trkpt>
      <trkpt lat="44.69101" lon="0.87367">
        <ele>199.6108398</ele>
        <time>2010-06-06T08:33:53Z</time>
      </trkpt>
      <trkpt lat="44.69061" lon="0.87356">
        <ele>200.5722656</ele>
        <time>2010-06-06T08:34:05Z</time>
      </trkpt>
      <trkpt lat="44.69048" lon="0.87344">
        <ele>200.0916748</ele>
        <time>2010-06-06T08:34:09Z</time>
      </trkpt>
      <trkpt lat="44.69015" lon="0.87306">
        <ele>200.0916748</ele>
        <time>2010-06-06T08:34:21Z</time>
      </trkpt>
      <trkpt lat="44.68988" lon="0.87285">
        <ele>203.4561768</ele>
        <time>2010-06-06T08:34:35Z</time>
      </trkpt>
      <trkpt lat="44.68965" lon="0.87269">
        <ele>205.3787842</ele>
        <time>2010-06-06T08:34:46Z</time>
      </trkpt>
      <trkpt lat="44.68938" lon="0.8725">
        <ele>205.3787842</ele>
        <time>2010-06-06T08:34:51Z</time>
      </trkpt>
      <trkpt lat="44.68889" lon="0.87215">
        <ele>204.8980713</ele>
        <time>2010-06-06T08:34:58Z</time>
      </trkpt>
      <trkpt lat="44.68872" lon="0.87202">
        <ele>205.3787842</ele>
        <time>2010-06-06T08:35:03Z</time>
      </trkpt>
      <trkpt lat="44.68861" lon="0.87192">
        <ele>207.3013916</ele>
        <time>2010-06-06T08:35:10Z</time>
      </trkpt>
      <trkpt lat="44.68844" lon="0.87176">
        <ele>205.3787842</ele>
        <time>2010-06-06T08:35:22Z</time>
      </trkpt>
      <trkpt lat="44.6884" lon="0.87169">
        <ele>205.3787842</ele>
        <time>2010-06-06T08:35:26Z</time>
      </trkpt>
      <trkpt lat="44.68827" lon="0.87149">
        <ele>205.8594971</ele>
        <time>2010-06-06T08:35:37Z</time>
      </trkpt>
      <trkpt lat="44.68818" lon="0.87135">
        <ele>205.3787842</ele>
        <time>2010-06-06T08:35:44Z</time>
      </trkpt>
      <trkpt lat="44.68814" lon="0.87132">
        <ele>205.3787842</ele>
        <time>2010-06-06T08:35:47Z</time>
      </trkpt>
      <trkpt lat="44.68801" lon="0.87111">
        <ele>205.8594971</ele>
        <time>2010-06-06T08:35:59Z</time>
      </trkpt>
      <trkpt lat="44.68789" lon="0.87091">
        <ele>207.3013916</ele>
        <time>2010-06-06T08:36:09Z</time>
      </trkpt>
      <trkpt lat="44.68778" lon="0.8707">
        <ele>208.7434082</ele>
        <time>2010-06-06T08:36:19Z</time>
      </trkpt>
      <trkpt lat="44.68768" lon="0.87053">
        <ele>209.704834</ele>
        <time>2010-06-06T08:36:27Z</time>
      </trkpt>
      <trkpt lat="44.68765" lon="0.87051">
        <ele>209.704834</ele>
        <time>2010-06-06T08:36:29Z</time>
      </trkpt>
      <trkpt lat="44.68756" lon="0.87035">
        <ele>212.1080322</ele>
        <time>2010-06-06T08:36:36Z</time>
      </trkpt>
      <trkpt lat="44.68744" lon="0.87013">
        <ele>215.9532471</ele>
        <time>2010-06-06T08:36:48Z</time>
      </trkpt>
      <trkpt lat="44.68734" lon="0.86978">
        <ele>216.9146729</ele>
        <time>2010-06-06T08:36:57Z</time>
      </trkpt>
      <trkpt lat="44.68721" lon="0.86911">
        <ele>215.9532471</ele>
        <time>2010-06-06T08:37:05Z</time>
      </trkpt>
      <trkpt lat="44.68718" lon="0.86856">
        <ele>214.5112305</ele>
        <time>2010-06-06T08:37:10Z</time>
      </trkpt>
      <trkpt lat="44.68716" lon="0.86811">
        <ele>212.588623</ele>
        <time>2010-06-06T08:37:14Z</time>
      </trkpt>
      <trkpt lat="44.68712" lon="0.86733">
        <ele>207.3013916</ele>
        <time>2010-06-06T08:37:21Z</time>
      </trkpt>
      <trkpt lat="44.68711" lon="0.86698">
        <ele>205.3787842</ele>
        <time>2010-06-06T08:37:25Z</time>
      </trkpt>
      <trkpt lat="44.6871" lon="0.86688">
        <ele>204.4174805</ele>
        <time>2010-06-06T08:37:27Z</time>
      </trkpt>
      <trkpt lat="44.68708" lon="0.86668">
        <ele>203.9368896</ele>
        <time>2010-06-06T08:37:39Z</time>
      </trkpt>
      <trkpt lat="44.68709" lon="0.86667">
        <ele>206.3400879</ele>
        <time>2010-06-06T08:38:04Z</time>
      </trkpt>
      <trkpt lat="44.68709" lon="0.86664">
        <ele>202.494873</ele>
        <time>2010-06-06T08:45:14Z</time>
      </trkpt>
      <trkpt lat="44.68706" lon="0.8666">
        <ele>202.9754639</ele>
        <time>2010-06-06T08:45:22Z</time>
      </trkpt>
      <trkpt lat="44.68705" lon="0.86654">
        <ele>202.494873</ele>
        <time>2010-06-06T08:45:26Z</time>
      </trkpt>
      <trkpt lat="44.68701" lon="0.86651">
        <ele>201.5335693</ele>
        <time>2010-06-06T08:45:34Z</time>
      </trkpt>
      <trkpt lat="44.68671" lon="0.86661">
        <ele>199.6108398</ele>
        <time>2010-06-06T08:45:47Z</time>
      </trkpt>
      <trkpt lat="44.68631" lon="0.8666">
        <ele>195.2849121</ele>
        <time>2010-06-06T08:45:57Z</time>
      </trkpt>
      <trkpt lat="44.68615" lon="0.86655">
        <ele>193.8430176</ele>
        <time>2010-06-06T08:46:01Z</time>
      </trkpt>
      <trkpt lat="44.68607" lon="0.86651">
        <ele>193.3623047</ele>
        <time>2010-06-06T08:46:03Z</time>
      </trkpt>
      <trkpt lat="44.68558" lon="0.86605">
        <ele>189.036377</ele>
        <time>2010-06-06T08:46:17Z</time>
      </trkpt>
      <trkpt lat="44.68513" lon="0.86589">
        <ele>188.0750732</ele>
        <time>2010-06-06T08:46:30Z</time>
      </trkpt>
      <trkpt lat="44.68448" lon="0.86588">
        <ele>185.6717529</ele>
        <time>2010-06-06T08:46:47Z</time>
      </trkpt>
      <trkpt lat="44.68425" lon="0.86583">
        <ele>185.6717529</ele>
        <time>2010-06-06T08:46:53Z</time>
      </trkpt>
      <trkpt lat="44.68392" lon="0.86578">
        <ele>185.1911621</ele>
        <time>2010-06-06T08:47:03Z</time>
      </trkpt>
      <trkpt lat="44.68388" lon="0.86578">
        <ele>185.1911621</ele>
        <time>2010-06-06T08:47:04Z</time>
      </trkpt>
      <trkpt lat="44.6837" lon="0.86571">
        <ele>184.2298584</ele>
        <time>2010-06-06T08:47:08Z</time>
      </trkpt>
      <trkpt lat="44.6836" lon="0.86569">
        <ele>183.7490234</ele>
        <time>2010-06-06T08:47:10Z</time>
      </trkpt>
      <trkpt lat="44.68351" lon="0.86566">
        <ele>183.7490234</ele>
        <time>2010-06-06T08:47:12Z</time>
      </trkpt>
      <trkpt lat="44.68335" lon="0.86563">
        <ele>183.2684326</ele>
        <time>2010-06-06T08:47:15Z</time>
      </trkpt>
      <trkpt lat="44.68311" lon="0.86555">
        <ele>182.3071289</ele>
        <time>2010-06-06T08:47:20Z</time>
      </trkpt>
      <trkpt lat="44.68304" lon="0.86553">
        <ele>181.826416</ele>
        <time>2010-06-06T08:47:22Z</time>
      </trkpt>
      <trkpt lat="44.68295" lon="0.86558">
        <ele>182.7878418</ele>
        <time>2010-06-06T08:47:31Z</time>
      </trkpt>
      <trkpt lat="44.68295" lon="0.86562">
        <ele>182.7878418</ele>
        <time>2010-06-06T08:47:32Z</time>
      </trkpt>
      <trkpt lat="44.68303" lon="0.86606">
        <ele>190.9589844</ele>
        <time>2010-06-06T08:47:48Z</time>
      </trkpt>
      <trkpt lat="44.68303" lon="0.86614">
        <ele>191.9202881</ele>
        <time>2010-06-06T08:47:55Z</time>
      </trkpt>
      <trkpt lat="44.68298" lon="0.86618">
        <ele>192.401123</ele>
        <time>2010-06-06T08:47:59Z</time>
      </trkpt>
      <trkpt lat="44.68278" lon="0.86616">
        <ele>191.9202881</ele>
        <time>2010-06-06T08:48:08Z</time>
      </trkpt>
      <trkpt lat="44.68255" lon="0.86615">
        <ele>192.8817139</ele>
        <time>2010-06-06T08:48:20Z</time>
      </trkpt>
      <trkpt lat="44.68241" lon="0.86618">
        <ele>193.3623047</ele>
        <time>2010-06-06T08:48:26Z</time>
      </trkpt>
      <trkpt lat="44.68199" lon="0.86625">
        <ele>191.9202881</ele>
        <time>2010-06-06T08:48:35Z</time>
      </trkpt>
      <trkpt lat="44.68182" lon="0.86623">
        <ele>190.9589844</ele>
        <time>2010-06-06T08:48:39Z</time>
      </trkpt>
      <trkpt lat="44.68155" lon="0.8662">
        <ele>190.4783936</ele>
        <time>2010-06-06T08:48:45Z</time>
      </trkpt>
      <trkpt lat="44.6814" lon="0.86615">
        <ele>189.9976807</ele>
        <time>2010-06-06T08:48:48Z</time>
      </trkpt>
      <trkpt lat="44.68123" lon="0.86616">
        <ele>189.9976807</ele>
        <time>2010-06-06T08:48:51Z</time>
      </trkpt>
      <trkpt lat="44.68094" lon="0.86625">
        <ele>193.3623047</ele>
        <time>2010-06-06T08:49:00Z</time>
      </trkpt>
      <trkpt lat="44.68092" lon="0.86625">
        <ele>194.3237305</ele>
        <time>2010-06-06T08:49:02Z</time>
      </trkpt>
      <trkpt lat="44.68081" lon="0.8663">
        <ele>196.7269287</ele>
        <time>2010-06-06T08:49:08Z</time>
      </trkpt>
      <trkpt lat="44.68075" lon="0.86637">
        <ele>200.0916748</ele>
        <time>2010-06-06T08:49:14Z</time>
      </trkpt>
      <trkpt lat="44.68062" lon="0.86648">
        <ele>204.8980713</ele>
        <time>2010-06-06T08:49:23Z</time>
      </trkpt>
      <trkpt lat="44.68061" lon="0.86646">
        <ele>203.9368896</ele>
        <time>2010-06-06T08:49:28Z</time>
      </trkpt>
      <trkpt lat="44.68066" lon="0.86632">
        <ele>202.9754639</ele>
        <time>2010-06-06T08:49:40Z</time>
      </trkpt>
      <trkpt lat="44.68065" lon="0.86631">
        <ele>202.494873</ele>
        <time>2010-06-06T08:49:44Z</time>
      </trkpt>
      <trkpt lat="44.68057" lon="0.8664">
        <ele>202.9754639</ele>
        <time>2010-06-06T08:49:51Z</time>
      </trkpt>
      <trkpt lat="44.68047" lon="0.86648">
        <ele>204.4174805</ele>
        <time>2010-06-06T08:49:58Z</time>
      </trkpt>
      <trkpt lat="44.68025" lon="0.86657">
        <ele>205.8594971</ele>
        <time>2010-06-06T08:50:09Z</time>
      </trkpt>
      <trkpt lat="44.68003" lon="0.86669">
        <ele>205.3787842</ele>
        <time>2010-06-06T08:50:20Z</time>
      </trkpt>
      <trkpt lat="44.67982" lon="0.8668">
        <ele>204.8980713</ele>
        <time>2010-06-06T08:50:32Z</time>
      </trkpt>
      <trkpt lat="44.67966" lon="0.86692">
        <ele>204.4174805</ele>
        <time>2010-06-06T08:50:41Z</time>
      </trkpt>
      <trkpt lat="44.67938" lon="0.86709">
        <ele>205.8594971</ele>
        <time>2010-06-06T08:50:56Z</time>
      </trkpt>
      <trkpt lat="44.67916" lon="0.86724">
        <ele>205.3787842</ele>
        <time>2010-06-06T08:51:07Z</time>
      </trkpt>
      <trkpt lat="44.67907" lon="0.86729">
        <ele>204.8980713</ele>
        <time>2010-06-06T08:51:13Z</time>
      </trkpt>
      <trkpt lat="44.67882" lon="0.86745">
        <ele>210.1854248</ele>
        <time>2010-06-06T08:51:27Z</time>
      </trkpt>
      <trkpt lat="44.67875" lon="0.86748">
        <ele>210.6660156</ele>
        <time>2010-06-06T08:51:32Z</time>
      </trkpt>
      <trkpt lat="44.67861" lon="0.86746">
        <ele>208.2628174</ele>
        <time>2010-06-06T08:51:42Z</time>
      </trkpt>
      <trkpt lat="44.67847" lon="0.8675">
        <ele>205.3787842</ele>
        <time>2010-06-06T08:51:48Z</time>
      </trkpt>
      <trkpt lat="44.67834" lon="0.86757">
        <ele>204.4174805</ele>
        <time>2010-06-06T08:51:52Z</time>
      </trkpt>
      <trkpt lat="44.67826" lon="0.86762">
        <ele>204.4174805</ele>
        <time>2010-06-06T08:51:54Z</time>
      </trkpt>
      <trkpt lat="44.67794" lon="0.86784">
        <ele>205.8594971</ele>
        <time>2010-06-06T08:52:01Z</time>
      </trkpt>
      <trkpt lat="44.67754" lon="0.86811">
        <ele>204.4174805</ele>
        <time>2010-06-06T08:52:12Z</time>
      </trkpt>
      <trkpt lat="44.67706" lon="0.86839">
        <ele>202.0142822</ele>
        <time>2010-06-06T08:52:22Z</time>
      </trkpt>
      <trkpt lat="44.67646" lon="0.86871">
        <ele>199.130127</ele>
        <time>2010-06-06T08:52:31Z</time>
      </trkpt>
      <trkpt lat="44.67627" lon="0.86881">
        <ele>198.1689453</ele>
        <time>2010-06-06T08:52:34Z</time>
      </trkpt>
      <trkpt lat="44.67605" lon="0.86896">
        <ele>196.7269287</ele>
        <time>2010-06-06T08:52:38Z</time>
      </trkpt>
      <trkpt lat="44.67583" lon="0.86909">
        <ele>193.8430176</ele>
        <time>2010-06-06T08:52:43Z</time>
      </trkpt>
      <trkpt lat="44.67564" lon="0.86909">
        <ele>190.9589844</ele>
        <time>2010-06-06T08:52:47Z</time>
      </trkpt>
      <trkpt lat="44.67532" lon="0.86864">
        <ele>185.6717529</ele>
        <time>2010-06-06T08:52:58Z</time>
      </trkpt>
      <trkpt lat="44.67509" lon="0.86831">
        <ele>182.7878418</ele>
        <time>2010-06-06T08:53:08Z</time>
      </trkpt>
      <trkpt lat="44.67488" lon="0.86797">
        <ele>182.3071289</ele>
        <time>2010-06-06T08:53:19Z</time>
      </trkpt>
      <trkpt lat="44.67487" lon="0.86795">
        <ele>182.3071289</ele>
        <time>2010-06-06T08:53:20Z</time>
      </trkpt>
      <trkpt lat="44.67484" lon="0.86788">
        <ele>182.3071289</ele>
        <time>2010-06-06T08:53:24Z</time>
      </trkpt>
      <trkpt lat="44.67474" lon="0.8677">
        <ele>181.826416</ele>
        <time>2010-06-06T08:53:34Z</time>
      </trkpt>
      <trkpt lat="44.67466" lon="0.86757">
        <ele>181.3458252</ele>
        <time>2010-06-06T08:53:41Z</time>
      </trkpt>
      <trkpt lat="44.67463" lon="0.86752">
        <ele>181.3458252</ele>
        <time>2010-06-06T08:53:43Z</time>
      </trkpt>
      <trkpt lat="44.67451" lon="0.86728">
        <ele>181.3458252</ele>
        <time>2010-06-06T08:53:52Z</time>
      </trkpt>
      <trkpt lat="44.67439" lon="0.86692">
        <ele>178.4619141</ele>
        <time>2010-06-06T08:54:05Z</time>
      </trkpt>
      <trkpt lat="44.67432" lon="0.8666">
        <ele>174.6165771</ele>
        <time>2010-06-06T08:54:15Z</time>
      </trkpt>
      <trkpt lat="44.67431" lon="0.86656">
        <ele>174.6165771</ele>
        <time>2010-06-06T08:54:16Z</time>
      </trkpt>
      <trkpt lat="44.67424" lon="0.86621">
        <ele>167.8873291</ele>
        <time>2010-06-06T08:54:26Z</time>
      </trkpt>
      <trkpt lat="44.6741" lon="0.86569">
        <ele>161.638916</ele>
        <time>2010-06-06T08:54:39Z</time>
      </trkpt>
      <trkpt lat="44.67406" lon="0.86559">
        <ele>159.7161865</ele>
        <time>2010-06-06T08:54:42Z</time>
      </trkpt>
      <trkpt lat="44.67382" lon="0.86538">
        <ele>156.8321533</ele>
        <time>2010-06-06T08:54:51Z</time>
      </trkpt>
      <trkpt lat="44.6737" lon="0.86531">
        <ele>159.2354736</ele>
        <time>2010-06-06T08:54:55Z</time>
      </trkpt>
      <trkpt lat="44.6733" lon="0.86502">
        <ele>170.7713623</ele>
        <time>2010-06-06T08:55:07Z</time>
      </trkpt>
      <trkpt lat="44.67301" lon="0.86476">
        <ele>174.1358643</ele>
        <time>2010-06-06T08:55:17Z</time>
      </trkpt>
      <trkpt lat="44.67292" lon="0.86457">
        <ele>174.1358643</ele>
        <time>2010-06-06T08:55:23Z</time>
      </trkpt>
      <trkpt lat="44.67284" lon="0.86434">
        <ele>172.6939697</ele>
        <time>2010-06-06T08:55:29Z</time>
      </trkpt>
      <trkpt lat="44.67278" lon="0.86409">
        <ele>172.2132568</ele>
        <time>2010-06-06T08:55:33Z</time>
      </trkpt>
      <trkpt lat="44.67272" lon="0.86388">
        <ele>171.732666</ele>
        <time>2010-06-06T08:55:36Z</time>
      </trkpt>
      <trkpt lat="44.67263" lon="0.86357">
        <ele>170.7713623</ele>
        <time>2010-06-06T08:55:40Z</time>
      </trkpt>
      <trkpt lat="44.67255" lon="0.86336">
        <ele>170.2906494</ele>
        <time>2010-06-06T08:55:43Z</time>
      </trkpt>
      <trkpt lat="44.67238" lon="0.8629">
        <ele>173.6552734</ele>
        <time>2010-06-06T08:55:53Z</time>
      </trkpt>
      <trkpt lat="44.67216" lon="0.86242">
        <ele>177.9812012</ele>
        <time>2010-06-06T08:56:04Z</time>
      </trkpt>
      <trkpt lat="44.67193" lon="0.86192">
        <ele>179.9038086</ele>
        <time>2010-06-06T08:56:15Z</time>
      </trkpt>
      <trkpt lat="44.67184" lon="0.86171">
        <ele>180.8652344</ele>
        <time>2010-06-06T08:56:19Z</time>
      </trkpt>
      <trkpt lat="44.67165" lon="0.86131">
        <ele>183.7490234</ele>
        <time>2010-06-06T08:56:26Z</time>
      </trkpt>
      <trkpt lat="44.6713" lon="0.86064">
        <ele>184.7105713</ele>
        <time>2010-06-06T08:56:38Z</time>
      </trkpt>
      <trkpt lat="44.67116" lon="0.86047">
        <ele>184.7105713</ele>
        <time>2010-06-06T08:56:42Z</time>
      </trkpt>
      <trkpt lat="44.67091" lon="0.86019">
        <ele>187.1137695</ele>
        <time>2010-06-06T08:56:49Z</time>
      </trkpt>
      <trkpt lat="44.67027" lon="0.85954">
        <ele>188.5557861</ele>
        <time>2010-06-06T08:57:03Z</time>
      </trkpt>
      <trkpt lat="44.67004" lon="0.85934">
        <ele>187.1137695</ele>
        <time>2010-06-06T08:57:08Z</time>
      </trkpt>
      <trkpt lat="44.66995" lon="0.85928">
        <ele>186.6331787</ele>
        <time>2010-06-06T08:57:10Z</time>
      </trkpt>
      <trkpt lat="44.66969" lon="0.85913">
        <ele>186.6331787</ele>
        <time>2010-06-06T08:57:16Z</time>
      </trkpt>
      <trkpt lat="44.66948" lon="0.85889">
        <ele>187.5943604</ele>
        <time>2010-06-06T08:57:23Z</time>
      </trkpt>
      <trkpt lat="44.6693" lon="0.85882">
        <ele>187.5943604</ele>
        <time>2010-06-06T08:57:28Z</time>
      </trkpt>
      <trkpt lat="44.66906" lon="0.85865">
        <ele>189.036377</ele>
        <time>2010-06-06T08:57:37Z</time>
      </trkpt>
      <trkpt lat="44.66898" lon="0.85852">
        <ele>189.036377</ele>
        <time>2010-06-06T08:57:45Z</time>
      </trkpt>
      <trkpt lat="44.66895" lon="0.85845">
        <ele>188.5557861</ele>
        <time>2010-06-06T08:57:48Z</time>
      </trkpt>
      <trkpt lat="44.66892" lon="0.85839">
        <ele>189.036377</ele>
        <time>2010-06-06T08:57:50Z</time>
      </trkpt>
      <trkpt lat="44.66888" lon="0.85806">
        <ele>186.6331787</ele>
        <time>2010-06-06T08:58:01Z</time>
      </trkpt>
      <trkpt lat="44.66891" lon="0.85793">
        <ele>184.7105713</ele>
        <time>2010-06-06T08:58:07Z</time>
      </trkpt>
      <trkpt lat="44.66893" lon="0.85785">
        <ele>182.7878418</ele>
        <time>2010-06-06T08:58:10Z</time>
      </trkpt>
      <trkpt lat="44.66894" lon="0.85776">
        <ele>181.3458252</ele>
        <time>2010-06-06T08:58:14Z</time>
      </trkpt>
      <trkpt lat="44.6689" lon="0.85767">
        <ele>178.942627</ele>
        <time>2010-06-06T08:58:19Z</time>
      </trkpt>
      <trkpt lat="44.66879" lon="0.85759">
        <ele>176.5393066</ele>
        <time>2010-06-06T08:58:23Z</time>
      </trkpt>
      <trkpt lat="44.66855" lon="0.8573">
        <ele>173.6552734</ele>
        <time>2010-06-06T08:58:31Z</time>
      </trkpt>
      <trkpt lat="44.66845" lon="0.85711">
        <ele>173.1746826</ele>
        <time>2010-06-06T08:58:35Z</time>
      </trkpt>
      <trkpt lat="44.66818" lon="0.85688">
        <ele>171.2520752</ele>
        <time>2010-06-06T08:58:44Z</time>
      </trkpt>
      <trkpt lat="44.66806" lon="0.85677">
        <ele>170.7713623</ele>
        <time>2010-06-06T08:58:48Z</time>
      </trkpt>
      <trkpt lat="44.66807" lon="0.85664">
        <ele>170.7713623</ele>
        <time>2010-06-06T08:58:53Z</time>
      </trkpt>
      <trkpt lat="44.66807" lon="0.85656">
        <ele>171.732666</ele>
        <time>2010-06-06T08:58:57Z</time>
      </trkpt>
      <trkpt lat="44.66801" lon="0.85648">
        <ele>173.1746826</ele>
        <time>2010-06-06T08:59:11Z</time>
      </trkpt>
      <trkpt lat="44.66797" lon="0.85634">
        <ele>174.6165771</ele>
        <time>2010-06-06T08:59:19Z</time>
      </trkpt>
      <trkpt lat="44.66784" lon="0.85617">
        <ele>174.6165771</ele>
        <time>2010-06-06T08:59:28Z</time>
      </trkpt>
      <trkpt lat="44.66782" lon="0.85601">
        <ele>174.6165771</ele>
        <time>2010-06-06T08:59:33Z</time>
      </trkpt>
      <trkpt lat="44.66797" lon="0.85584">
        <ele>175.09729</ele>
        <time>2010-06-06T08:59:42Z</time>
      </trkpt>
      <trkpt lat="44.66804" lon="0.85566">
        <ele>177.5006104</ele>
        <time>2010-06-06T08:59:48Z</time>
      </trkpt>
      <trkpt lat="44.66809" lon="0.85513">
        <ele>177.9812012</ele>
        <time>2010-06-06T09:00:00Z</time>
      </trkpt>
      <trkpt lat="44.66818" lon="0.85486">
        <ele>179.9038086</ele>
        <time>2010-06-06T09:00:07Z</time>
      </trkpt>
      <trkpt lat="44.66812" lon="0.85475">
        <ele>178.4619141</ele>
        <time>2010-06-06T09:00:11Z</time>
      </trkpt>
      <trkpt lat="44.6678" lon="0.8546">
        <ele>174.1358643</ele>
        <time>2010-06-06T09:00:21Z</time>
      </trkpt>
      <trkpt lat="44.66765" lon="0.85453">
        <ele>174.1358643</ele>
        <time>2010-06-06T09:00:25Z</time>
      </trkpt>
      <trkpt lat="44.66723" lon="0.8544">
        <ele>172.6939697</ele>
        <time>2010-06-06T09:00:33Z</time>
      </trkpt>
      <trkpt lat="44.66701" lon="0.85433">
        <ele>172.2132568</ele>
        <time>2010-06-06T09:00:37Z</time>
      </trkpt>
      <trkpt lat="44.66679" lon="0.85423">
        <ele>172.2132568</ele>
        <time>2010-06-06T09:00:42Z</time>
      </trkpt>
      <trkpt lat="44.66657" lon="0.85414">
        <ele>172.6939697</ele>
        <time>2010-06-06T09:00:47Z</time>
      </trkpt>
      <trkpt lat="44.6662" lon="0.85423">
        <ele>172.2132568</ele>
        <time>2010-06-06T09:00:56Z</time>
      </trkpt>
      <trkpt lat="44.66614" lon="0.85426">
        <ele>172.2132568</ele>
        <time>2010-06-06T09:01:06Z</time>
      </trkpt>
      <trkpt lat="44.66611" lon="0.85425">
        <ele>177.9812012</ele>
        <time>2010-06-06T09:01:37Z</time>
      </trkpt>
      <trkpt lat="44.66611" lon="0.85426">
        <ele>179.4232178</ele>
        <time>2010-06-06T09:01:47Z</time>
      </trkpt>
      <trkpt lat="44.66607" lon="0.8544">
        <ele>179.4232178</ele>
        <time>2010-06-06T09:01:54Z</time>
      </trkpt>
      <trkpt lat="44.66603" lon="0.8545">
        <ele>179.9038086</ele>
        <time>2010-06-06T09:01:59Z</time>
      </trkpt>
      <trkpt lat="44.66592" lon="0.85457">
        <ele>180.8652344</ele>
        <time>2010-06-06T09:02:04Z</time>
      </trkpt>
      <trkpt lat="44.66564" lon="0.85478">
        <ele>179.9038086</ele>
        <time>2010-06-06T09:02:15Z</time>
      </trkpt>
      <trkpt lat="44.66536" lon="0.85487">
        <ele>184.7105713</ele>
        <time>2010-06-06T09:02:24Z</time>
      </trkpt>
      <trkpt lat="44.66519" lon="0.855">
        <ele>187.5943604</ele>
        <time>2010-06-06T09:02:29Z</time>
      </trkpt>
      <trkpt lat="44.66507" lon="0.85514">
        <ele>188.0750732</ele>
        <time>2010-06-06T09:02:32Z</time>
      </trkpt>
      <trkpt lat="44.66479" lon="0.85532">
        <ele>189.5169678</ele>
        <time>2010-06-06T09:02:38Z</time>
      </trkpt>
      <trkpt lat="44.66468" lon="0.85534">
        <ele>190.4783936</ele>
        <time>2010-06-06T09:02:40Z</time>
      </trkpt>
      <trkpt lat="44.6643" lon="0.85541">
        <ele>192.401123</ele>
        <time>2010-06-06T09:02:50Z</time>
      </trkpt>
      <trkpt lat="44.66398" lon="0.85543">
        <ele>189.9976807</ele>
        <time>2010-06-06T09:03:04Z</time>
      </trkpt>
      <trkpt lat="44.66366" lon="0.85541">
        <ele>188.5557861</ele>
        <time>2010-06-06T09:03:18Z</time>
      </trkpt>
      <trkpt lat="44.66355" lon="0.85546">
        <ele>188.0750732</ele>
        <time>2010-06-06T09:03:23Z</time>
      </trkpt>
      <trkpt lat="44.66349" lon="0.85565">
        <ele>187.5943604</ele>
        <time>2010-06-06T09:03:30Z</time>
      </trkpt>
      <trkpt lat="44.66338" lon="0.85584">
        <ele>186.6331787</ele>
        <time>2010-06-06T09:03:34Z</time>
      </trkpt>
      <trkpt lat="44.66327" lon="0.85595">
        <ele>185.1911621</ele>
        <time>2010-06-06T09:03:36Z</time>
      </trkpt>
      <trkpt lat="44.66291" lon="0.85604">
        <ele>181.3458252</ele>
        <time>2010-06-06T09:03:42Z</time>
      </trkpt>
      <trkpt lat="44.66256" lon="0.85606">
        <ele>179.9038086</ele>
        <time>2010-06-06T09:03:49Z</time>
      </trkpt>
      <trkpt lat="44.66236" lon="0.85607">
        <ele>179.9038086</ele>
        <time>2010-06-06T09:03:53Z</time>
      </trkpt>
      <trkpt lat="44.66215" lon="0.85605">
        <ele>178.942627</ele>
        <time>2010-06-06T09:03:57Z</time>
      </trkpt>
      <trkpt lat="44.66189" lon="0.85588">
        <ele>177.0200195</ele>
        <time>2010-06-06T09:04:02Z</time>
      </trkpt>
      <trkpt lat="44.66156" lon="0.85573">
        <ele>174.1358643</ele>
        <time>2010-06-06T09:04:07Z</time>
      </trkpt>
      <trkpt lat="44.66143" lon="0.85567">
        <ele>173.1746826</ele>
        <time>2010-06-06T09:04:09Z</time>
      </trkpt>
      <trkpt lat="44.66128" lon="0.85561">
        <ele>172.2132568</ele>
        <time>2010-06-06T09:04:11Z</time>
      </trkpt>
      <trkpt lat="44.66114" lon="0.85558">
        <ele>171.2520752</ele>
        <time>2010-06-06T09:04:13Z</time>
      </trkpt>
      <trkpt lat="44.66068" lon="0.8557">
        <ele>168.8487549</ele>
        <time>2010-06-06T09:04:21Z</time>
      </trkpt>
      <trkpt lat="44.66064" lon="0.85574">
        <ele>168.8487549</ele>
        <time>2010-06-06T09:04:22Z</time>
      </trkpt>
      <trkpt lat="44.66015" lon="0.85598">
        <ele>169.8100586</ele>
        <time>2010-06-06T09:04:31Z</time>
      </trkpt>
      <trkpt lat="44.65995" lon="0.85604">
        <ele>170.2906494</ele>
        <time>2010-06-06T09:04:35Z</time>
      </trkpt>
      <trkpt lat="44.65986" lon="0.85607">
        <ele>169.8100586</ele>
        <time>2010-06-06T09:04:37Z</time>
      </trkpt>
      <trkpt lat="44.6598" lon="0.85624">
        <ele>169.8100586</ele>
        <time>2010-06-06T09:04:41Z</time>
      </trkpt>
      <trkpt lat="44.65986" lon="0.85679">
        <ele>166.9260254</ele>
        <time>2010-06-06T09:04:48Z</time>
      </trkpt>
      <trkpt lat="44.65982" lon="0.8573">
        <ele>163.5615234</ele>
        <time>2010-06-06T09:04:54Z</time>
      </trkpt>
      <trkpt lat="44.65992" lon="0.85759">
        <ele>158.7547607</ele>
        <time>2010-06-06T09:05:01Z</time>
      </trkpt>
      <trkpt lat="44.65976" lon="0.85772">
        <ele>154.9095459</ele>
        <time>2010-06-06T09:05:06Z</time>
      </trkpt>
      <trkpt lat="44.65972" lon="0.85771">
        <ele>153.9483643</ele>
        <time>2010-06-06T09:05:07Z</time>
      </trkpt>
      <trkpt lat="44.65962" lon="0.85768">
        <ele>152.0257568</ele>
        <time>2010-06-06T09:05:09Z</time>
      </trkpt>
      <trkpt lat="44.65937" lon="0.85773">
        <ele>147.699707</ele>
        <time>2010-06-06T09:05:13Z</time>
      </trkpt>
      <trkpt lat="44.65894" lon="0.85783">
        <ele>140.4898682</ele>
        <time>2010-06-06T09:05:19Z</time>
      </trkpt>
      <trkpt lat="44.65859" lon="0.85792">
        <ele>133.2799072</ele>
        <time>2010-06-06T09:05:24Z</time>
      </trkpt>
      <trkpt lat="44.65807" lon="0.85815">
        <ele>125.1087646</ele>
        <time>2010-06-06T09:05:32Z</time>
      </trkpt>
      <trkpt lat="44.65788" lon="0.8583">
        <ele>124.1473389</ele>
        <time>2010-06-06T09:05:35Z</time>
      </trkpt>
      <trkpt lat="44.65779" lon="0.85842">
        <ele>123.666748</ele>
        <time>2010-06-06T09:05:37Z</time>
      </trkpt>
      <trkpt lat="44.65769" lon="0.8586">
        <ele>123.1861572</ele>
        <time>2010-06-06T09:05:40Z</time>
      </trkpt>
      <trkpt lat="44.65712" lon="0.85902">
        <ele>122.7054443</ele>
        <time>2010-06-06T09:05:48Z</time>
      </trkpt>
      <trkpt lat="44.65696" lon="0.8591">
        <ele>119.3408203</ele>
        <time>2010-06-06T09:05:51Z</time>
      </trkpt>
      <trkpt lat="44.65672" lon="0.85857">
        <ele>115.4956055</ele>
        <time>2010-06-06T09:06:03Z</time>
      </trkpt>
      <trkpt lat="44.65666" lon="0.85837">
        <ele>115.4956055</ele>
        <time>2010-06-06T09:06:07Z</time>
      </trkpt>
      <trkpt lat="44.65656" lon="0.85805">
        <ele>112.6115723</ele>
        <time>2010-06-06T09:06:13Z</time>
      </trkpt>
      <trkpt lat="44.65642" lon="0.85762">
        <ele>111.1695557</ele>
        <time>2010-06-06T09:06:22Z</time>
      </trkpt>
      <trkpt lat="44.65631" lon="0.85761">
        <ele>112.1309814</ele>
        <time>2010-06-06T09:06:26Z</time>
      </trkpt>
      <trkpt lat="44.65603" lon="0.85805">
        <ele>117.4182129</ele>
        <time>2010-06-06T09:06:37Z</time>
      </trkpt>
      <trkpt lat="44.65594" lon="0.8582">
        <ele>117.8988037</ele>
        <time>2010-06-06T09:06:40Z</time>
      </trkpt>
      <trkpt lat="44.65557" lon="0.8587">
        <ele>121.7441406</ele>
        <time>2010-06-06T09:06:53Z</time>
      </trkpt>
      <trkpt lat="44.65529" lon="0.85902">
        <ele>124.1473389</ele>
        <time>2010-06-06T09:07:03Z</time>
      </trkpt>
      <trkpt lat="44.65505" lon="0.85932">
        <ele>128.4733887</ele>
        <time>2010-06-06T09:07:15Z</time>
      </trkpt>
      <trkpt lat="44.65502" lon="0.85938">
        <ele>133.2799072</ele>
        <time>2010-06-06T09:07:39Z</time>
      </trkpt>
      <trkpt lat="44.65502" lon="0.8594">
        <ele>133.760498</ele>
        <time>2010-06-06T09:07:53Z</time>
      </trkpt>
      <trkpt lat="44.65502" lon="0.85939">
        <ele>133.2799072</ele>
        <time>2010-06-06T09:08:32Z</time>
      </trkpt>
      <trkpt lat="44.65504" lon="0.85942">
        <ele>133.760498</ele>
        <time>2010-06-06T09:08:36Z</time>
      </trkpt>
      <trkpt lat="44.65519" lon="0.85975">
        <ele>133.760498</ele>
        <time>2010-06-06T09:08:49Z</time>
      </trkpt>
      <trkpt lat="44.65525" lon="0.85989">
        <ele>133.2799072</ele>
        <time>2010-06-06T09:08:52Z</time>
      </trkpt>
      <trkpt lat="44.65533" lon="0.86009">
        <ele>132.3186035</ele>
        <time>2010-06-06T09:08:56Z</time>
      </trkpt>
      <trkpt lat="44.65543" lon="0.86029">
        <ele>131.3572998</ele>
        <time>2010-06-06T09:09:00Z</time>
      </trkpt>
      <trkpt lat="44.65582" lon="0.86117">
        <ele>131.8378906</ele>
        <time>2010-06-06T09:09:17Z</time>
      </trkpt>
      <trkpt lat="44.65597" lon="0.86146">
        <ele>131.8378906</ele>
        <time>2010-06-06T09:09:23Z</time>
      </trkpt>
      <trkpt lat="44.65591" lon="0.86169">
        <ele>133.760498</ele>
        <time>2010-06-06T09:09:30Z</time>
      </trkpt>
      <trkpt lat="44.65587" lon="0.86172">
        <ele>134.7219238</ele>
        <time>2010-06-06T09:09:33Z</time>
      </trkpt>
      <trkpt lat="44.65576" lon="0.86183">
        <ele>136.1639404</ele>
        <time>2010-06-06T09:09:43Z</time>
      </trkpt>
      <trkpt lat="44.65572" lon="0.86187">
        <ele>136.1639404</ele>
        <time>2010-06-06T09:09:47Z</time>
      </trkpt>
      <trkpt lat="44.65558" lon="0.86203">
        <ele>138.0865479</ele>
        <time>2010-06-06T09:10:01Z</time>
      </trkpt>
      <trkpt lat="44.65554" lon="0.86221">
        <ele>137.1252441</ele>
        <time>2010-06-06T09:10:12Z</time>
      </trkpt>
      <trkpt lat="44.65551" lon="0.86235">
        <ele>136.6446533</ele>
        <time>2010-06-06T09:10:22Z</time>
      </trkpt>
      <trkpt lat="44.65548" lon="0.8625">
        <ele>137.605835</ele>
        <time>2010-06-06T09:10:30Z</time>
      </trkpt>
      <trkpt lat="44.65538" lon="0.8625">
        <ele>136.6446533</ele>
        <time>2010-06-06T09:10:38Z</time>
      </trkpt>
      <trkpt lat="44.65518" lon="0.86259">
        <ele>135.2025146</ele>
        <time>2010-06-06T09:10:45Z</time>
      </trkpt>
      <trkpt lat="44.65509" lon="0.86286">
        <ele>135.6831055</ele>
        <time>2010-06-06T09:10:58Z</time>
      </trkpt>
      <trkpt lat="44.65505" lon="0.86299">
        <ele>133.2799072</ele>
        <time>2010-06-06T09:11:07Z</time>
      </trkpt>
      <trkpt lat="44.65502" lon="0.86312">
        <ele>132.7993164</ele>
        <time>2010-06-06T09:11:12Z</time>
      </trkpt>
      <trkpt lat="44.6549" lon="0.86353">
        <ele>134.7219238</ele>
        <time>2010-06-06T09:11:27Z</time>
      </trkpt>
      <trkpt lat="44.65489" lon="0.86381">
        <ele>137.1252441</ele>
        <time>2010-06-06T09:11:36Z</time>
      </trkpt>
      <trkpt lat="44.6549" lon="0.864">
        <ele>140.0091553</ele>
        <time>2010-06-06T09:11:41Z</time>
      </trkpt>
      <trkpt lat="44.65491" lon="0.86438">
        <ele>149.1416016</ele>
        <time>2010-06-06T09:11:52Z</time>
      </trkpt>
      <trkpt lat="44.65491" lon="0.8648">
        <ele>156.3515625</ele>
        <time>2010-06-06T09:12:03Z</time>
      </trkpt>
      <trkpt lat="44.65492" lon="0.86513">
        <ele>159.2354736</ele>
        <time>2010-06-06T09:12:12Z</time>
      </trkpt>
      <trkpt lat="44.65496" lon="0.86548">
        <ele>161.638916</ele>
        <time>2010-06-06T09:12:24Z</time>
      </trkpt>
      <trkpt lat="44.65496" lon="0.86576">
        <ele>166.9260254</ele>
        <time>2010-06-06T09:12:35Z</time>
      </trkpt>
      <trkpt lat="44.65494" lon="0.86589">
        <ele>170.2906494</ele>
        <time>2010-06-06T09:12:41Z</time>
      </trkpt>
      <trkpt lat="44.65489" lon="0.86609">
        <ele>174.6165771</ele>
        <time>2010-06-06T09:12:50Z</time>
      </trkpt>
      <trkpt lat="44.65487" lon="0.86617">
        <ele>175.5778809</ele>
        <time>2010-06-06T09:12:54Z</time>
      </trkpt>
      <trkpt lat="44.65481" lon="0.86643">
        <ele>177.9812012</ele>
        <time>2010-06-06T09:13:07Z</time>
      </trkpt>
      <trkpt lat="44.65479" lon="0.86649">
        <ele>178.4619141</ele>
        <time>2010-06-06T09:13:10Z</time>
      </trkpt>
      <trkpt lat="44.65475" lon="0.86659">
        <ele>178.942627</ele>
        <time>2010-06-06T09:13:16Z</time>
      </trkpt>
      <trkpt lat="44.65473" lon="0.8667">
        <ele>178.942627</ele>
        <time>2010-06-06T09:13:22Z</time>
      </trkpt>
      <trkpt lat="44.65465" lon="0.86688">
        <ele>174.6165771</ele>
        <time>2010-06-06T09:13:32Z</time>
      </trkpt>
      <trkpt lat="44.65463" lon="0.86695">
        <ele>172.6939697</ele>
        <time>2010-06-06T09:13:37Z</time>
      </trkpt>
      <trkpt lat="44.65454" lon="0.86715">
        <ele>169.3294678</ele>
        <time>2010-06-06T09:13:50Z</time>
      </trkpt>
      <trkpt lat="44.65446" lon="0.86736">
        <ele>168.8487549</ele>
        <time>2010-06-06T09:14:01Z</time>
      </trkpt>
      <trkpt lat="44.65442" lon="0.86749">
        <ele>171.2520752</ele>
        <time>2010-06-06T09:14:08Z</time>
      </trkpt>
      <trkpt lat="44.65439" lon="0.86769">
        <ele>172.2132568</ele>
        <time>2010-06-06T09:14:18Z</time>
      </trkpt>
      <trkpt lat="44.65436" lon="0.86787">
        <ele>173.6552734</ele>
        <time>2010-06-06T09:14:28Z</time>
      </trkpt>
      <trkpt lat="44.65433" lon="0.86808">
        <ele>174.6165771</ele>
        <time>2010-06-06T09:14:41Z</time>
      </trkpt>
      <trkpt lat="44.6543" lon="0.86822">
        <ele>176.0585938</ele>
        <time>2010-06-06T09:14:51Z</time>
      </trkpt>
      <trkpt lat="44.6543" lon="0.86829">
        <ele>177.0200195</ele>
        <time>2010-06-06T09:14:55Z</time>
      </trkpt>
      <trkpt lat="44.65431" lon="0.8685">
        <ele>178.4619141</ele>
        <time>2010-06-06T09:15:08Z</time>
      </trkpt>
      <trkpt lat="44.65437" lon="0.86872">
        <ele>178.4619141</ele>
        <time>2010-06-06T09:15:21Z</time>
      </trkpt>
      <trkpt lat="44.65439" lon="0.8688">
        <ele>179.4232178</ele>
        <time>2010-06-06T09:15:27Z</time>
      </trkpt>
      <trkpt lat="44.65443" lon="0.86883">
        <ele>180.3845215</ele>
        <time>2010-06-06T09:15:31Z</time>
      </trkpt>
      <trkpt lat="44.65447" lon="0.86896">
        <ele>183.7490234</ele>
        <time>2010-06-06T09:15:41Z</time>
      </trkpt>
      <trkpt lat="44.65448" lon="0.86918">
        <ele>188.5557861</ele>
        <time>2010-06-06T09:15:55Z</time>
      </trkpt>
      <trkpt lat="44.65453" lon="0.86938">
        <ele>190.4783936</ele>
        <time>2010-06-06T09:16:07Z</time>
      </trkpt>
      <trkpt lat="44.65451" lon="0.86955">
        <ele>190.9589844</ele>
        <time>2010-06-06T09:16:18Z</time>
      </trkpt>
      <trkpt lat="44.6545" lon="0.86965">
        <ele>194.3237305</ele>
        <time>2010-06-06T09:16:36Z</time>
      </trkpt>
      <trkpt lat="44.65451" lon="0.86982">
        <ele>191.9202881</ele>
        <time>2010-06-06T09:17:51Z</time>
      </trkpt>
      <trkpt lat="44.65463" lon="0.87003">
        <ele>193.8430176</ele>
        <time>2010-06-06T09:17:56Z</time>
      </trkpt>
      <trkpt lat="44.65462" lon="0.87029">
        <ele>194.8043213</ele>
        <time>2010-06-06T09:18:01Z</time>
      </trkpt>
      <trkpt lat="44.65456" lon="0.87036">
        <ele>194.8043213</ele>
        <time>2010-06-06T09:18:03Z</time>
      </trkpt>
      <trkpt lat="44.65416" lon="0.87048">
        <ele>192.8817139</ele>
        <time>2010-06-06T09:18:10Z</time>
      </trkpt>
      <trkpt lat="44.65383" lon="0.87033">
        <ele>187.5943604</ele>
        <time>2010-06-06T09:18:16Z</time>
      </trkpt>
      <trkpt lat="44.65376" lon="0.87028">
        <ele>185.6717529</ele>
        <time>2010-06-06T09:18:18Z</time>
      </trkpt>
      <trkpt lat="44.6534" lon="0.86996">
        <ele>168.8487549</ele>
        <time>2010-06-06T09:18:29Z</time>
      </trkpt>
      <trkpt lat="44.65323" lon="0.86975">
        <ele>157.3128662</ele>
        <time>2010-06-06T09:18:38Z</time>
      </trkpt>
      <trkpt lat="44.65317" lon="0.8697">
        <ele>153.4676514</ele>
        <time>2010-06-06T09:18:42Z</time>
      </trkpt>
      <trkpt lat="44.65309" lon="0.86974">
        <ele>148.6610107</ele>
        <time>2010-06-06T09:18:46Z</time>
      </trkpt>
      <trkpt lat="44.65297" lon="0.86979">
        <ele>142.8930664</ele>
        <time>2010-06-06T09:18:51Z</time>
      </trkpt>
      <trkpt lat="44.65285" lon="0.8699">
        <ele>138.5672607</ele>
        <time>2010-06-06T09:18:55Z</time>
      </trkpt>
      <trkpt lat="44.65256" lon="0.87014">
        <ele>128.4733887</ele>
        <time>2010-06-06T09:19:07Z</time>
      </trkpt>
      <trkpt lat="44.65244" lon="0.87024">
        <ele>128.9541016</ele>
        <time>2010-06-06T09:19:13Z</time>
      </trkpt>
      <trkpt lat="44.65236" lon="0.87033">
        <ele>129.9152832</ele>
        <time>2010-06-06T09:19:18Z</time>
      </trkpt>
      <trkpt lat="44.65217" lon="0.87045">
        <ele>131.3572998</ele>
        <time>2010-06-06T09:19:26Z</time>
      </trkpt>
      <trkpt lat="44.65186" lon="0.8707">
        <ele>131.3572998</ele>
        <time>2010-06-06T09:19:37Z</time>
      </trkpt>
      <trkpt lat="44.65155" lon="0.87095">
        <ele>131.3572998</ele>
        <time>2010-06-06T09:19:47Z</time>
      </trkpt>
      <trkpt lat="44.6512" lon="0.87125">
        <ele>127.5119629</ele>
        <time>2010-06-06T09:19:59Z</time>
      </trkpt>
      <trkpt lat="44.65098" lon="0.87153">
        <ele>121.7441406</ele>
        <time>2010-06-06T09:20:08Z</time>
      </trkpt>
      <trkpt lat="44.6509" lon="0.87164">
        <ele>120.302124</ele>
        <time>2010-06-06T09:20:12Z</time>
      </trkpt>
      <trkpt lat="44.65075" lon="0.87204">
        <ele>118.8601074</ele>
        <time>2010-06-06T09:20:22Z</time>
      </trkpt>
      <trkpt lat="44.65062" lon="0.87251">
        <ele>122.7054443</ele>
        <time>2010-06-06T09:20:33Z</time>
      </trkpt>
      <trkpt lat="44.65061" lon="0.87258">
        <ele>123.666748</ele>
        <time>2010-06-06T09:20:35Z</time>
      </trkpt>
      <trkpt lat="44.65051" lon="0.87283">
        <ele>129.9152832</ele>
        <time>2010-06-06T09:20:44Z</time>
      </trkpt>
      <trkpt lat="44.65041" lon="0.87304">
        <ele>134.7219238</ele>
        <time>2010-06-06T09:20:56Z</time>
      </trkpt>
      <trkpt lat="44.65028" lon="0.87328">
        <ele>136.1639404</ele>
        <time>2010-06-06T09:21:10Z</time>
      </trkpt>
      <trkpt lat="44.6501" lon="0.87356">
        <ele>136.6446533</ele>
        <time>2010-06-06T09:21:20Z</time>
      </trkpt>
      <trkpt lat="44.64994" lon="0.87381">
        <ele>135.6831055</ele>
        <time>2010-06-06T09:21:27Z</time>
      </trkpt>
      <trkpt lat="44.64978" lon="0.87385">
        <ele>132.3186035</ele>
        <time>2010-06-06T09:21:33Z</time>
      </trkpt>
      <trkpt lat="44.6497" lon="0.87384">
        <ele>134.7219238</ele>
        <time>2010-06-06T09:21:37Z</time>
      </trkpt>
      <trkpt lat="44.64965" lon="0.87382">
        <ele>135.6831055</ele>
        <time>2010-06-06T09:21:39Z</time>
      </trkpt>
      <trkpt lat="44.64938" lon="0.87393">
        <ele>141.4510498</ele>
        <time>2010-06-06T09:21:52Z</time>
      </trkpt>
      <trkpt lat="44.64936" lon="0.87395">
        <ele>142.4124756</ele>
        <time>2010-06-06T09:21:53Z</time>
      </trkpt>
      <trkpt lat="44.64922" lon="0.8741">
        <ele>147.699707</ele>
        <time>2010-06-06T09:22:00Z</time>
      </trkpt>
      <trkpt lat="44.64919" lon="0.87423">
        <ele>149.6223145</ele>
        <time>2010-06-06T09:22:06Z</time>
      </trkpt>
      <trkpt lat="44.64917" lon="0.87443">
        <ele>151.5449219</ele>
        <time>2010-06-06T09:22:20Z</time>
      </trkpt>
      <trkpt lat="44.64919" lon="0.8746">
        <ele>155.8709717</ele>
        <time>2010-06-06T09:22:30Z</time>
      </trkpt>
      <trkpt lat="44.64919" lon="0.87469">
        <ele>157.3128662</ele>
        <time>2010-06-06T09:22:35Z</time>
      </trkpt>
      <trkpt lat="44.64919" lon="0.8748">
        <ele>159.7161865</ele>
        <time>2010-06-06T09:22:41Z</time>
      </trkpt>
      <trkpt lat="44.6492" lon="0.87497">
        <ele>162.1195068</ele>
        <time>2010-06-06T09:22:50Z</time>
      </trkpt>
      <trkpt lat="44.64925" lon="0.87511">
        <ele>165.003418</ele>
        <time>2010-06-06T09:22:55Z</time>
      </trkpt>
      <trkpt lat="44.64929" lon="0.87533">
        <ele>167.8873291</ele>
        <time>2010-06-06T09:23:01Z</time>
      </trkpt>
      <trkpt lat="44.64928" lon="0.87541">
        <ele>169.8100586</ele>
        <time>2010-06-06T09:23:04Z</time>
      </trkpt>
      <trkpt lat="44.64925" lon="0.87554">
        <ele>173.1746826</ele>
        <time>2010-06-06T09:23:11Z</time>
      </trkpt>
      <trkpt lat="44.64923" lon="0.87572">
        <ele>177.0200195</ele>
        <time>2010-06-06T09:23:20Z</time>
      </trkpt>
      <trkpt lat="44.64919" lon="0.87595">
        <ele>178.4619141</ele>
        <time>2010-06-06T09:23:31Z</time>
      </trkpt>
      <trkpt lat="44.64913" lon="0.87605">
        <ele>177.5006104</ele>
        <time>2010-06-06T09:23:38Z</time>
      </trkpt>
      <trkpt lat="44.64905" lon="0.87627">
        <ele>177.5006104</ele>
        <time>2010-06-06T09:23:50Z</time>
      </trkpt>
      <trkpt lat="44.64901" lon="0.87635">
        <ele>177.0200195</ele>
        <time>2010-06-06T09:23:54Z</time>
      </trkpt>
      <trkpt lat="44.64893" lon="0.87647">
        <ele>177.5006104</ele>
        <time>2010-06-06T09:24:02Z</time>
      </trkpt>
      <trkpt lat="44.64884" lon="0.87655">
        <ele>177.9812012</ele>
        <time>2010-06-06T09:24:12Z</time>
      </trkpt>
      <trkpt lat="44.64871" lon="0.87654">
        <ele>179.4232178</ele>
        <time>2010-06-06T09:24:26Z</time>
      </trkpt>
      <trkpt lat="44.6487" lon="0.87653">
        <ele>179.9038086</ele>
        <time>2010-06-06T09:24:28Z</time>
      </trkpt>
      <trkpt lat="44.64858" lon="0.87645">
        <ele>182.3071289</ele>
        <time>2010-06-06T09:24:42Z</time>
      </trkpt>
      <trkpt lat="44.64846" lon="0.87635">
        <ele>185.6717529</ele>
        <time>2010-06-06T09:24:57Z</time>
      </trkpt>
      <trkpt lat="44.64835" lon="0.87628">
        <ele>186.1524658</ele>
        <time>2010-06-06T09:25:09Z</time>
      </trkpt>
      <trkpt lat="44.64829" lon="0.87625">
        <ele>187.1137695</ele>
        <time>2010-06-06T09:25:15Z</time>
      </trkpt>
      <trkpt lat="44.64824" lon="0.87624">
        <ele>187.1137695</ele>
        <time>2010-06-06T09:25:19Z</time>
      </trkpt>
      <trkpt lat="44.64817" lon="0.87625">
        <ele>187.1137695</ele>
        <time>2010-06-06T09:25:25Z</time>
      </trkpt>
      <trkpt lat="44.64814" lon="0.87626">
        <ele>187.5943604</ele>
        <time>2010-06-06T09:25:27Z</time>
      </trkpt>
      <trkpt lat="44.648" lon="0.87628">
        <ele>189.5169678</ele>
        <time>2010-06-06T09:25:39Z</time>
      </trkpt>
      <trkpt lat="44.64784" lon="0.87631">
        <ele>189.5169678</ele>
        <time>2010-06-06T09:25:52Z</time>
      </trkpt>
      <trkpt lat="44.6477" lon="0.87634">
        <ele>189.5169678</ele>
        <time>2010-06-06T09:26:03Z</time>
      </trkpt>
      <trkpt lat="44.64756" lon="0.87641">
        <ele>190.9589844</ele>
        <time>2010-06-06T09:26:15Z</time>
      </trkpt>
      <trkpt lat="44.64738" lon="0.87651">
        <ele>193.3623047</ele>
        <time>2010-06-06T09:26:28Z</time>
      </trkpt>
      <trkpt lat="44.64719" lon="0.87659">
        <ele>196.2463379</ele>
        <time>2010-06-06T09:26:43Z</time>
      </trkpt>
      <trkpt lat="44.64706" lon="0.87663">
        <ele>197.2075195</ele>
        <time>2010-06-06T09:26:54Z</time>
      </trkpt>
      <trkpt lat="44.647" lon="0.87662">
        <ele>197.2075195</ele>
        <time>2010-06-06T09:27:06Z</time>
      </trkpt>
      <trkpt lat="44.64699" lon="0.87663">
        <ele>193.8430176</ele>
        <time>2010-06-06T09:27:46Z</time>
      </trkpt>
      <trkpt lat="44.647" lon="0.87665">
        <ele>191.9202881</ele>
        <time>2010-06-06T09:29:40Z</time>
      </trkpt>
      <trkpt lat="44.647" lon="0.87664">
        <ele>192.401123</ele>
        <time>2010-06-06T09:29:54Z</time>
      </trkpt>
      <trkpt lat="44.647" lon="0.87663">
        <ele>193.8430176</ele>
        <time>2010-06-06T09:30:54Z</time>
      </trkpt>
      <trkpt lat="44.64699" lon="0.87662">
        <ele>194.3237305</ele>
        <time>2010-06-06T09:31:10Z</time>
      </trkpt>
      <trkpt lat="44.6469" lon="0.8765">
        <ele>193.3623047</ele>
        <time>2010-06-06T09:31:20Z</time>
      </trkpt>
      <trkpt lat="44.64684" lon="0.87652">
        <ele>192.8817139</ele>
        <time>2010-06-06T09:31:23Z</time>
      </trkpt>
      <trkpt lat="44.64656" lon="0.87667">
        <ele>191.4395752</ele>
        <time>2010-06-06T09:31:35Z</time>
      </trkpt>
      <trkpt lat="44.64622" lon="0.87688">
        <ele>191.4395752</ele>
        <time>2010-06-06T09:31:48Z</time>
      </trkpt>
      <trkpt lat="44.646" lon="0.8771">
        <ele>191.4395752</ele>
        <time>2010-06-06T09:31:58Z</time>
      </trkpt>
      <trkpt lat="44.64596" lon="0.87721">
        <ele>192.8817139</ele>
        <time>2010-06-06T09:32:02Z</time>
      </trkpt>
      <trkpt lat="44.64576" lon="0.87738">
        <ele>193.3623047</ele>
        <time>2010-06-06T09:32:08Z</time>
      </trkpt>
      <trkpt lat="44.64522" lon="0.87762">
        <ele>190.9589844</ele>
        <time>2010-06-06T09:32:17Z</time>
      </trkpt>
      <trkpt lat="44.645" lon="0.87793">
        <ele>189.9976807</ele>
        <time>2010-06-06T09:32:24Z</time>
      </trkpt>
      <trkpt lat="44.64497" lon="0.87813">
        <ele>189.5169678</ele>
        <time>2010-06-06T09:32:27Z</time>
      </trkpt>
      <trkpt lat="44.64493" lon="0.87845">
        <ele>189.036377</ele>
        <time>2010-06-06T09:32:32Z</time>
      </trkpt>
      <trkpt lat="44.6449" lon="0.87855">
        <ele>188.5557861</ele>
        <time>2010-06-06T09:32:34Z</time>
      </trkpt>
      <trkpt lat="44.64487" lon="0.87867">
        <ele>188.0750732</ele>
        <time>2010-06-06T09:32:36Z</time>
      </trkpt>
      <trkpt lat="44.6447" lon="0.87903">
        <ele>186.6331787</ele>
        <time>2010-06-06T09:32:41Z</time>
      </trkpt>
      <trkpt lat="44.64433" lon="0.8792">
        <ele>184.7105713</ele>
        <time>2010-06-06T09:32:51Z</time>
      </trkpt>
      <trkpt lat="44.64412" lon="0.87933">
        <ele>180.8652344</ele>
        <time>2010-06-06T09:32:59Z</time>
      </trkpt>
      <trkpt lat="44.64405" lon="0.8794">
        <ele>179.9038086</ele>
        <time>2010-06-06T09:33:03Z</time>
      </trkpt>
      <trkpt lat="44.64384" lon="0.87947">
        <ele>178.4619141</ele>
        <time>2010-06-06T09:33:13Z</time>
      </trkpt>
      <trkpt lat="44.64353" lon="0.87946">
        <ele>177.5006104</ele>
        <time>2010-06-06T09:33:23Z</time>
      </trkpt>
      <trkpt lat="44.64334" lon="0.8795">
        <ele>174.1358643</ele>
        <time>2010-06-06T09:33:32Z</time>
      </trkpt>
      <trkpt lat="44.6433" lon="0.8795">
        <ele>173.1746826</ele>
        <time>2010-06-06T09:33:34Z</time>
      </trkpt>
      <trkpt lat="44.64307" lon="0.87957">
        <ele>170.7713623</ele>
        <time>2010-06-06T09:33:45Z</time>
      </trkpt>
      <trkpt lat="44.64283" lon="0.8797">
        <ele>169.8100586</ele>
        <time>2010-06-06T09:33:58Z</time>
      </trkpt>
      <trkpt lat="44.64267" lon="0.87978">
        <ele>169.8100586</ele>
        <time>2010-06-06T09:34:07Z</time>
      </trkpt>
      <trkpt lat="44.64253" lon="0.87986">
        <ele>169.8100586</ele>
        <time>2010-06-06T09:34:15Z</time>
      </trkpt>
      <trkpt lat="44.64246" lon="0.8799">
        <ele>166.9260254</ele>
        <time>2010-06-06T09:34:20Z</time>
      </trkpt>
      <trkpt lat="44.64227" lon="0.88007">
        <ele>162.1195068</ele>
        <time>2010-06-06T09:34:30Z</time>
      </trkpt>
      <trkpt lat="44.64214" lon="0.88022">
        <ele>160.6774902</ele>
        <time>2010-06-06T09:34:36Z</time>
      </trkpt>
      <trkpt lat="44.6421" lon="0.88026">
        <ele>160.1968994</ele>
        <time>2010-06-06T09:34:38Z</time>
      </trkpt>
      <trkpt lat="44.64201" lon="0.88038">
        <ele>158.7547607</ele>
        <time>2010-06-06T09:34:45Z</time>
      </trkpt>
      <trkpt lat="44.64169" lon="0.88047">
        <ele>165.9647217</ele>
        <time>2010-06-06T09:34:55Z</time>
      </trkpt>
      <trkpt lat="44.6415" lon="0.8805">
        <ele>175.09729</ele>
        <time>2010-06-06T09:35:04Z</time>
      </trkpt>
      <trkpt lat="44.64122" lon="0.88074">
        <ele>180.3845215</ele>
        <time>2010-06-06T09:35:20Z</time>
      </trkpt>
      <trkpt lat="44.64097" lon="0.88096">
        <ele>186.1524658</ele>
        <time>2010-06-06T09:35:30Z</time>
      </trkpt>
      <trkpt lat="44.64089" lon="0.88097">
        <ele>186.6331787</ele>
        <time>2010-06-06T09:35:33Z</time>
      </trkpt>
      <trkpt lat="44.6408" lon="0.88114">
        <ele>188.5557861</ele>
        <time>2010-06-06T09:35:39Z</time>
      </trkpt>
      <trkpt lat="44.64074" lon="0.88134">
        <ele>188.5557861</ele>
        <time>2010-06-06T09:35:45Z</time>
      </trkpt>
      <trkpt lat="44.64069" lon="0.8813">
        <ele>188.5557861</ele>
        <time>2010-06-06T09:35:50Z</time>
      </trkpt>
      <trkpt lat="44.64068" lon="0.88124">
        <ele>188.5557861</ele>
        <time>2010-06-06T09:35:52Z</time>
      </trkpt>
      <trkpt lat="44.64067" lon="0.88114">
        <ele>188.5557861</ele>
        <time>2010-06-06T09:35:56Z</time>
      </trkpt>
      <trkpt lat="44.64066" lon="0.88068">
        <ele>190.4783936</ele>
        <time>2010-06-06T09:36:14Z</time>
      </trkpt>
      <trkpt lat="44.64066" lon="0.88049">
        <ele>191.9202881</ele>
        <time>2010-06-06T09:36:22Z</time>
      </trkpt>
      <trkpt lat="44.64064" lon="0.88039">
        <ele>192.8817139</ele>
        <time>2010-06-06T09:36:27Z</time>
      </trkpt>
      <trkpt lat="44.64049" lon="0.87998">
        <ele>191.9202881</ele>
        <time>2010-06-06T09:36:41Z</time>
      </trkpt>
      <trkpt lat="44.64047" lon="0.87993">
        <ele>191.9202881</ele>
        <time>2010-06-06T09:36:42Z</time>
      </trkpt>
      <trkpt lat="44.64016" lon="0.87911">
        <ele>188.5557861</ele>
        <time>2010-06-06T09:36:55Z</time>
      </trkpt>
      <trkpt lat="44.64014" lon="0.87905">
        <ele>188.5557861</ele>
        <time>2010-06-06T09:36:56Z</time>
      </trkpt>
      <trkpt lat="44.63992" lon="0.87847">
        <ele>187.5943604</ele>
        <time>2010-06-06T09:37:09Z</time>
      </trkpt>
      <trkpt lat="44.63976" lon="0.87808">
        <ele>187.1137695</ele>
        <time>2010-06-06T09:37:18Z</time>
      </trkpt>
      <trkpt lat="44.63946" lon="0.87745">
        <ele>185.1911621</ele>
        <time>2010-06-06T09:37:28Z</time>
      </trkpt>
      <trkpt lat="44.63938" lon="0.87733">
        <ele>184.7105713</ele>
        <time>2010-06-06T09:37:30Z</time>
      </trkpt>
      <trkpt lat="44.63918" lon="0.87707">
        <ele>183.7490234</ele>
        <time>2010-06-06T09:37:35Z</time>
      </trkpt>
      <trkpt lat="44.63903" lon="0.87676">
        <ele>182.7878418</ele>
        <time>2010-06-06T09:37:40Z</time>
      </trkpt>
      <trkpt lat="44.63895" lon="0.87651">
        <ele>183.2684326</ele>
        <time>2010-06-06T09:37:44Z</time>
      </trkpt>
      <trkpt lat="44.63884" lon="0.87613">
        <ele>183.7490234</ele>
        <time>2010-06-06T09:37:50Z</time>
      </trkpt>
      <trkpt lat="44.63882" lon="0.87601">
        <ele>183.7490234</ele>
        <time>2010-06-06T09:37:52Z</time>
      </trkpt>
      <trkpt lat="44.63877" lon="0.87525">
        <ele>184.7105713</ele>
        <time>2010-06-06T09:38:06Z</time>
      </trkpt>
      <trkpt lat="44.63874" lon="0.8747">
        <ele>185.6717529</ele>
        <time>2010-06-06T09:38:18Z</time>
      </trkpt>
      <trkpt lat="44.63872" lon="0.87455">
        <ele>186.6331787</ele>
        <time>2010-06-06T09:38:22Z</time>
      </trkpt>
      <trkpt lat="44.63872" lon="0.87393">
        <ele>187.5943604</ele>
        <time>2010-06-06T09:38:38Z</time>
      </trkpt>
      <trkpt lat="44.63877" lon="0.8735">
        <ele>185.6717529</ele>
        <time>2010-06-06T09:38:50Z</time>
      </trkpt>
      <trkpt lat="44.63894" lon="0.87304">
        <ele>183.7490234</ele>
        <time>2010-06-06T09:39:02Z</time>
      </trkpt>
      <trkpt lat="44.63918" lon="0.87265">
        <ele>183.7490234</ele>
        <time>2010-06-06T09:39:13Z</time>
      </trkpt>
      <trkpt lat="44.6394" lon="0.87224">
        <ele>186.6331787</ele>
        <time>2010-06-06T09:39:26Z</time>
      </trkpt>
      <trkpt lat="44.6396" lon="0.87189">
        <ele>183.7490234</ele>
        <time>2010-06-06T09:39:38Z</time>
      </trkpt>
      <trkpt lat="44.63986" lon="0.87133">
        <ele>181.826416</ele>
        <time>2010-06-06T09:39:53Z</time>
      </trkpt>
      <trkpt lat="44.64" lon="0.87083">
        <ele>180.8652344</ele>
        <time>2010-06-06T09:40:03Z</time>
      </trkpt>
      <trkpt lat="44.64018" lon="0.87024">
        <ele>177.5006104</ele>
        <time>2010-06-06T09:40:14Z</time>
      </trkpt>
      <trkpt lat="44.64034" lon="0.86957">
        <ele>169.8100586</ele>
        <time>2010-06-06T09:40:27Z</time>
      </trkpt>
      <trkpt lat="44.64039" lon="0.86902">
        <ele>163.0808105</ele>
        <time>2010-06-06T09:40:38Z</time>
      </trkpt>
      <trkpt lat="44.64043" lon="0.86845">
        <ele>159.2354736</ele>
        <time>2010-06-06T09:40:49Z</time>
      </trkpt>
      <trkpt lat="44.6404" lon="0.86801">
        <ele>157.3128662</ele>
        <time>2010-06-06T09:40:56Z</time>
      </trkpt>
      <trkpt lat="44.64033" lon="0.86722">
        <ele>158.7547607</ele>
        <time>2010-06-06T09:41:09Z</time>
      </trkpt>
      <trkpt lat="44.64023" lon="0.86669">
        <ele>162.1195068</ele>
        <time>2010-06-06T09:41:19Z</time>
      </trkpt>
      <trkpt lat="44.64015" lon="0.86642">
        <ele>162.6000977</ele>
        <time>2010-06-06T09:41:23Z</time>
      </trkpt>
      <trkpt lat="44.64004" lon="0.86593">
        <ele>162.6000977</ele>
        <time>2010-06-06T09:41:29Z</time>
      </trkpt>
      <trkpt lat="44.63992" lon="0.86504">
        <ele>163.5615234</ele>
        <time>2010-06-06T09:41:39Z</time>
      </trkpt>
      <trkpt lat="44.63988" lon="0.86434">
        <ele>164.0421143</ele>
        <time>2010-06-06T09:41:48Z</time>
      </trkpt>
      <trkpt lat="44.63989" lon="0.86384">
        <ele>164.0421143</ele>
        <time>2010-06-06T09:41:54Z</time>
      </trkpt>
      <trkpt lat="44.6399" lon="0.86367">
        <ele>164.0421143</ele>
        <time>2010-06-06T09:41:56Z</time>
      </trkpt>
      <trkpt lat="44.63998" lon="0.86253">
        <ele>163.5615234</ele>
        <time>2010-06-06T09:42:09Z</time>
      </trkpt>
      <trkpt lat="44.64017" lon="0.86124">
        <ele>163.5615234</ele>
        <time>2010-06-06T09:42:19Z</time>
      </trkpt>
      <trkpt lat="44.64032" lon="0.86025">
        <ele>163.0808105</ele>
        <time>2010-06-06T09:42:27Z</time>
      </trkpt>
      <trkpt lat="44.64035" lon="0.86003">
        <ele>163.0808105</ele>
        <time>2010-06-06T09:42:29Z</time>
      </trkpt>
      <trkpt lat="44.64033" lon="0.85964">
        <ele>163.0808105</ele>
        <time>2010-06-06T09:42:33Z</time>
      </trkpt>
      <trkpt lat="44.64028" lon="0.85934">
        <ele>163.5615234</ele>
        <time>2010-06-06T09:42:37Z</time>
      </trkpt>
      <trkpt lat="44.64013" lon="0.85929">
        <ele>167.8873291</ele>
        <time>2010-06-06T09:42:47Z</time>
      </trkpt>
      <trkpt lat="44.64011" lon="0.85929">
        <ele>173.6552734</ele>
        <time>2010-06-06T09:43:13Z</time>
      </trkpt>
      <trkpt lat="44.64011" lon="0.85925">
        <ele>176.0585938</ele>
        <time>2010-06-06T09:43:58Z</time>
      </trkpt>
      <trkpt lat="44.64011" lon="0.85939">
        <ele>176.0585938</ele>
        <time>2010-06-06T09:44:05Z</time>
      </trkpt>
      <trkpt lat="44.63998" lon="0.85963">
        <ele>175.5778809</ele>
        <time>2010-06-06T09:44:14Z</time>
      </trkpt>
      <trkpt lat="44.6398" lon="0.85988">
        <ele>177.5006104</ele>
        <time>2010-06-06T09:44:26Z</time>
      </trkpt>
      <trkpt lat="44.63975" lon="0.85996">
        <ele>177.9812012</ele>
        <time>2010-06-06T09:44:30Z</time>
      </trkpt>
      <trkpt lat="44.63961" lon="0.86017">
        <ele>180.3845215</ele>
        <time>2010-06-06T09:44:42Z</time>
      </trkpt>
      <trkpt lat="44.63958" lon="0.86029">
        <ele>181.826416</ele>
        <time>2010-06-06T09:44:48Z</time>
      </trkpt>
      <trkpt lat="44.63951" lon="0.86052">
        <ele>178.942627</ele>
        <time>2010-06-06T09:45:01Z</time>
      </trkpt>
      <trkpt lat="44.6394" lon="0.86078">
        <ele>181.3458252</ele>
        <time>2010-06-06T09:45:14Z</time>
      </trkpt>
      <trkpt lat="44.6393" lon="0.86105">
        <ele>179.9038086</ele>
        <time>2010-06-06T09:45:26Z</time>
      </trkpt>
      <trkpt lat="44.63928" lon="0.86112">
        <ele>180.3845215</ele>
        <time>2010-06-06T09:45:29Z</time>
      </trkpt>
      <trkpt lat="44.63917" lon="0.86134">
        <ele>180.8652344</ele>
        <time>2010-06-06T09:45:39Z</time>
      </trkpt>
      <trkpt lat="44.63916" lon="0.86136">
        <ele>180.8652344</ele>
        <time>2010-06-06T09:45:40Z</time>
      </trkpt>
      <trkpt lat="44.6391" lon="0.86146">
        <ele>181.3458252</ele>
        <time>2010-06-06T09:45:45Z</time>
      </trkpt>
      <trkpt lat="44.63904" lon="0.86159">
        <ele>181.3458252</ele>
        <time>2010-06-06T09:45:52Z</time>
      </trkpt>
      <trkpt lat="44.63888" lon="0.86183">
        <ele>181.3458252</ele>
        <time>2010-06-06T09:46:06Z</time>
      </trkpt>
      <trkpt lat="44.63879" lon="0.86209">
        <ele>182.3071289</ele>
        <time>2010-06-06T09:46:20Z</time>
      </trkpt>
      <trkpt lat="44.63873" lon="0.8622">
        <ele>183.2684326</ele>
        <time>2010-06-06T09:46:27Z</time>
      </trkpt>
      <trkpt lat="44.63859" lon="0.86247">
        <ele>185.6717529</ele>
        <time>2010-06-06T09:46:42Z</time>
      </trkpt>
      <trkpt lat="44.63846" lon="0.86266">
        <ele>191.4395752</ele>
        <time>2010-06-06T09:46:54Z</time>
      </trkpt>
      <trkpt lat="44.63839" lon="0.86278">
        <ele>192.8817139</ele>
        <time>2010-06-06T09:47:00Z</time>
      </trkpt>
      <trkpt lat="44.63828" lon="0.86292">
        <ele>194.8043213</ele>
        <time>2010-06-06T09:47:09Z</time>
      </trkpt>
      <trkpt lat="44.63808" lon="0.86325">
        <ele>195.2849121</ele>
        <time>2010-06-06T09:47:23Z</time>
      </trkpt>
      <trkpt lat="44.63787" lon="0.86358">
        <ele>193.3623047</ele>
        <time>2010-06-06T09:47:34Z</time>
      </trkpt>
      <trkpt lat="44.6376" lon="0.86405">
        <ele>193.3623047</ele>
        <time>2010-06-06T09:47:46Z</time>
      </trkpt>
      <trkpt lat="44.63738" lon="0.86447">
        <ele>194.3237305</ele>
        <time>2010-06-06T09:47:57Z</time>
      </trkpt>
      <trkpt lat="44.63713" lon="0.8649">
        <ele>195.765625</ele>
        <time>2010-06-06T09:48:11Z</time>
      </trkpt>
      <trkpt lat="44.63702" lon="0.86505">
        <ele>196.7269287</ele>
        <time>2010-06-06T09:48:22Z</time>
      </trkpt>
      <trkpt lat="44.63697" lon="0.86509">
        <ele>197.2075195</ele>
        <time>2010-06-06T09:48:31Z</time>
      </trkpt>
      <trkpt lat="44.63697" lon="0.86509">
        <ele>197.6882324</ele>
        <time>2010-06-06T09:50:00Z</time>
      </trkpt>
      <trkpt lat="44.63694" lon="0.8651">
        <ele>198.1689453</ele>
        <time>2010-06-06T09:50:08Z</time>
      </trkpt>
      <trkpt lat="44.63682" lon="0.86525">
        <ele>199.130127</ele>
        <time>2010-06-06T09:50:18Z</time>
      </trkpt>
      <trkpt lat="44.63663" lon="0.86537">
        <ele>200.5722656</ele>
        <time>2010-06-06T09:50:29Z</time>
      </trkpt>
      <trkpt lat="44.63647" lon="0.86544">
        <ele>202.9754639</ele>
        <time>2010-06-06T09:50:38Z</time>
      </trkpt>
      <trkpt lat="44.63632" lon="0.86569">
        <ele>205.3787842</ele>
        <time>2010-06-06T09:50:48Z</time>
      </trkpt>
      <trkpt lat="44.63626" lon="0.86583">
        <ele>205.3787842</ele>
        <time>2010-06-06T09:50:52Z</time>
      </trkpt>
      <trkpt lat="44.63612" lon="0.8662">
        <ele>204.4174805</ele>
        <time>2010-06-06T09:51:00Z</time>
      </trkpt>
      <trkpt lat="44.63601" lon="0.86647">
        <ele>203.4561768</ele>
        <time>2010-06-06T09:51:05Z</time>
      </trkpt>
      <trkpt lat="44.6358" lon="0.86714">
        <ele>200.5722656</ele>
        <time>2010-06-06T09:51:17Z</time>
      </trkpt>
      <trkpt lat="44.63565" lon="0.8675">
        <ele>198.6495361</ele>
        <time>2010-06-06T09:51:25Z</time>
      </trkpt>
      <trkpt lat="44.63554" lon="0.86778">
        <ele>195.2849121</ele>
        <time>2010-06-06T09:51:30Z</time>
      </trkpt>
      <trkpt lat="44.63545" lon="0.86792">
        <ele>193.3623047</ele>
        <time>2010-06-06T09:51:33Z</time>
      </trkpt>
      <trkpt lat="44.63526" lon="0.86809">
        <ele>189.9976807</ele>
        <time>2010-06-06T09:51:38Z</time>
      </trkpt>
      <trkpt lat="44.63492" lon="0.86827">
        <ele>185.6717529</ele>
        <time>2010-06-06T09:51:48Z</time>
      </trkpt>
      <trkpt lat="44.63475" lon="0.86866">
        <ele>182.7878418</ele>
        <time>2010-06-06T09:51:57Z</time>
      </trkpt>
      <trkpt lat="44.63478" lon="0.86879">
        <ele>182.3071289</ele>
        <time>2010-06-06T09:52:00Z</time>
      </trkpt>
      <trkpt lat="44.63478" lon="0.8689">
        <ele>181.826416</ele>
        <time>2010-06-06T09:52:04Z</time>
      </trkpt>
      <trkpt lat="44.63477" lon="0.86895">
        <ele>181.3458252</ele>
        <time>2010-06-06T09:52:06Z</time>
      </trkpt>
      <trkpt lat="44.63457" lon="0.86918">
        <ele>180.3845215</ele>
        <time>2010-06-06T09:52:18Z</time>
      </trkpt>
      <trkpt lat="44.63432" lon="0.86936">
        <ele>180.8652344</ele>
        <time>2010-06-06T09:52:26Z</time>
      </trkpt>
      <trkpt lat="44.63389" lon="0.8695">
        <ele>180.3845215</ele>
        <time>2010-06-06T09:52:38Z</time>
      </trkpt>
      <trkpt lat="44.63363" lon="0.8696">
        <ele>180.8652344</ele>
        <time>2010-06-06T09:52:48Z</time>
      </trkpt>
      <trkpt lat="44.63357" lon="0.86964">
        <ele>180.8652344</ele>
        <time>2010-06-06T09:52:51Z</time>
      </trkpt>
      <trkpt lat="44.63349" lon="0.8697">
        <ele>181.826416</ele>
        <time>2010-06-06T09:52:57Z</time>
      </trkpt>
      <trkpt lat="44.6334" lon="0.86974">
        <ele>182.7878418</ele>
        <time>2010-06-06T09:53:03Z</time>
      </trkpt>
      <trkpt lat="44.63329" lon="0.86983">
        <ele>183.7490234</ele>
        <time>2010-06-06T09:53:14Z</time>
      </trkpt>
      <trkpt lat="44.63321" lon="0.86994">
        <ele>185.6717529</ele>
        <time>2010-06-06T09:53:24Z</time>
      </trkpt>
      <trkpt lat="44.6331" lon="0.87008">
        <ele>189.5169678</ele>
        <time>2010-06-06T09:53:34Z</time>
      </trkpt>
      <trkpt lat="44.63303" lon="0.87022">
        <ele>191.9202881</ele>
        <time>2010-06-06T09:53:43Z</time>
      </trkpt>
      <trkpt lat="44.63295" lon="0.87035">
        <ele>194.8043213</ele>
        <time>2010-06-06T09:53:54Z</time>
      </trkpt>
      <trkpt lat="44.63288" lon="0.87051">
        <ele>196.7269287</ele>
        <time>2010-06-06T09:54:09Z</time>
      </trkpt>
      <trkpt lat="44.63283" lon="0.87058">
        <ele>198.1689453</ele>
        <time>2010-06-06T09:54:18Z</time>
      </trkpt>
      <trkpt lat="44.63283" lon="0.87059">
        <ele>198.6495361</ele>
        <time>2010-06-06T09:54:19Z</time>
      </trkpt>
      <trkpt lat="44.63278" lon="0.87065">
        <ele>201.0528564</ele>
        <time>2010-06-06T09:54:25Z</time>
      </trkpt>
      <trkpt lat="44.63277" lon="0.87068">
        <ele>201.5335693</ele>
        <time>2010-06-06T09:54:27Z</time>
      </trkpt>
      <trkpt lat="44.63266" lon="0.87084">
        <ele>203.9368896</ele>
        <time>2010-06-06T09:54:41Z</time>
      </trkpt>
      <trkpt lat="44.63262" lon="0.87092">
        <ele>204.8980713</ele>
        <time>2010-06-06T09:54:48Z</time>
      </trkpt>
      <trkpt lat="44.63246" lon="0.87109">
        <ele>210.1854248</ele>
        <time>2010-06-06T09:55:01Z</time>
      </trkpt>
      <trkpt lat="44.63243" lon="0.87114">
        <ele>214.0306396</ele>
        <time>2010-06-06T09:55:11Z</time>
      </trkpt>
      <trkpt lat="44.63238" lon="0.87119">
        <ele>214.9919434</ele>
        <time>2010-06-06T09:55:22Z</time>
      </trkpt>
      <trkpt lat="44.6324" lon="0.87122">
        <ele>211.1467285</ele>
        <time>2010-06-06T09:55:46Z</time>
      </trkpt>
      <trkpt lat="44.63241" lon="0.87123">
        <ele>211.1467285</ele>
        <time>2010-06-06T09:56:01Z</time>
      </trkpt>
      <trkpt lat="44.63242" lon="0.87125">
        <ele>211.6274414</ele>
        <time>2010-06-06T09:56:06Z</time>
      </trkpt>
      <trkpt lat="44.63248" lon="0.87132">
        <ele>211.6274414</ele>
        <time>2010-06-06T09:56:13Z</time>
      </trkpt>
      <trkpt lat="44.63247" lon="0.8715">
        <ele>211.1467285</ele>
        <time>2010-06-06T09:56:26Z</time>
      </trkpt>
      <trkpt lat="44.63242" lon="0.87151">
        <ele>211.6274414</ele>
        <time>2010-06-06T09:56:29Z</time>
      </trkpt>
      <trkpt lat="44.63226" lon="0.87154">
        <ele>213.5500488</ele>
        <time>2010-06-06T09:56:39Z</time>
      </trkpt>
      <trkpt lat="44.63198" lon="0.87158">
        <ele>215.4726563</ele>
        <time>2010-06-06T09:56:57Z</time>
      </trkpt>
      <trkpt lat="44.63193" lon="0.87158">
        <ele>215.4726563</ele>
        <time>2010-06-06T09:57:00Z</time>
      </trkpt>
      <trkpt lat="44.63187" lon="0.8716">
        <ele>215.4726563</ele>
        <time>2010-06-06T09:57:04Z</time>
      </trkpt>
      <trkpt lat="44.63183" lon="0.87163">
        <ele>215.4726563</ele>
        <time>2010-06-06T09:57:07Z</time>
      </trkpt>
      <trkpt lat="44.63175" lon="0.87171">
        <ele>216.9146729</ele>
        <time>2010-06-06T09:57:18Z</time>
      </trkpt>
      <trkpt lat="44.63185" lon="0.87171">
        <ele>217.3953857</ele>
        <time>2010-06-06T09:57:23Z</time>
      </trkpt>
      <trkpt lat="44.63196" lon="0.87169">
        <ele>222.2017822</ele>
        <time>2010-06-06T09:57:32Z</time>
      </trkpt>
      <trkpt lat="44.63207" lon="0.87175">
        <ele>224.1245117</ele>
        <time>2010-06-06T09:57:40Z</time>
      </trkpt>
      <trkpt lat="44.63212" lon="0.87178">
        <ele>225.0859375</ele>
        <time>2010-06-06T09:57:44Z</time>
      </trkpt>
      <trkpt lat="44.63222" lon="0.87187">
        <ele>225.0859375</ele>
        <time>2010-06-06T09:57:52Z</time>
      </trkpt>
      <trkpt lat="44.63239" lon="0.87196">
        <ele>224.6052246</ele>
        <time>2010-06-06T09:58:02Z</time>
      </trkpt>
      <trkpt lat="44.63257" lon="0.87207">
        <ele>220.7598877</ele>
        <time>2010-06-06T09:58:12Z</time>
      </trkpt>
      <trkpt lat="44.63268" lon="0.87213">
        <ele>218.8372803</ele>
        <time>2010-06-06T09:58:17Z</time>
      </trkpt>
      <trkpt lat="44.63267" lon="0.87221">
        <ele>220.2791748</ele>
        <time>2010-06-06T09:58:21Z</time>
      </trkpt>
      <trkpt lat="44.63266" lon="0.87229">
        <ele>223.163208</ele>
        <time>2010-06-06T09:58:26Z</time>
      </trkpt>
      <trkpt lat="44.63268" lon="0.87236">
        <ele>224.6052246</ele>
        <time>2010-06-06T09:58:30Z</time>
      </trkpt>
      <trkpt lat="44.63264" lon="0.87252">
        <ele>227.4891357</ele>
        <time>2010-06-06T09:58:39Z</time>
      </trkpt>
      <trkpt lat="44.6325" lon="0.87279">
        <ele>230.8537598</ele>
        <time>2010-06-06T09:58:54Z</time>
      </trkpt>
      <trkpt lat="44.63241" lon="0.8729">
        <ele>231.8149414</ele>
        <time>2010-06-06T09:58:59Z</time>
      </trkpt>
      <trkpt lat="44.63227" lon="0.87287">
        <ele>231.3343506</ele>
        <time>2010-06-06T09:59:05Z</time>
      </trkpt>
      <trkpt lat="44.63204" lon="0.87265">
        <ele>230.8537598</ele>
        <time>2010-06-06T09:59:19Z</time>
      </trkpt>
      <trkpt lat="44.63199" lon="0.87255">
        <ele>230.3730469</ele>
        <time>2010-06-06T09:59:24Z</time>
      </trkpt>
      <trkpt lat="44.63192" lon="0.87237">
        <ele>229.4117432</ele>
        <time>2010-06-06T09:59:32Z</time>
      </trkpt>
      <trkpt lat="44.63197" lon="0.87235">
        <ele>230.8537598</ele>
        <time>2010-06-06T09:59:39Z</time>
      </trkpt>
      <trkpt lat="44.63198" lon="0.87233">
        <ele>231.3343506</ele>
        <time>2010-06-06T09:59:45Z</time>
      </trkpt>
    </trkseg>
  </trk>
</gpx>